<?xml version="1.0" encoding="UTF-8" standalone="no" ?>
<gpx xmlns="http://www.topografix.com/GPX/1/1" xmlns:xsi="http://www.w3.org/2001/XMLSchema-instance" xsi:schemaLocation="http://www.topografix.com/GPX/1/1 http://www.topografix.com/GPX/1/1/gpx.xsd" version="1.1" creator="VisuGPX - https://www.visugpx.com">
  <metadata>
    <name>Granfondo Provence Occitanie 2022</name>
  </metadata>
  <trk>
    <name><![CDATA[13821354-GFPO-PETIT-PARCOURS]]></name>
    <trkseg>
      <trkpt lat="44.2188" lon="4.48648">
        <ele>89</ele>
        <time>2021-11-06T13:37:19Z</time>
      </trkpt>
      <trkpt lat="44.21885" lon="4.48603">
        <ele>87</ele>
        <time>2021-11-06T13:37:25Z</time>
      </trkpt>
      <trkpt lat="44.21872" lon="4.48581">
        <ele>87</ele>
        <time>2021-11-06T13:37:28Z</time>
      </trkpt>
      <trkpt lat="44.21847" lon="4.48546">
        <ele>86</ele>
        <time>2021-11-06T13:37:35Z</time>
      </trkpt>
      <trkpt lat="44.21832" lon="4.4852">
        <ele>84</ele>
        <time>2021-11-06T13:37:39Z</time>
      </trkpt>
      <trkpt lat="44.21853" lon="4.485">
        <ele>83</ele>
        <time>2021-11-06T13:37:44Z</time>
      </trkpt>
      <trkpt lat="44.21886" lon="4.48458">
        <ele>82</ele>
        <time>2021-11-06T13:37:51Z</time>
      </trkpt>
      <trkpt lat="44.2197" lon="4.48346">
        <ele>81</ele>
        <time>2021-11-06T13:38:12Z</time>
      </trkpt>
      <trkpt lat="44.2217" lon="4.48047">
        <ele>85</ele>
        <time>2021-11-06T13:39:04Z</time>
      </trkpt>
      <trkpt lat="44.2217" lon="4.48038">
        <ele>84</ele>
        <time>2021-11-06T13:39:05Z</time>
      </trkpt>
      <trkpt lat="44.22164" lon="4.48024">
        <ele>84</ele>
        <time>2021-11-06T13:39:08Z</time>
      </trkpt>
      <trkpt lat="44.22139" lon="4.48002">
        <ele>83</ele>
        <time>2021-11-06T13:39:13Z</time>
      </trkpt>
      <trkpt lat="44.22056" lon="4.47907">
        <ele>78</ele>
        <time>2021-11-06T13:39:32Z</time>
      </trkpt>
      <trkpt lat="44.21903" lon="4.47735">
        <ele>77</ele>
        <time>2021-11-06T13:40:07Z</time>
      </trkpt>
      <trkpt lat="44.21872" lon="4.47696">
        <ele>78</ele>
        <time>2021-11-06T13:40:14Z</time>
      </trkpt>
      <trkpt lat="44.21838" lon="4.47659">
        <ele>79</ele>
        <time>2021-11-06T13:40:22Z</time>
      </trkpt>
      <trkpt lat="44.21803" lon="4.47617">
        <ele>78</ele>
        <time>2021-11-06T13:40:30Z</time>
      </trkpt>
      <trkpt lat="44.21794" lon="4.47601">
        <ele>77</ele>
        <time>2021-11-06T13:40:33Z</time>
      </trkpt>
      <trkpt lat="44.21672" lon="4.47316">
        <ele>80</ele>
        <time>2021-11-06T13:41:15Z</time>
      </trkpt>
      <trkpt lat="44.21648" lon="4.47254">
        <ele>79</ele>
        <time>2021-11-06T13:41:24Z</time>
      </trkpt>
      <trkpt lat="44.21643" lon="4.47239">
        <ele>79</ele>
        <time>2021-11-06T13:41:26Z</time>
      </trkpt>
      <trkpt lat="44.21639" lon="4.47154">
        <ele>78</ele>
        <time>2021-11-06T13:41:37Z</time>
      </trkpt>
      <trkpt lat="44.2164" lon="4.47121">
        <ele>79</ele>
        <time>2021-11-06T13:41:41Z</time>
      </trkpt>
      <trkpt lat="44.21648" lon="4.47064">
        <ele>79</ele>
        <time>2021-11-06T13:41:49Z</time>
      </trkpt>
      <trkpt lat="44.21646" lon="4.47047">
        <ele>79</ele>
        <time>2021-11-06T13:41:51Z</time>
      </trkpt>
      <trkpt lat="44.21642" lon="4.47037">
        <ele>79</ele>
        <time>2021-11-06T13:41:52Z</time>
      </trkpt>
      <trkpt lat="44.21615" lon="4.46997">
        <ele>79</ele>
        <time>2021-11-06T13:41:59Z</time>
      </trkpt>
      <trkpt lat="44.21607" lon="4.46981">
        <ele>79</ele>
        <time>2021-11-06T13:42:02Z</time>
      </trkpt>
      <trkpt lat="44.21586" lon="4.4693">
        <ele>79</ele>
        <time>2021-11-06T13:42:09Z</time>
      </trkpt>
      <trkpt lat="44.21529" lon="4.46806">
        <ele>79</ele>
        <time>2021-11-06T13:42:28Z</time>
      </trkpt>
      <trkpt lat="44.21524" lon="4.468">
        <ele>79</ele>
        <time>2021-11-06T13:42:29Z</time>
      </trkpt>
      <trkpt lat="44.2151" lon="4.46791">
        <ele>79</ele>
        <time>2021-11-06T13:42:32Z</time>
      </trkpt>
      <trkpt lat="44.21497" lon="4.46785">
        <ele>79</ele>
        <time>2021-11-06T13:42:34Z</time>
      </trkpt>
      <trkpt lat="44.21454" lon="4.46757">
        <ele>81</ele>
        <time>2021-11-06T13:42:43Z</time>
      </trkpt>
      <trkpt lat="44.21429" lon="4.46735">
        <ele>82</ele>
        <time>2021-11-06T13:42:48Z</time>
      </trkpt>
      <trkpt lat="44.21399" lon="4.46717">
        <ele>82</ele>
        <time>2021-11-06T13:42:54Z</time>
      </trkpt>
      <trkpt lat="44.21351" lon="4.46698">
        <ele>82</ele>
        <time>2021-11-06T13:43:03Z</time>
      </trkpt>
      <trkpt lat="44.21329" lon="4.46694">
        <ele>82</ele>
        <time>2021-11-06T13:43:07Z</time>
      </trkpt>
      <trkpt lat="44.21307" lon="4.46696">
        <ele>83</ele>
        <time>2021-11-06T13:43:11Z</time>
      </trkpt>
      <trkpt lat="44.21279" lon="4.4671">
        <ele>82</ele>
        <time>2021-11-06T13:43:16Z</time>
      </trkpt>
      <trkpt lat="44.21246" lon="4.46743">
        <ele>80</ele>
        <time>2021-11-06T13:43:23Z</time>
      </trkpt>
      <trkpt lat="44.21197" lon="4.46798">
        <ele>81</ele>
        <time>2021-11-06T13:43:34Z</time>
      </trkpt>
      <trkpt lat="44.21181" lon="4.46811">
        <ele>81</ele>
        <time>2021-11-06T13:43:38Z</time>
      </trkpt>
      <trkpt lat="44.2116" lon="4.4682">
        <ele>81</ele>
        <time>2021-11-06T13:43:42Z</time>
      </trkpt>
      <trkpt lat="44.21138" lon="4.46821">
        <ele>80</ele>
        <time>2021-11-06T13:43:46Z</time>
      </trkpt>
      <trkpt lat="44.21047" lon="4.4681">
        <ele>79</ele>
        <time>2021-11-06T13:44:02Z</time>
      </trkpt>
      <trkpt lat="44.21027" lon="4.46802">
        <ele>79</ele>
        <time>2021-11-06T13:44:05Z</time>
      </trkpt>
      <trkpt lat="44.21014" lon="4.46794">
        <ele>79</ele>
        <time>2021-11-06T13:44:08Z</time>
      </trkpt>
      <trkpt lat="44.20854" lon="4.46695">
        <ele>74</ele>
        <time>2021-11-06T13:44:39Z</time>
      </trkpt>
      <trkpt lat="44.20698" lon="4.46567">
        <ele>78</ele>
        <time>2021-11-06T13:45:11Z</time>
      </trkpt>
      <trkpt lat="44.20665" lon="4.46543">
        <ele>80</ele>
        <time>2021-11-06T13:45:18Z</time>
      </trkpt>
      <trkpt lat="44.20639" lon="4.46532">
        <ele>81</ele>
        <time>2021-11-06T13:45:23Z</time>
      </trkpt>
      <trkpt lat="44.20623" lon="4.46528">
        <ele>81</ele>
        <time>2021-11-06T13:45:26Z</time>
      </trkpt>
      <trkpt lat="44.20612" lon="4.46527">
        <ele>81</ele>
        <time>2021-11-06T13:45:28Z</time>
      </trkpt>
      <trkpt lat="44.20576" lon="4.46531">
        <ele>81</ele>
        <time>2021-11-06T13:45:34Z</time>
      </trkpt>
      <trkpt lat="44.20547" lon="4.46543">
        <ele>80</ele>
        <time>2021-11-06T13:45:39Z</time>
      </trkpt>
      <trkpt lat="44.204" lon="4.46626">
        <ele>83</ele>
        <time>2021-11-06T13:46:08Z</time>
      </trkpt>
      <trkpt lat="44.20387" lon="4.46637">
        <ele>85</ele>
        <time>2021-11-06T13:46:10Z</time>
      </trkpt>
      <trkpt lat="44.20383" lon="4.46643">
        <ele>86</ele>
        <time>2021-11-06T13:46:11Z</time>
      </trkpt>
      <trkpt lat="44.20379" lon="4.46665">
        <ele>87</ele>
        <time>2021-11-06T13:46:14Z</time>
      </trkpt>
      <trkpt lat="44.20375" lon="4.46696">
        <ele>88</ele>
        <time>2021-11-06T13:46:18Z</time>
      </trkpt>
      <trkpt lat="44.20372" lon="4.46867">
        <ele>83</ele>
        <time>2021-11-06T13:46:40Z</time>
      </trkpt>
      <trkpt lat="44.20368" lon="4.46883">
        <ele>83</ele>
        <time>2021-11-06T13:46:42Z</time>
      </trkpt>
      <trkpt lat="44.20326" lon="4.4694">
        <ele>83</ele>
        <time>2021-11-06T13:46:53Z</time>
      </trkpt>
      <trkpt lat="44.20316" lon="4.46957">
        <ele>82</ele>
        <time>2021-11-06T13:46:56Z</time>
      </trkpt>
      <trkpt lat="44.20292" lon="4.47019">
        <ele>79</ele>
        <time>2021-11-06T13:47:05Z</time>
      </trkpt>
      <trkpt lat="44.20284" lon="4.47033">
        <ele>78</ele>
        <time>2021-11-06T13:47:07Z</time>
      </trkpt>
      <trkpt lat="44.20265" lon="4.47057">
        <ele>76</ele>
        <time>2021-11-06T13:47:11Z</time>
      </trkpt>
      <trkpt lat="44.20255" lon="4.47066">
        <ele>75</ele>
        <time>2021-11-06T13:47:14Z</time>
      </trkpt>
      <trkpt lat="44.20069" lon="4.47203">
        <ele>74</ele>
        <time>2021-11-06T13:47:51Z</time>
      </trkpt>
      <trkpt lat="44.1993" lon="4.47275">
        <ele>74</ele>
        <time>2021-11-06T13:48:17Z</time>
      </trkpt>
      <trkpt lat="44.19915" lon="4.47288">
        <ele>75</ele>
        <time>2021-11-06T13:48:20Z</time>
      </trkpt>
      <trkpt lat="44.199" lon="4.47307">
        <ele>75</ele>
        <time>2021-11-06T13:48:24Z</time>
      </trkpt>
      <trkpt lat="44.19847" lon="4.47398">
        <ele>74</ele>
        <time>2021-11-06T13:48:39Z</time>
      </trkpt>
      <trkpt lat="44.19824" lon="4.47426">
        <ele>74</ele>
        <time>2021-11-06T13:48:44Z</time>
      </trkpt>
      <trkpt lat="44.19799" lon="4.4745">
        <ele>77</ele>
        <time>2021-11-06T13:48:50Z</time>
      </trkpt>
      <trkpt lat="44.19789" lon="4.4746">
        <ele>78</ele>
        <time>2021-11-06T13:48:52Z</time>
      </trkpt>
      <trkpt lat="44.19757" lon="4.47491">
        <ele>81</ele>
        <time>2021-11-06T13:48:59Z</time>
      </trkpt>
      <trkpt lat="44.19746" lon="4.47506">
        <ele>83</ele>
        <time>2021-11-06T13:49:02Z</time>
      </trkpt>
      <trkpt lat="44.1972" lon="4.47544">
        <ele>88</ele>
        <time>2021-11-06T13:49:08Z</time>
      </trkpt>
      <trkpt lat="44.19709" lon="4.47568">
        <ele>89</ele>
        <time>2021-11-06T13:49:12Z</time>
      </trkpt>
      <trkpt lat="44.19693" lon="4.47615">
        <ele>90</ele>
        <time>2021-11-06T13:49:19Z</time>
      </trkpt>
      <trkpt lat="44.1968" lon="4.47695">
        <ele>86</ele>
        <time>2021-11-06T13:49:29Z</time>
      </trkpt>
      <trkpt lat="44.19677" lon="4.47709">
        <ele>85</ele>
        <time>2021-11-06T13:49:31Z</time>
      </trkpt>
      <trkpt lat="44.19666" lon="4.47733">
        <ele>85</ele>
        <time>2021-11-06T13:49:35Z</time>
      </trkpt>
      <trkpt lat="44.19644" lon="4.47749">
        <ele>86</ele>
        <time>2021-11-06T13:49:39Z</time>
      </trkpt>
      <trkpt lat="44.19595" lon="4.47767">
        <ele>89</ele>
        <time>2021-11-06T13:49:48Z</time>
      </trkpt>
      <trkpt lat="44.19571" lon="4.47778">
        <ele>89</ele>
        <time>2021-11-06T13:49:53Z</time>
      </trkpt>
      <trkpt lat="44.19532" lon="4.47805">
        <ele>87</ele>
        <time>2021-11-06T13:50:00Z</time>
      </trkpt>
      <trkpt lat="44.19407" lon="4.4793">
        <ele>81</ele>
        <time>2021-11-06T13:50:28Z</time>
      </trkpt>
      <trkpt lat="44.19201" lon="4.48127">
        <ele>76</ele>
        <time>2021-11-06T13:51:12Z</time>
      </trkpt>
      <trkpt lat="44.19184" lon="4.48143">
        <ele>77</ele>
        <time>2021-11-06T13:51:16Z</time>
      </trkpt>
      <trkpt lat="44.19156" lon="4.4817">
        <ele>78</ele>
        <time>2021-11-06T13:51:22Z</time>
      </trkpt>
      <trkpt lat="44.19127" lon="4.4819">
        <ele>78</ele>
        <time>2021-11-06T13:51:28Z</time>
      </trkpt>
      <trkpt lat="44.19104" lon="4.48198">
        <ele>78</ele>
        <time>2021-11-06T13:51:32Z</time>
      </trkpt>
      <trkpt lat="44.19079" lon="4.48204">
        <ele>78</ele>
        <time>2021-11-06T13:51:36Z</time>
      </trkpt>
      <trkpt lat="44.19055" lon="4.48202">
        <ele>79</ele>
        <time>2021-11-06T13:51:41Z</time>
      </trkpt>
      <trkpt lat="44.18893" lon="4.48163">
        <ele>82</ele>
        <time>2021-11-06T13:52:10Z</time>
      </trkpt>
      <trkpt lat="44.18871" lon="4.48152">
        <ele>84</ele>
        <time>2021-11-06T13:52:14Z</time>
      </trkpt>
      <trkpt lat="44.18855" lon="4.48137">
        <ele>84</ele>
        <time>2021-11-06T13:52:17Z</time>
      </trkpt>
      <trkpt lat="44.18838" lon="4.48114">
        <ele>84</ele>
        <time>2021-11-06T13:52:22Z</time>
      </trkpt>
      <trkpt lat="44.18809" lon="4.48063">
        <ele>83</ele>
        <time>2021-11-06T13:52:30Z</time>
      </trkpt>
      <trkpt lat="44.18745" lon="4.47942">
        <ele>80</ele>
        <time>2021-11-06T13:52:49Z</time>
      </trkpt>
      <trkpt lat="44.1873" lon="4.4792">
        <ele>79</ele>
        <time>2021-11-06T13:52:53Z</time>
      </trkpt>
      <trkpt lat="44.18551" lon="4.47742">
        <ele>80</ele>
        <time>2021-11-06T13:53:32Z</time>
      </trkpt>
      <trkpt lat="44.18538" lon="4.47735">
        <ele>81</ele>
        <time>2021-11-06T13:53:35Z</time>
      </trkpt>
      <trkpt lat="44.18518" lon="4.47731">
        <ele>81</ele>
        <time>2021-11-06T13:53:38Z</time>
      </trkpt>
      <trkpt lat="44.18357" lon="4.47725">
        <ele>85</ele>
        <time>2021-11-06T13:54:07Z</time>
      </trkpt>
      <trkpt lat="44.18354" lon="4.4772">
        <ele>85</ele>
        <time>2021-11-06T13:54:08Z</time>
      </trkpt>
      <trkpt lat="44.18348" lon="4.47665">
        <ele>84</ele>
        <time>2021-11-06T13:54:15Z</time>
      </trkpt>
      <trkpt lat="44.18292" lon="4.47403">
        <ele>80</ele>
        <time>2021-11-06T13:54:50Z</time>
      </trkpt>
      <trkpt lat="44.18203" lon="4.4697">
        <ele>89</ele>
        <time>2021-11-06T13:55:47Z</time>
      </trkpt>
      <trkpt lat="44.182" lon="4.46956">
        <ele>89</ele>
        <time>2021-11-06T13:55:49Z</time>
      </trkpt>
      <trkpt lat="44.18189" lon="4.46896">
        <ele>89</ele>
        <time>2021-11-06T13:55:57Z</time>
      </trkpt>
      <trkpt lat="44.1819" lon="4.4687">
        <ele>89</ele>
        <time>2021-11-06T13:56:00Z</time>
      </trkpt>
      <trkpt lat="44.18206" lon="4.46734">
        <ele>87</ele>
        <time>2021-11-06T13:56:18Z</time>
      </trkpt>
      <trkpt lat="44.18207" lon="4.46692">
        <ele>89</ele>
        <time>2021-11-06T13:56:23Z</time>
      </trkpt>
      <trkpt lat="44.18206" lon="4.46673">
        <ele>89</ele>
        <time>2021-11-06T13:56:26Z</time>
      </trkpt>
      <trkpt lat="44.182" lon="4.4665">
        <ele>90</ele>
        <time>2021-11-06T13:56:29Z</time>
      </trkpt>
      <trkpt lat="44.18191" lon="4.4663">
        <ele>90</ele>
        <time>2021-11-06T13:56:32Z</time>
      </trkpt>
      <trkpt lat="44.18171" lon="4.46598">
        <ele>90</ele>
        <time>2021-11-06T13:56:37Z</time>
      </trkpt>
      <trkpt lat="44.18096" lon="4.46491">
        <ele>92</ele>
        <time>2021-11-06T13:56:56Z</time>
      </trkpt>
      <trkpt lat="44.18032" lon="4.46411">
        <ele>100</ele>
        <time>2021-11-06T13:57:12Z</time>
      </trkpt>
      <trkpt lat="44.18025" lon="4.46398">
        <ele>101</ele>
        <time>2021-11-06T13:57:14Z</time>
      </trkpt>
      <trkpt lat="44.18009" lon="4.46354">
        <ele>100</ele>
        <time>2021-11-06T13:57:20Z</time>
      </trkpt>
      <trkpt lat="44.17982" lon="4.46259">
        <ele>98</ele>
        <time>2021-11-06T13:57:33Z</time>
      </trkpt>
      <trkpt lat="44.17976" lon="4.46233">
        <ele>99</ele>
        <time>2021-11-06T13:57:36Z</time>
      </trkpt>
      <trkpt lat="44.1797" lon="4.46196">
        <ele>101</ele>
        <time>2021-11-06T13:57:41Z</time>
      </trkpt>
      <trkpt lat="44.17969" lon="4.46173">
        <ele>102</ele>
        <time>2021-11-06T13:57:44Z</time>
      </trkpt>
      <trkpt lat="44.17971" lon="4.46082">
        <ele>97</ele>
        <time>2021-11-06T13:57:56Z</time>
      </trkpt>
      <trkpt lat="44.17966" lon="4.46046">
        <ele>95</ele>
        <time>2021-11-06T13:58:01Z</time>
      </trkpt>
      <trkpt lat="44.17956" lon="4.4602">
        <ele>96</ele>
        <time>2021-11-06T13:58:04Z</time>
      </trkpt>
      <trkpt lat="44.17922" lon="4.45969">
        <ele>98</ele>
        <time>2021-11-06T13:58:13Z</time>
      </trkpt>
      <trkpt lat="44.17917" lon="4.45958">
        <ele>98</ele>
        <time>2021-11-06T13:58:15Z</time>
      </trkpt>
      <trkpt lat="44.17909" lon="4.45936">
        <ele>97</ele>
        <time>2021-11-06T13:58:18Z</time>
      </trkpt>
      <trkpt lat="44.17904" lon="4.45914">
        <ele>95</ele>
        <time>2021-11-06T13:58:21Z</time>
      </trkpt>
      <trkpt lat="44.17852" lon="4.45594">
        <ele>90</ele>
        <time>2021-11-06T13:59:03Z</time>
      </trkpt>
      <trkpt lat="44.17841" lon="4.45541">
        <ele>91</ele>
        <time>2021-11-06T13:59:10Z</time>
      </trkpt>
      <trkpt lat="44.17827" lon="4.45504">
        <ele>94</ele>
        <time>2021-11-06T13:59:15Z</time>
      </trkpt>
      <trkpt lat="44.17775" lon="4.45406">
        <ele>100</ele>
        <time>2021-11-06T13:59:31Z</time>
      </trkpt>
      <trkpt lat="44.1777" lon="4.45392">
        <ele>100</ele>
        <time>2021-11-06T13:59:33Z</time>
      </trkpt>
      <trkpt lat="44.17765" lon="4.45365">
        <ele>99</ele>
        <time>2021-11-06T13:59:36Z</time>
      </trkpt>
      <trkpt lat="44.17765" lon="4.45335">
        <ele>98</ele>
        <time>2021-11-06T13:59:40Z</time>
      </trkpt>
      <trkpt lat="44.17771" lon="4.45156">
        <ele>94</ele>
        <time>2021-11-06T14:00:03Z</time>
      </trkpt>
      <trkpt lat="44.17769" lon="4.45123">
        <ele>92</ele>
        <time>2021-11-06T14:00:07Z</time>
      </trkpt>
      <trkpt lat="44.17765" lon="4.45106">
        <ele>91</ele>
        <time>2021-11-06T14:00:10Z</time>
      </trkpt>
      <trkpt lat="44.17758" lon="4.45087">
        <ele>90</ele>
        <time>2021-11-06T14:00:12Z</time>
      </trkpt>
      <trkpt lat="44.17747" lon="4.45066">
        <ele>89</ele>
        <time>2021-11-06T14:00:16Z</time>
      </trkpt>
      <trkpt lat="44.17691" lon="4.44989">
        <ele>88</ele>
        <time>2021-11-06T14:00:30Z</time>
      </trkpt>
      <trkpt lat="44.17683" lon="4.4498">
        <ele>88</ele>
        <time>2021-11-06T14:00:31Z</time>
      </trkpt>
      <trkpt lat="44.17662" lon="4.44953">
        <ele>89</ele>
        <time>2021-11-06T14:00:36Z</time>
      </trkpt>
      <trkpt lat="44.17647" lon="4.44937">
        <ele>90</ele>
        <time>2021-11-06T14:00:40Z</time>
      </trkpt>
      <trkpt lat="44.17635" lon="4.44927">
        <ele>90</ele>
        <time>2021-11-06T14:00:42Z</time>
      </trkpt>
      <trkpt lat="44.17605" lon="4.44915">
        <ele>92</ele>
        <time>2021-11-06T14:00:48Z</time>
      </trkpt>
      <trkpt lat="44.17441" lon="4.44868">
        <ele>96</ele>
        <time>2021-11-06T14:01:18Z</time>
      </trkpt>
      <trkpt lat="44.17377" lon="4.44828">
        <ele>98</ele>
        <time>2021-11-06T14:01:30Z</time>
      </trkpt>
      <trkpt lat="44.17344" lon="4.44802">
        <ele>99</ele>
        <time>2021-11-06T14:01:37Z</time>
      </trkpt>
      <trkpt lat="44.17326" lon="4.44781">
        <ele>100</ele>
        <time>2021-11-06T14:01:41Z</time>
      </trkpt>
      <trkpt lat="44.17257" lon="4.44676">
        <ele>108</ele>
        <time>2021-11-06T14:01:59Z</time>
      </trkpt>
      <trkpt lat="44.17239" lon="4.44652">
        <ele>110</ele>
        <time>2021-11-06T14:02:04Z</time>
      </trkpt>
      <trkpt lat="44.17205" lon="4.44625">
        <ele>112</ele>
        <time>2021-11-06T14:02:11Z</time>
      </trkpt>
      <trkpt lat="44.17181" lon="4.44608">
        <ele>115</ele>
        <time>2021-11-06T14:02:15Z</time>
      </trkpt>
      <trkpt lat="44.17129" lon="4.4456">
        <ele>120</ele>
        <time>2021-11-06T14:02:26Z</time>
      </trkpt>
      <trkpt lat="44.1711" lon="4.44556">
        <ele>120</ele>
        <time>2021-11-06T14:02:30Z</time>
      </trkpt>
      <trkpt lat="44.17082" lon="4.44558">
        <ele>121</ele>
        <time>2021-11-06T14:02:35Z</time>
      </trkpt>
      <trkpt lat="44.17074" lon="4.44558">
        <ele>121</ele>
        <time>2021-11-06T14:02:36Z</time>
      </trkpt>
      <trkpt lat="44.17044" lon="4.44548">
        <ele>124</ele>
        <time>2021-11-06T14:02:42Z</time>
      </trkpt>
      <trkpt lat="44.17035" lon="4.44548">
        <ele>125</ele>
        <time>2021-11-06T14:02:43Z</time>
      </trkpt>
      <trkpt lat="44.17028" lon="4.44552">
        <ele>125</ele>
        <time>2021-11-06T14:02:45Z</time>
      </trkpt>
      <trkpt lat="44.17015" lon="4.44566">
        <ele>124</ele>
        <time>2021-11-06T14:02:48Z</time>
      </trkpt>
      <trkpt lat="44.16994" lon="4.44578">
        <ele>124</ele>
        <time>2021-11-06T14:02:52Z</time>
      </trkpt>
      <trkpt lat="44.16918" lon="4.44638">
        <ele>126</ele>
        <time>2021-11-06T14:03:07Z</time>
      </trkpt>
      <trkpt lat="44.1689" lon="4.44668">
        <ele>125</ele>
        <time>2021-11-06T14:03:14Z</time>
      </trkpt>
      <trkpt lat="44.16842" lon="4.44703">
        <ele>125</ele>
        <time>2021-11-06T14:03:23Z</time>
      </trkpt>
      <trkpt lat="44.16813" lon="4.44717">
        <ele>125</ele>
        <time>2021-11-06T14:03:29Z</time>
      </trkpt>
      <trkpt lat="44.16803" lon="4.44675">
        <ele>128</ele>
        <time>2021-11-06T14:03:34Z</time>
      </trkpt>
      <trkpt lat="44.16793" lon="4.44645">
        <ele>130</ele>
        <time>2021-11-06T14:03:39Z</time>
      </trkpt>
      <trkpt lat="44.16789" lon="4.44628">
        <ele>131</ele>
        <time>2021-11-06T14:03:41Z</time>
      </trkpt>
      <trkpt lat="44.16787" lon="4.44608">
        <ele>132</ele>
        <time>2021-11-06T14:03:43Z</time>
      </trkpt>
      <trkpt lat="44.1679" lon="4.44594">
        <ele>133</ele>
        <time>2021-11-06T14:03:45Z</time>
      </trkpt>
      <trkpt lat="44.1679" lon="4.44581">
        <ele>134</ele>
        <time>2021-11-06T14:03:47Z</time>
      </trkpt>
      <trkpt lat="44.16788" lon="4.44571">
        <ele>134</ele>
        <time>2021-11-06T14:03:48Z</time>
      </trkpt>
      <trkpt lat="44.16784" lon="4.44563">
        <ele>135</ele>
        <time>2021-11-06T14:03:49Z</time>
      </trkpt>
      <trkpt lat="44.16794" lon="4.44551">
        <ele>135</ele>
        <time>2021-11-06T14:03:52Z</time>
      </trkpt>
      <trkpt lat="44.16804" lon="4.44536">
        <ele>136</ele>
        <time>2021-11-06T14:03:54Z</time>
      </trkpt>
      <trkpt lat="44.16814" lon="4.44508">
        <ele>136</ele>
        <time>2021-11-06T14:03:58Z</time>
      </trkpt>
      <trkpt lat="44.16816" lon="4.44493">
        <ele>137</ele>
        <time>2021-11-06T14:04:00Z</time>
      </trkpt>
      <trkpt lat="44.16815" lon="4.4448">
        <ele>138</ele>
        <time>2021-11-06T14:04:02Z</time>
      </trkpt>
      <trkpt lat="44.16808" lon="4.44458">
        <ele>140</ele>
        <time>2021-11-06T14:04:05Z</time>
      </trkpt>
      <trkpt lat="44.16795" lon="4.44433">
        <ele>141</ele>
        <time>2021-11-06T14:04:09Z</time>
      </trkpt>
      <trkpt lat="44.16776" lon="4.44415">
        <ele>141</ele>
        <time>2021-11-06T14:04:13Z</time>
      </trkpt>
      <trkpt lat="44.16745" lon="4.4439">
        <ele>143</ele>
        <time>2021-11-06T14:04:20Z</time>
      </trkpt>
      <trkpt lat="44.16737" lon="4.4438">
        <ele>146</ele>
        <time>2021-11-06T14:04:21Z</time>
      </trkpt>
      <trkpt lat="44.16731" lon="4.44368">
        <ele>148</ele>
        <time>2021-11-06T14:04:23Z</time>
      </trkpt>
      <trkpt lat="44.16725" lon="4.44352">
        <ele>150</ele>
        <time>2021-11-06T14:04:26Z</time>
      </trkpt>
      <trkpt lat="44.16722" lon="4.44335">
        <ele>152</ele>
        <time>2021-11-06T14:04:28Z</time>
      </trkpt>
      <trkpt lat="44.1672" lon="4.44316">
        <ele>153</ele>
        <time>2021-11-06T14:04:30Z</time>
      </trkpt>
      <trkpt lat="44.16724" lon="4.44274">
        <ele>155</ele>
        <time>2021-11-06T14:04:36Z</time>
      </trkpt>
      <trkpt lat="44.16723" lon="4.44254">
        <ele>156</ele>
        <time>2021-11-06T14:04:38Z</time>
      </trkpt>
      <trkpt lat="44.1672" lon="4.44235">
        <ele>158</ele>
        <time>2021-11-06T14:04:41Z</time>
      </trkpt>
      <trkpt lat="44.16712" lon="4.44207">
        <ele>160</ele>
        <time>2021-11-06T14:04:45Z</time>
      </trkpt>
      <trkpt lat="44.16702" lon="4.44196">
        <ele>160</ele>
        <time>2021-11-06T14:04:47Z</time>
      </trkpt>
      <trkpt lat="44.16662" lon="4.44167">
        <ele>157</ele>
        <time>2021-11-06T14:04:55Z</time>
      </trkpt>
      <trkpt lat="44.16652" lon="4.44158">
        <ele>161</ele>
        <time>2021-11-06T14:04:57Z</time>
      </trkpt>
      <trkpt lat="44.16576" lon="4.44033">
        <ele>167</ele>
        <time>2021-11-06T14:05:18Z</time>
      </trkpt>
      <trkpt lat="44.16565" lon="4.4401">
        <ele>168</ele>
        <time>2021-11-06T14:05:21Z</time>
      </trkpt>
      <trkpt lat="44.16563" lon="4.43987">
        <ele>168</ele>
        <time>2021-11-06T14:05:24Z</time>
      </trkpt>
      <trkpt lat="44.16564" lon="4.43976">
        <ele>168</ele>
        <time>2021-11-06T14:05:26Z</time>
      </trkpt>
      <trkpt lat="44.16595" lon="4.43905">
        <ele>172</ele>
        <time>2021-11-06T14:05:36Z</time>
      </trkpt>
      <trkpt lat="44.16603" lon="4.43879">
        <ele>175</ele>
        <time>2021-11-06T14:05:40Z</time>
      </trkpt>
      <trkpt lat="44.16601" lon="4.43855">
        <ele>174</ele>
        <time>2021-11-06T14:05:43Z</time>
      </trkpt>
      <trkpt lat="44.16596" lon="4.43835">
        <ele>172</ele>
        <time>2021-11-06T14:05:46Z</time>
      </trkpt>
      <trkpt lat="44.16591" lon="4.43825">
        <ele>171</ele>
        <time>2021-11-06T14:05:47Z</time>
      </trkpt>
      <trkpt lat="44.16505" lon="4.43729">
        <ele>174</ele>
        <time>2021-11-06T14:06:07Z</time>
      </trkpt>
      <trkpt lat="44.16498" lon="4.4372">
        <ele>175</ele>
        <time>2021-11-06T14:06:09Z</time>
      </trkpt>
      <trkpt lat="44.1649" lon="4.43696">
        <ele>176</ele>
        <time>2021-11-06T14:06:12Z</time>
      </trkpt>
      <trkpt lat="44.16491" lon="4.43671">
        <ele>175</ele>
        <time>2021-11-06T14:06:15Z</time>
      </trkpt>
      <trkpt lat="44.16495" lon="4.43661">
        <ele>175</ele>
        <time>2021-11-06T14:06:17Z</time>
      </trkpt>
      <trkpt lat="44.16502" lon="4.4365">
        <ele>174</ele>
        <time>2021-11-06T14:06:19Z</time>
      </trkpt>
      <trkpt lat="44.16536" lon="4.43609">
        <ele>177</ele>
        <time>2021-11-06T14:06:27Z</time>
      </trkpt>
      <trkpt lat="44.16544" lon="4.43594">
        <ele>178</ele>
        <time>2021-11-06T14:06:29Z</time>
      </trkpt>
      <trkpt lat="44.16552" lon="4.43561">
        <ele>181</ele>
        <time>2021-11-06T14:06:33Z</time>
      </trkpt>
      <trkpt lat="44.16553" lon="4.43545">
        <ele>182</ele>
        <time>2021-11-06T14:06:35Z</time>
      </trkpt>
      <trkpt lat="44.16552" lon="4.43531">
        <ele>184</ele>
        <time>2021-11-06T14:06:37Z</time>
      </trkpt>
      <trkpt lat="44.16548" lon="4.43516">
        <ele>185</ele>
        <time>2021-11-06T14:06:39Z</time>
      </trkpt>
      <trkpt lat="44.16511" lon="4.43433">
        <ele>187</ele>
        <time>2021-11-06T14:06:52Z</time>
      </trkpt>
      <trkpt lat="44.16504" lon="4.4342">
        <ele>186</ele>
        <time>2021-11-06T14:06:54Z</time>
      </trkpt>
      <trkpt lat="44.16497" lon="4.43411">
        <ele>186</ele>
        <time>2021-11-06T14:06:56Z</time>
      </trkpt>
      <trkpt lat="44.16487" lon="4.43406">
        <ele>188</ele>
        <time>2021-11-06T14:06:57Z</time>
      </trkpt>
      <trkpt lat="44.16448" lon="4.43393">
        <ele>191</ele>
        <time>2021-11-06T14:07:05Z</time>
      </trkpt>
      <trkpt lat="44.16435" lon="4.43386">
        <ele>192</ele>
        <time>2021-11-06T14:07:07Z</time>
      </trkpt>
      <trkpt lat="44.16428" lon="4.43379">
        <ele>191</ele>
        <time>2021-11-06T14:07:09Z</time>
      </trkpt>
      <trkpt lat="44.1642" lon="4.43369">
        <ele>191</ele>
        <time>2021-11-06T14:07:10Z</time>
      </trkpt>
      <trkpt lat="44.16413" lon="4.43355">
        <ele>191</ele>
        <time>2021-11-06T14:07:13Z</time>
      </trkpt>
      <trkpt lat="44.16409" lon="4.43337">
        <ele>190</ele>
        <time>2021-11-06T14:07:15Z</time>
      </trkpt>
      <trkpt lat="44.16405" lon="4.43308">
        <ele>192</ele>
        <time>2021-11-06T14:07:19Z</time>
      </trkpt>
      <trkpt lat="44.16401" lon="4.43289">
        <ele>194</ele>
        <time>2021-11-06T14:07:21Z</time>
      </trkpt>
      <trkpt lat="44.16397" lon="4.4328">
        <ele>195</ele>
        <time>2021-11-06T14:07:23Z</time>
      </trkpt>
      <trkpt lat="44.16392" lon="4.43273">
        <ele>195</ele>
        <time>2021-11-06T14:07:24Z</time>
      </trkpt>
      <trkpt lat="44.16386" lon="4.43269">
        <ele>196</ele>
        <time>2021-11-06T14:07:25Z</time>
      </trkpt>
      <trkpt lat="44.16377" lon="4.43268">
        <ele>196</ele>
        <time>2021-11-06T14:07:27Z</time>
      </trkpt>
      <trkpt lat="44.16337" lon="4.43276">
        <ele>196</ele>
        <time>2021-11-06T14:07:34Z</time>
      </trkpt>
      <trkpt lat="44.16273" lon="4.43295">
        <ele>201</ele>
        <time>2021-11-06T14:07:46Z</time>
      </trkpt>
      <trkpt lat="44.16249" lon="4.43302">
        <ele>203</ele>
        <time>2021-11-06T14:07:50Z</time>
      </trkpt>
      <trkpt lat="44.16237" lon="4.43303">
        <ele>204</ele>
        <time>2021-11-06T14:07:52Z</time>
      </trkpt>
      <trkpt lat="44.16226" lon="4.433">
        <ele>205</ele>
        <time>2021-11-06T14:07:54Z</time>
      </trkpt>
      <trkpt lat="44.16216" lon="4.43291">
        <ele>205</ele>
        <time>2021-11-06T14:07:56Z</time>
      </trkpt>
      <trkpt lat="44.16197" lon="4.43264">
        <ele>204</ele>
        <time>2021-11-06T14:08:01Z</time>
      </trkpt>
      <trkpt lat="44.16188" lon="4.4326">
        <ele>205</ele>
        <time>2021-11-06T14:08:03Z</time>
      </trkpt>
      <trkpt lat="44.16177" lon="4.43259">
        <ele>205</ele>
        <time>2021-11-06T14:08:05Z</time>
      </trkpt>
      <trkpt lat="44.16165" lon="4.43263">
        <ele>207</ele>
        <time>2021-11-06T14:08:07Z</time>
      </trkpt>
      <trkpt lat="44.1612" lon="4.43284">
        <ele>214</ele>
        <time>2021-11-06T14:08:15Z</time>
      </trkpt>
      <trkpt lat="44.16109" lon="4.43286">
        <ele>215</ele>
        <time>2021-11-06T14:08:17Z</time>
      </trkpt>
      <trkpt lat="44.16098" lon="4.43284">
        <ele>216</ele>
        <time>2021-11-06T14:08:19Z</time>
      </trkpt>
      <trkpt lat="44.1609" lon="4.43277">
        <ele>216</ele>
        <time>2021-11-06T14:08:21Z</time>
      </trkpt>
      <trkpt lat="44.16085" lon="4.43266">
        <ele>215</ele>
        <time>2021-11-06T14:08:23Z</time>
      </trkpt>
      <trkpt lat="44.16083" lon="4.43253">
        <ele>214</ele>
        <time>2021-11-06T14:08:24Z</time>
      </trkpt>
      <trkpt lat="44.16086" lon="4.43233">
        <ele>214</ele>
        <time>2021-11-06T14:08:27Z</time>
      </trkpt>
      <trkpt lat="44.16093" lon="4.43203">
        <ele>216</ele>
        <time>2021-11-06T14:08:31Z</time>
      </trkpt>
      <trkpt lat="44.16092" lon="4.43191">
        <ele>217</ele>
        <time>2021-11-06T14:08:32Z</time>
      </trkpt>
      <trkpt lat="44.16089" lon="4.43174">
        <ele>218</ele>
        <time>2021-11-06T14:08:35Z</time>
      </trkpt>
      <trkpt lat="44.16072" lon="4.43139">
        <ele>220</ele>
        <time>2021-11-06T14:08:40Z</time>
      </trkpt>
      <trkpt lat="44.16038" lon="4.4305">
        <ele>223</ele>
        <time>2021-11-06T14:08:53Z</time>
      </trkpt>
      <trkpt lat="44.16032" lon="4.43044">
        <ele>223</ele>
        <time>2021-11-06T14:08:54Z</time>
      </trkpt>
      <trkpt lat="44.16023" lon="4.4304">
        <ele>223</ele>
        <time>2021-11-06T14:08:56Z</time>
      </trkpt>
      <trkpt lat="44.16013" lon="4.43041">
        <ele>222</ele>
        <time>2021-11-06T14:08:58Z</time>
      </trkpt>
      <trkpt lat="44.15972" lon="4.43058">
        <ele>223</ele>
        <time>2021-11-06T14:09:05Z</time>
      </trkpt>
      <trkpt lat="44.15959" lon="4.43059">
        <ele>224</ele>
        <time>2021-11-06T14:09:08Z</time>
      </trkpt>
      <trkpt lat="44.15948" lon="4.43057">
        <ele>225</ele>
        <time>2021-11-06T14:09:10Z</time>
      </trkpt>
      <trkpt lat="44.15938" lon="4.43052">
        <ele>225</ele>
        <time>2021-11-06T14:09:12Z</time>
      </trkpt>
      <trkpt lat="44.15932" lon="4.43042">
        <ele>225</ele>
        <time>2021-11-06T14:09:13Z</time>
      </trkpt>
      <trkpt lat="44.15918" lon="4.43002">
        <ele>221</ele>
        <time>2021-11-06T14:09:19Z</time>
      </trkpt>
      <trkpt lat="44.15912" lon="4.4299">
        <ele>223</ele>
        <time>2021-11-06T14:09:21Z</time>
      </trkpt>
      <trkpt lat="44.15903" lon="4.4298">
        <ele>224</ele>
        <time>2021-11-06T14:09:23Z</time>
      </trkpt>
      <trkpt lat="44.15894" lon="4.42973">
        <ele>225</ele>
        <time>2021-11-06T14:09:25Z</time>
      </trkpt>
      <trkpt lat="44.15871" lon="4.42964">
        <ele>227</ele>
        <time>2021-11-06T14:09:29Z</time>
      </trkpt>
      <trkpt lat="44.15856" lon="4.42952">
        <ele>228</ele>
        <time>2021-11-06T14:09:32Z</time>
      </trkpt>
      <trkpt lat="44.15844" lon="4.42931">
        <ele>227</ele>
        <time>2021-11-06T14:09:35Z</time>
      </trkpt>
      <trkpt lat="44.15837" lon="4.429">
        <ele>226</ele>
        <time>2021-11-06T14:09:40Z</time>
      </trkpt>
      <trkpt lat="44.1583" lon="4.42843">
        <ele>228</ele>
        <time>2021-11-06T14:09:47Z</time>
      </trkpt>
      <trkpt lat="44.15825" lon="4.42829">
        <ele>229</ele>
        <time>2021-11-06T14:09:49Z</time>
      </trkpt>
      <trkpt lat="44.15818" lon="4.42818">
        <ele>231</ele>
        <time>2021-11-06T14:09:51Z</time>
      </trkpt>
      <trkpt lat="44.15757" lon="4.42755">
        <ele>232</ele>
        <time>2021-11-06T14:10:04Z</time>
      </trkpt>
      <trkpt lat="44.15742" lon="4.42737">
        <ele>233</ele>
        <time>2021-11-06T14:10:08Z</time>
      </trkpt>
      <trkpt lat="44.15731" lon="4.42717">
        <ele>236</ele>
        <time>2021-11-06T14:10:11Z</time>
      </trkpt>
      <trkpt lat="44.15719" lon="4.42688">
        <ele>239</ele>
        <time>2021-11-06T14:10:15Z</time>
      </trkpt>
      <trkpt lat="44.15715" lon="4.42668">
        <ele>240</ele>
        <time>2021-11-06T14:10:18Z</time>
      </trkpt>
      <trkpt lat="44.15713" lon="4.42649">
        <ele>242</ele>
        <time>2021-11-06T14:10:20Z</time>
      </trkpt>
      <trkpt lat="44.15715" lon="4.42634">
        <ele>242</ele>
        <time>2021-11-06T14:10:22Z</time>
      </trkpt>
      <trkpt lat="44.15719" lon="4.42622">
        <ele>242</ele>
        <time>2021-11-06T14:10:24Z</time>
      </trkpt>
      <trkpt lat="44.15725" lon="4.42615">
        <ele>241</ele>
        <time>2021-11-06T14:10:25Z</time>
      </trkpt>
      <trkpt lat="44.15751" lon="4.42605">
        <ele>235</ele>
        <time>2021-11-06T14:10:30Z</time>
      </trkpt>
      <trkpt lat="44.15757" lon="4.42601">
        <ele>236</ele>
        <time>2021-11-06T14:10:31Z</time>
      </trkpt>
      <trkpt lat="44.15761" lon="4.42594">
        <ele>237</ele>
        <time>2021-11-06T14:10:33Z</time>
      </trkpt>
      <trkpt lat="44.15765" lon="4.42583">
        <ele>238</ele>
        <time>2021-11-06T14:10:34Z</time>
      </trkpt>
      <trkpt lat="44.15768" lon="4.42547">
        <ele>241</ele>
        <time>2021-11-06T14:10:39Z</time>
      </trkpt>
      <trkpt lat="44.15772" lon="4.42533">
        <ele>243</ele>
        <time>2021-11-06T14:10:41Z</time>
      </trkpt>
      <trkpt lat="44.15792" lon="4.42505">
        <ele>245</ele>
        <time>2021-11-06T14:10:46Z</time>
      </trkpt>
      <trkpt lat="44.15812" lon="4.42471">
        <ele>246</ele>
        <time>2021-11-06T14:10:51Z</time>
      </trkpt>
      <trkpt lat="44.15816" lon="4.42457">
        <ele>246</ele>
        <time>2021-11-06T14:10:53Z</time>
      </trkpt>
      <trkpt lat="44.15817" lon="4.42442">
        <ele>246</ele>
        <time>2021-11-06T14:10:55Z</time>
      </trkpt>
      <trkpt lat="44.15814" lon="4.42428">
        <ele>246</ele>
        <time>2021-11-06T14:10:57Z</time>
      </trkpt>
      <trkpt lat="44.1581" lon="4.42419">
        <ele>246</ele>
        <time>2021-11-06T14:10:58Z</time>
      </trkpt>
      <trkpt lat="44.15777" lon="4.42372">
        <ele>248</ele>
        <time>2021-11-06T14:11:07Z</time>
      </trkpt>
      <trkpt lat="44.15772" lon="4.4236">
        <ele>248</ele>
        <time>2021-11-06T14:11:09Z</time>
      </trkpt>
      <trkpt lat="44.15772" lon="4.42349">
        <ele>248</ele>
        <time>2021-11-06T14:11:10Z</time>
      </trkpt>
      <trkpt lat="44.15785" lon="4.42303">
        <ele>249</ele>
        <time>2021-11-06T14:11:16Z</time>
      </trkpt>
      <trkpt lat="44.15784" lon="4.42291">
        <ele>249</ele>
        <time>2021-11-06T14:11:18Z</time>
      </trkpt>
      <trkpt lat="44.15772" lon="4.42253">
        <ele>250</ele>
        <time>2021-11-06T14:11:23Z</time>
      </trkpt>
      <trkpt lat="44.15757" lon="4.42226">
        <ele>249</ele>
        <time>2021-11-06T14:11:28Z</time>
      </trkpt>
      <trkpt lat="44.15755" lon="4.42215">
        <ele>248</ele>
        <time>2021-11-06T14:11:29Z</time>
      </trkpt>
      <trkpt lat="44.15754" lon="4.42201">
        <ele>248</ele>
        <time>2021-11-06T14:11:31Z</time>
      </trkpt>
      <trkpt lat="44.15758" lon="4.42174">
        <ele>248</ele>
        <time>2021-11-06T14:11:34Z</time>
      </trkpt>
      <trkpt lat="44.15755" lon="4.42145">
        <ele>249</ele>
        <time>2021-11-06T14:11:38Z</time>
      </trkpt>
      <trkpt lat="44.15751" lon="4.42133">
        <ele>250</ele>
        <time>2021-11-06T14:11:40Z</time>
      </trkpt>
      <trkpt lat="44.15744" lon="4.42122">
        <ele>251</ele>
        <time>2021-11-06T14:11:42Z</time>
      </trkpt>
      <trkpt lat="44.15733" lon="4.42112">
        <ele>252</ele>
        <time>2021-11-06T14:11:44Z</time>
      </trkpt>
      <trkpt lat="44.15712" lon="4.42099">
        <ele>252</ele>
        <time>2021-11-06T14:11:48Z</time>
      </trkpt>
      <trkpt lat="44.15686" lon="4.42094">
        <ele>251</ele>
        <time>2021-11-06T14:11:53Z</time>
      </trkpt>
      <trkpt lat="44.15671" lon="4.42094">
        <ele>250</ele>
        <time>2021-11-06T14:11:55Z</time>
      </trkpt>
      <trkpt lat="44.15653" lon="4.42098">
        <ele>250</ele>
        <time>2021-11-06T14:11:59Z</time>
      </trkpt>
      <trkpt lat="44.15634" lon="4.42108">
        <ele>250</ele>
        <time>2021-11-06T14:12:02Z</time>
      </trkpt>
      <trkpt lat="44.15626" lon="4.42117">
        <ele>250</ele>
        <time>2021-11-06T14:12:04Z</time>
      </trkpt>
      <trkpt lat="44.15606" lon="4.42154">
        <ele>251</ele>
        <time>2021-11-06T14:12:10Z</time>
      </trkpt>
      <trkpt lat="44.15599" lon="4.42161">
        <ele>251</ele>
        <time>2021-11-06T14:12:11Z</time>
      </trkpt>
      <trkpt lat="44.15593" lon="4.42164">
        <ele>251</ele>
        <time>2021-11-06T14:12:13Z</time>
      </trkpt>
      <trkpt lat="44.15583" lon="4.42161">
        <ele>251</ele>
        <time>2021-11-06T14:12:14Z</time>
      </trkpt>
      <trkpt lat="44.15573" lon="4.42156">
        <ele>252</ele>
        <time>2021-11-06T14:12:16Z</time>
      </trkpt>
      <trkpt lat="44.15566" lon="4.42146">
        <ele>252</ele>
        <time>2021-11-06T14:12:18Z</time>
      </trkpt>
      <trkpt lat="44.15557" lon="4.42128">
        <ele>252</ele>
        <time>2021-11-06T14:12:21Z</time>
      </trkpt>
      <trkpt lat="44.15552" lon="4.42109">
        <ele>252</ele>
        <time>2021-11-06T14:12:23Z</time>
      </trkpt>
      <trkpt lat="44.1554" lon="4.42008">
        <ele>254</ele>
        <time>2021-11-06T14:12:37Z</time>
      </trkpt>
      <trkpt lat="44.15536" lon="4.41965">
        <ele>255</ele>
        <time>2021-11-06T14:12:42Z</time>
      </trkpt>
      <trkpt lat="44.15536" lon="4.41928">
        <ele>257</ele>
        <time>2021-11-06T14:12:47Z</time>
      </trkpt>
      <trkpt lat="44.15548" lon="4.41856">
        <ele>258</ele>
        <time>2021-11-06T14:12:56Z</time>
      </trkpt>
      <trkpt lat="44.15549" lon="4.41836">
        <ele>259</ele>
        <time>2021-11-06T14:12:59Z</time>
      </trkpt>
      <trkpt lat="44.15541" lon="4.41771">
        <ele>259</ele>
        <time>2021-11-06T14:13:07Z</time>
      </trkpt>
      <trkpt lat="44.15542" lon="4.4176">
        <ele>259</ele>
        <time>2021-11-06T14:13:09Z</time>
      </trkpt>
      <trkpt lat="44.15546" lon="4.4175">
        <ele>258</ele>
        <time>2021-11-06T14:13:10Z</time>
      </trkpt>
      <trkpt lat="44.15552" lon="4.41743">
        <ele>259</ele>
        <time>2021-11-06T14:13:11Z</time>
      </trkpt>
      <trkpt lat="44.15561" lon="4.41736">
        <ele>259</ele>
        <time>2021-11-06T14:13:13Z</time>
      </trkpt>
      <trkpt lat="44.15574" lon="4.4173">
        <ele>259</ele>
        <time>2021-11-06T14:13:16Z</time>
      </trkpt>
      <trkpt lat="44.15592" lon="4.41726">
        <ele>259</ele>
        <time>2021-11-06T14:13:19Z</time>
      </trkpt>
      <trkpt lat="44.15622" lon="4.4171">
        <ele>260</ele>
        <time>2021-11-06T14:13:25Z</time>
      </trkpt>
      <trkpt lat="44.15679" lon="4.41658">
        <ele>260</ele>
        <time>2021-11-06T14:13:37Z</time>
      </trkpt>
      <trkpt lat="44.15692" lon="4.41643">
        <ele>261</ele>
        <time>2021-11-06T14:13:40Z</time>
      </trkpt>
      <trkpt lat="44.15751" lon="4.41546">
        <ele>263</ele>
        <time>2021-11-06T14:13:56Z</time>
      </trkpt>
      <trkpt lat="44.15756" lon="4.41531">
        <ele>264</ele>
        <time>2021-11-06T14:13:58Z</time>
      </trkpt>
      <trkpt lat="44.15759" lon="4.41515">
        <ele>265</ele>
        <time>2021-11-06T14:14:00Z</time>
      </trkpt>
      <trkpt lat="44.15759" lon="4.41495">
        <ele>266</ele>
        <time>2021-11-06T14:14:03Z</time>
      </trkpt>
      <trkpt lat="44.15745" lon="4.41396">
        <ele>267</ele>
        <time>2021-11-06T14:14:16Z</time>
      </trkpt>
      <trkpt lat="44.15746" lon="4.41379">
        <ele>267</ele>
        <time>2021-11-06T14:14:18Z</time>
      </trkpt>
      <trkpt lat="44.1575" lon="4.41366">
        <ele>267</ele>
        <time>2021-11-06T14:14:20Z</time>
      </trkpt>
      <trkpt lat="44.15808" lon="4.41307">
        <ele>269</ele>
        <time>2021-11-06T14:14:32Z</time>
      </trkpt>
      <trkpt lat="44.15816" lon="4.41295">
        <ele>269</ele>
        <time>2021-11-06T14:14:35Z</time>
      </trkpt>
      <trkpt lat="44.15821" lon="4.41281">
        <ele>269</ele>
        <time>2021-11-06T14:14:37Z</time>
      </trkpt>
      <trkpt lat="44.15823" lon="4.41268">
        <ele>269</ele>
        <time>2021-11-06T14:14:38Z</time>
      </trkpt>
      <trkpt lat="44.15804" lon="4.4112">
        <ele>273</ele>
        <time>2021-11-06T14:14:57Z</time>
      </trkpt>
      <trkpt lat="44.15774" lon="4.40999">
        <ele>275</ele>
        <time>2021-11-06T14:15:14Z</time>
      </trkpt>
      <trkpt lat="44.15773" lon="4.40985">
        <ele>275</ele>
        <time>2021-11-06T14:15:16Z</time>
      </trkpt>
      <trkpt lat="44.15775" lon="4.40973">
        <ele>275</ele>
        <time>2021-11-06T14:15:17Z</time>
      </trkpt>
      <trkpt lat="44.15781" lon="4.40962">
        <ele>275</ele>
        <time>2021-11-06T14:15:19Z</time>
      </trkpt>
      <trkpt lat="44.1579" lon="4.40953">
        <ele>275</ele>
        <time>2021-11-06T14:15:21Z</time>
      </trkpt>
      <trkpt lat="44.15875" lon="4.40882">
        <ele>276</ele>
        <time>2021-11-06T14:15:39Z</time>
      </trkpt>
      <trkpt lat="44.15888" lon="4.40868">
        <ele>276</ele>
        <time>2021-11-06T14:15:41Z</time>
      </trkpt>
      <trkpt lat="44.15898" lon="4.40852">
        <ele>277</ele>
        <time>2021-11-06T14:15:44Z</time>
      </trkpt>
      <trkpt lat="44.15905" lon="4.40835">
        <ele>277</ele>
        <time>2021-11-06T14:15:47Z</time>
      </trkpt>
      <trkpt lat="44.1592" lon="4.40773">
        <ele>276</ele>
        <time>2021-11-06T14:15:55Z</time>
      </trkpt>
      <trkpt lat="44.15921" lon="4.40738">
        <ele>276</ele>
        <time>2021-11-06T14:16:00Z</time>
      </trkpt>
      <trkpt lat="44.15892" lon="4.40564">
        <ele>277</ele>
        <time>2021-11-06T14:16:22Z</time>
      </trkpt>
      <trkpt lat="44.15891" lon="4.40543">
        <ele>278</ele>
        <time>2021-11-06T14:16:25Z</time>
      </trkpt>
      <trkpt lat="44.15893" lon="4.40523">
        <ele>279</ele>
        <time>2021-11-06T14:16:28Z</time>
      </trkpt>
      <trkpt lat="44.15971" lon="4.4029">
        <ele>278</ele>
        <time>2021-11-06T14:17:00Z</time>
      </trkpt>
      <trkpt lat="44.15974" lon="4.40273">
        <ele>278</ele>
        <time>2021-11-06T14:17:03Z</time>
      </trkpt>
      <trkpt lat="44.15973" lon="4.40258">
        <ele>277</ele>
        <time>2021-11-06T14:17:05Z</time>
      </trkpt>
      <trkpt lat="44.15921" lon="4.40005">
        <ele>277</ele>
        <time>2021-11-06T14:17:38Z</time>
      </trkpt>
      <trkpt lat="44.15915" lon="4.39979">
        <ele>278</ele>
        <time>2021-11-06T14:17:42Z</time>
      </trkpt>
      <trkpt lat="44.15875" lon="4.39859">
        <ele>280</ele>
        <time>2021-11-06T14:17:59Z</time>
      </trkpt>
      <trkpt lat="44.15871" lon="4.3984">
        <ele>280</ele>
        <time>2021-11-06T14:18:01Z</time>
      </trkpt>
      <trkpt lat="44.15869" lon="4.39823">
        <ele>280</ele>
        <time>2021-11-06T14:18:03Z</time>
      </trkpt>
      <trkpt lat="44.1587" lon="4.39788">
        <ele>279</ele>
        <time>2021-11-06T14:18:08Z</time>
      </trkpt>
      <trkpt lat="44.15878" lon="4.39701">
        <ele>278</ele>
        <time>2021-11-06T14:18:19Z</time>
      </trkpt>
      <trkpt lat="44.15886" lon="4.39648">
        <ele>278</ele>
        <time>2021-11-06T14:18:26Z</time>
      </trkpt>
      <trkpt lat="44.1594" lon="4.39443">
        <ele>279</ele>
        <time>2021-11-06T14:18:54Z</time>
      </trkpt>
      <trkpt lat="44.15957" lon="4.39382">
        <ele>279</ele>
        <time>2021-11-06T14:19:02Z</time>
      </trkpt>
      <trkpt lat="44.15984" lon="4.39315">
        <ele>278</ele>
        <time>2021-11-06T14:19:12Z</time>
      </trkpt>
      <trkpt lat="44.15989" lon="4.39299">
        <ele>278</ele>
        <time>2021-11-06T14:19:14Z</time>
      </trkpt>
      <trkpt lat="44.15991" lon="4.39283">
        <ele>277</ele>
        <time>2021-11-06T14:19:16Z</time>
      </trkpt>
      <trkpt lat="44.15991" lon="4.39242">
        <ele>278</ele>
        <time>2021-11-06T14:19:21Z</time>
      </trkpt>
      <trkpt lat="44.15976" lon="4.38861">
        <ele>284</ele>
        <time>2021-11-06T14:20:10Z</time>
      </trkpt>
      <trkpt lat="44.15972" lon="4.38837">
        <ele>283</ele>
        <time>2021-11-06T14:20:13Z</time>
      </trkpt>
      <trkpt lat="44.15966" lon="4.38813">
        <ele>283</ele>
        <time>2021-11-06T14:20:16Z</time>
      </trkpt>
      <trkpt lat="44.15885" lon="4.38561">
        <ele>285</ele>
        <time>2021-11-06T14:20:52Z</time>
      </trkpt>
      <trkpt lat="44.15879" lon="4.38534">
        <ele>285</ele>
        <time>2021-11-06T14:20:55Z</time>
      </trkpt>
      <trkpt lat="44.15874" lon="4.3849">
        <ele>285</ele>
        <time>2021-11-06T14:21:01Z</time>
      </trkpt>
      <trkpt lat="44.15876" lon="4.38426">
        <ele>286</ele>
        <time>2021-11-06T14:21:09Z</time>
      </trkpt>
      <trkpt lat="44.15883" lon="4.38364">
        <ele>287</ele>
        <time>2021-11-06T14:21:17Z</time>
      </trkpt>
      <trkpt lat="44.15897" lon="4.38286">
        <ele>287</ele>
        <time>2021-11-06T14:21:27Z</time>
      </trkpt>
      <trkpt lat="44.15905" lon="4.38258">
        <ele>287</ele>
        <time>2021-11-06T14:21:31Z</time>
      </trkpt>
      <trkpt lat="44.15914" lon="4.38236">
        <ele>287</ele>
        <time>2021-11-06T14:21:35Z</time>
      </trkpt>
      <trkpt lat="44.15926" lon="4.38216">
        <ele>287</ele>
        <time>2021-11-06T14:21:38Z</time>
      </trkpt>
      <trkpt lat="44.15946" lon="4.38188">
        <ele>288</ele>
        <time>2021-11-06T14:21:43Z</time>
      </trkpt>
      <trkpt lat="44.15984" lon="4.38141">
        <ele>289</ele>
        <time>2021-11-06T14:21:52Z</time>
      </trkpt>
      <trkpt lat="44.15993" lon="4.38134">
        <ele>289</ele>
        <time>2021-11-06T14:21:54Z</time>
      </trkpt>
      <trkpt lat="44.16014" lon="4.38129">
        <ele>287</ele>
        <time>2021-11-06T14:21:58Z</time>
      </trkpt>
      <trkpt lat="44.16027" lon="4.3813">
        <ele>286</ele>
        <time>2021-11-06T14:22:00Z</time>
      </trkpt>
      <trkpt lat="44.16036" lon="4.38129">
        <ele>285</ele>
        <time>2021-11-06T14:22:02Z</time>
      </trkpt>
      <trkpt lat="44.16043" lon="4.38124">
        <ele>285</ele>
        <time>2021-11-06T14:22:03Z</time>
      </trkpt>
      <trkpt lat="44.16049" lon="4.38116">
        <ele>283</ele>
        <time>2021-11-06T14:22:04Z</time>
      </trkpt>
      <trkpt lat="44.16052" lon="4.38105">
        <ele>282</ele>
        <time>2021-11-06T14:22:06Z</time>
      </trkpt>
      <trkpt lat="44.16051" lon="4.38069">
        <ele>280</ele>
        <time>2021-11-06T14:22:11Z</time>
      </trkpt>
      <trkpt lat="44.16053" lon="4.38045">
        <ele>278</ele>
        <time>2021-11-06T14:22:14Z</time>
      </trkpt>
      <trkpt lat="44.16058" lon="4.38025">
        <ele>277</ele>
        <time>2021-11-06T14:22:16Z</time>
      </trkpt>
      <trkpt lat="44.16067" lon="4.38003">
        <ele>274</ele>
        <time>2021-11-06T14:22:20Z</time>
      </trkpt>
      <trkpt lat="44.16069" lon="4.3799">
        <ele>272</ele>
        <time>2021-11-06T14:22:21Z</time>
      </trkpt>
      <trkpt lat="44.16069" lon="4.37978">
        <ele>270</ele>
        <time>2021-11-06T14:22:23Z</time>
      </trkpt>
      <trkpt lat="44.16066" lon="4.37968">
        <ele>269</ele>
        <time>2021-11-06T14:22:24Z</time>
      </trkpt>
      <trkpt lat="44.16059" lon="4.3796">
        <ele>269</ele>
        <time>2021-11-06T14:22:26Z</time>
      </trkpt>
      <trkpt lat="44.16043" lon="4.37943">
        <ele>269</ele>
        <time>2021-11-06T14:22:29Z</time>
      </trkpt>
      <trkpt lat="44.16026" lon="4.3793">
        <ele>269</ele>
        <time>2021-11-06T14:22:33Z</time>
      </trkpt>
      <trkpt lat="44.15925" lon="4.37889">
        <ele>270</ele>
        <time>2021-11-06T14:22:51Z</time>
      </trkpt>
      <trkpt lat="44.15914" lon="4.37878">
        <ele>269</ele>
        <time>2021-11-06T14:22:54Z</time>
      </trkpt>
      <trkpt lat="44.15902" lon="4.37856">
        <ele>265</ele>
        <time>2021-11-06T14:22:57Z</time>
      </trkpt>
      <trkpt lat="44.15894" lon="4.37845">
        <ele>263</ele>
        <time>2021-11-06T14:22:59Z</time>
      </trkpt>
      <trkpt lat="44.15882" lon="4.37838">
        <ele>263</ele>
        <time>2021-11-06T14:23:02Z</time>
      </trkpt>
      <trkpt lat="44.15763" lon="4.37788">
        <ele>260</ele>
        <time>2021-11-06T14:23:24Z</time>
      </trkpt>
      <trkpt lat="44.15741" lon="4.37782">
        <ele>259</ele>
        <time>2021-11-06T14:23:28Z</time>
      </trkpt>
      <trkpt lat="44.15666" lon="4.37775">
        <ele>257</ele>
        <time>2021-11-06T14:23:41Z</time>
      </trkpt>
      <trkpt lat="44.15639" lon="4.37768">
        <ele>257</ele>
        <time>2021-11-06T14:23:46Z</time>
      </trkpt>
      <trkpt lat="44.15615" lon="4.37753">
        <ele>255</ele>
        <time>2021-11-06T14:23:51Z</time>
      </trkpt>
      <trkpt lat="44.15603" lon="4.37742">
        <ele>255</ele>
        <time>2021-11-06T14:23:53Z</time>
      </trkpt>
      <trkpt lat="44.15596" lon="4.37731">
        <ele>254</ele>
        <time>2021-11-06T14:23:55Z</time>
      </trkpt>
      <trkpt lat="44.15579" lon="4.37684">
        <ele>249</ele>
        <time>2021-11-06T14:24:02Z</time>
      </trkpt>
      <trkpt lat="44.15571" lon="4.37672">
        <ele>247</ele>
        <time>2021-11-06T14:24:04Z</time>
      </trkpt>
      <trkpt lat="44.15563" lon="4.37664">
        <ele>247</ele>
        <time>2021-11-06T14:24:06Z</time>
      </trkpt>
      <trkpt lat="44.1554" lon="4.37652">
        <ele>247</ele>
        <time>2021-11-06T14:24:10Z</time>
      </trkpt>
      <trkpt lat="44.15532" lon="4.37645">
        <ele>247</ele>
        <time>2021-11-06T14:24:12Z</time>
      </trkpt>
      <trkpt lat="44.15526" lon="4.37638">
        <ele>247</ele>
        <time>2021-11-06T14:24:13Z</time>
      </trkpt>
      <trkpt lat="44.15518" lon="4.37615">
        <ele>245</ele>
        <time>2021-11-06T14:24:16Z</time>
      </trkpt>
      <trkpt lat="44.155" lon="4.37539">
        <ele>241</ele>
        <time>2021-11-06T14:24:27Z</time>
      </trkpt>
      <trkpt lat="44.15474" lon="4.37427">
        <ele>239</ele>
        <time>2021-11-06T14:24:42Z</time>
      </trkpt>
      <trkpt lat="44.15443" lon="4.37373">
        <ele>240</ele>
        <time>2021-11-06T14:24:51Z</time>
      </trkpt>
      <trkpt lat="44.15411" lon="4.37323">
        <ele>242</ele>
        <time>2021-11-06T14:24:59Z</time>
      </trkpt>
      <trkpt lat="44.15326" lon="4.3718">
        <ele>241</ele>
        <time>2021-11-06T14:25:23Z</time>
      </trkpt>
      <trkpt lat="44.15297" lon="4.37109">
        <ele>243</ele>
        <time>2021-11-06T14:25:33Z</time>
      </trkpt>
      <trkpt lat="44.15288" lon="4.3707">
        <ele>245</ele>
        <time>2021-11-06T14:25:38Z</time>
      </trkpt>
      <trkpt lat="44.15281" lon="4.37054">
        <ele>246</ele>
        <time>2021-11-06T14:25:41Z</time>
      </trkpt>
      <trkpt lat="44.15273" lon="4.37046">
        <ele>247</ele>
        <time>2021-11-06T14:25:43Z</time>
      </trkpt>
      <trkpt lat="44.15198" lon="4.37021">
        <ele>250</ele>
        <time>2021-11-06T14:25:56Z</time>
      </trkpt>
      <trkpt lat="44.15147" lon="4.37">
        <ele>250</ele>
        <time>2021-11-06T14:26:06Z</time>
      </trkpt>
      <trkpt lat="44.15092" lon="4.3693">
        <ele>249</ele>
        <time>2021-11-06T14:26:19Z</time>
      </trkpt>
      <trkpt lat="44.15012" lon="4.36869">
        <ele>250</ele>
        <time>2021-11-06T14:26:35Z</time>
      </trkpt>
      <trkpt lat="44.15076" lon="4.36272">
        <ele>250</ele>
        <time>2021-11-06T14:27:52Z</time>
      </trkpt>
      <trkpt lat="44.15079" lon="4.36262">
        <ele>250</ele>
        <time>2021-11-06T14:27:54Z</time>
      </trkpt>
      <trkpt lat="44.15077" lon="4.36254">
        <ele>249</ele>
        <time>2021-11-06T14:27:55Z</time>
      </trkpt>
      <trkpt lat="44.15075" lon="4.3625">
        <ele>249</ele>
        <time>2021-11-06T14:27:55Z</time>
      </trkpt>
      <trkpt lat="44.1507" lon="4.36247">
        <ele>249</ele>
        <time>2021-11-06T14:27:56Z</time>
      </trkpt>
      <trkpt lat="44.15066" lon="4.36247">
        <ele>249</ele>
        <time>2021-11-06T14:27:57Z</time>
      </trkpt>
      <trkpt lat="44.1506" lon="4.36252">
        <ele>249</ele>
        <time>2021-11-06T14:27:58Z</time>
      </trkpt>
      <trkpt lat="44.15058" lon="4.36256">
        <ele>250</ele>
        <time>2021-11-06T14:27:59Z</time>
      </trkpt>
      <trkpt lat="44.15025" lon="4.36284">
        <ele>251</ele>
        <time>2021-11-06T14:28:06Z</time>
      </trkpt>
      <trkpt lat="44.14919" lon="4.36326">
        <ele>256</ele>
        <time>2021-11-06T14:28:25Z</time>
      </trkpt>
      <trkpt lat="44.14774" lon="4.36375">
        <ele>257</ele>
        <time>2021-11-06T14:28:52Z</time>
      </trkpt>
      <trkpt lat="44.1472" lon="4.3639">
        <ele>259</ele>
        <time>2021-11-06T14:29:02Z</time>
      </trkpt>
      <trkpt lat="44.14681" lon="4.36397">
        <ele>262</ele>
        <time>2021-11-06T14:29:09Z</time>
      </trkpt>
      <trkpt lat="44.14656" lon="4.36397">
        <ele>264</ele>
        <time>2021-11-06T14:29:13Z</time>
      </trkpt>
      <trkpt lat="44.14617" lon="4.36391">
        <ele>269</ele>
        <time>2021-11-06T14:29:20Z</time>
      </trkpt>
      <trkpt lat="44.14582" lon="4.3638">
        <ele>272</ele>
        <time>2021-11-06T14:29:27Z</time>
      </trkpt>
      <trkpt lat="44.14554" lon="4.36367">
        <ele>272</ele>
        <time>2021-11-06T14:29:32Z</time>
      </trkpt>
      <trkpt lat="44.1451" lon="4.36339">
        <ele>271</ele>
        <time>2021-11-06T14:29:40Z</time>
      </trkpt>
      <trkpt lat="44.1448" lon="4.3631">
        <ele>273</ele>
        <time>2021-11-06T14:29:47Z</time>
      </trkpt>
      <trkpt lat="44.14453" lon="4.36279">
        <ele>274</ele>
        <time>2021-11-06T14:29:53Z</time>
      </trkpt>
      <trkpt lat="44.14421" lon="4.36231">
        <ele>274</ele>
        <time>2021-11-06T14:30:02Z</time>
      </trkpt>
      <trkpt lat="44.14289" lon="4.35961">
        <ele>282</ele>
        <time>2021-11-06T14:30:43Z</time>
      </trkpt>
      <trkpt lat="44.1423" lon="4.35865">
        <ele>286</ele>
        <time>2021-11-06T14:30:59Z</time>
      </trkpt>
      <trkpt lat="44.14192" lon="4.35816">
        <ele>289</ele>
        <time>2021-11-06T14:31:09Z</time>
      </trkpt>
      <trkpt lat="44.14139" lon="4.35754">
        <ele>292</ele>
        <time>2021-11-06T14:31:21Z</time>
      </trkpt>
      <trkpt lat="44.14092" lon="4.35709">
        <ele>294</ele>
        <time>2021-11-06T14:31:31Z</time>
      </trkpt>
      <trkpt lat="44.14021" lon="4.35653">
        <ele>298</ele>
        <time>2021-11-06T14:31:46Z</time>
      </trkpt>
      <trkpt lat="44.13974" lon="4.35628">
        <ele>302</ele>
        <time>2021-11-06T14:31:55Z</time>
      </trkpt>
      <trkpt lat="44.13915" lon="4.35608">
        <ele>304</ele>
        <time>2021-11-06T14:32:05Z</time>
      </trkpt>
      <trkpt lat="44.13876" lon="4.35599">
        <ele>306</ele>
        <time>2021-11-06T14:32:12Z</time>
      </trkpt>
      <trkpt lat="44.13801" lon="4.3559">
        <ele>303</ele>
        <time>2021-11-06T14:32:26Z</time>
      </trkpt>
      <trkpt lat="44.13716" lon="4.3559">
        <ele>296</ele>
        <time>2021-11-06T14:32:41Z</time>
      </trkpt>
      <trkpt lat="44.13647" lon="4.35597">
        <ele>292</ele>
        <time>2021-11-06T14:32:53Z</time>
      </trkpt>
      <trkpt lat="44.13617" lon="4.35608">
        <ele>291</ele>
        <time>2021-11-06T14:32:59Z</time>
      </trkpt>
      <trkpt lat="44.13592" lon="4.35625">
        <ele>291</ele>
        <time>2021-11-06T14:33:04Z</time>
      </trkpt>
      <trkpt lat="44.13573" lon="4.35645">
        <ele>290</ele>
        <time>2021-11-06T14:33:08Z</time>
      </trkpt>
      <trkpt lat="44.13556" lon="4.35666">
        <ele>289</ele>
        <time>2021-11-06T14:33:12Z</time>
      </trkpt>
      <trkpt lat="44.13543" lon="4.35689">
        <ele>288</ele>
        <time>2021-11-06T14:33:16Z</time>
      </trkpt>
      <trkpt lat="44.13534" lon="4.35713">
        <ele>287</ele>
        <time>2021-11-06T14:33:19Z</time>
      </trkpt>
      <trkpt lat="44.13527" lon="4.3574">
        <ele>287</ele>
        <time>2021-11-06T14:33:23Z</time>
      </trkpt>
      <trkpt lat="44.1352" lon="4.35791">
        <ele>285</ele>
        <time>2021-11-06T14:33:29Z</time>
      </trkpt>
      <trkpt lat="44.13511" lon="4.36062">
        <ele>280</ele>
        <time>2021-11-06T14:34:04Z</time>
      </trkpt>
      <trkpt lat="44.13508" lon="4.36096">
        <ele>278</ele>
        <time>2021-11-06T14:34:08Z</time>
      </trkpt>
      <trkpt lat="44.13503" lon="4.36121">
        <ele>276</ele>
        <time>2021-11-06T14:34:12Z</time>
      </trkpt>
      <trkpt lat="44.13486" lon="4.36174">
        <ele>273</ele>
        <time>2021-11-06T14:34:19Z</time>
      </trkpt>
      <trkpt lat="44.13354" lon="4.36453">
        <ele>257</ele>
        <time>2021-11-06T14:35:02Z</time>
      </trkpt>
      <trkpt lat="44.13331" lon="4.36484">
        <ele>255</ele>
        <time>2021-11-06T14:35:08Z</time>
      </trkpt>
      <trkpt lat="44.13316" lon="4.36493">
        <ele>254</ele>
        <time>2021-11-06T14:35:10Z</time>
      </trkpt>
      <trkpt lat="44.13302" lon="4.36496">
        <ele>253</ele>
        <time>2021-11-06T14:35:13Z</time>
      </trkpt>
      <trkpt lat="44.13288" lon="4.36497">
        <ele>253</ele>
        <time>2021-11-06T14:35:15Z</time>
      </trkpt>
      <trkpt lat="44.13255" lon="4.3649">
        <ele>252</ele>
        <time>2021-11-06T14:35:21Z</time>
      </trkpt>
      <trkpt lat="44.13225" lon="4.3648">
        <ele>252</ele>
        <time>2021-11-06T14:35:27Z</time>
      </trkpt>
      <trkpt lat="44.13211" lon="4.3648">
        <ele>252</ele>
        <time>2021-11-06T14:35:29Z</time>
      </trkpt>
      <trkpt lat="44.13211" lon="4.3648">
        <ele>252</ele>
        <time>2021-11-06T14:35:29Z</time>
      </trkpt>
      <trkpt lat="44.13196" lon="4.36481">
        <ele>252</ele>
        <time>2021-11-06T14:35:32Z</time>
      </trkpt>
      <trkpt lat="44.13184" lon="4.36475">
        <ele>252</ele>
        <time>2021-11-06T14:35:34Z</time>
      </trkpt>
      <trkpt lat="44.13179" lon="4.36466">
        <ele>252</ele>
        <time>2021-11-06T14:35:36Z</time>
      </trkpt>
      <trkpt lat="44.13172" lon="4.3646">
        <ele>253</ele>
        <time>2021-11-06T14:35:37Z</time>
      </trkpt>
      <trkpt lat="44.13173" lon="4.36443">
        <ele>253</ele>
        <time>2021-11-06T14:35:39Z</time>
      </trkpt>
      <trkpt lat="44.1317" lon="4.36318">
        <ele>253</ele>
        <time>2021-11-06T14:35:55Z</time>
      </trkpt>
      <trkpt lat="44.13171" lon="4.36201">
        <ele>253</ele>
        <time>2021-11-06T14:36:10Z</time>
      </trkpt>
      <trkpt lat="44.13175" lon="4.36091">
        <ele>256</ele>
        <time>2021-11-06T14:36:24Z</time>
      </trkpt>
      <trkpt lat="44.13176" lon="4.35917">
        <ele>256</ele>
        <time>2021-11-06T14:36:47Z</time>
      </trkpt>
      <trkpt lat="44.13172" lon="4.35796">
        <ele>259</ele>
        <time>2021-11-06T14:37:02Z</time>
      </trkpt>
      <trkpt lat="44.13164" lon="4.35702">
        <ele>260</ele>
        <time>2021-11-06T14:37:14Z</time>
      </trkpt>
      <trkpt lat="44.13156" lon="4.35636">
        <ele>263</ele>
        <time>2021-11-06T14:37:23Z</time>
      </trkpt>
      <trkpt lat="44.13143" lon="4.35547">
        <ele>268</ele>
        <time>2021-11-06T14:37:34Z</time>
      </trkpt>
      <trkpt lat="44.1309" lon="4.35276">
        <ele>279</ele>
        <time>2021-11-06T14:38:10Z</time>
      </trkpt>
      <trkpt lat="44.13084" lon="4.35231">
        <ele>281</ele>
        <time>2021-11-06T14:38:16Z</time>
      </trkpt>
      <trkpt lat="44.13082" lon="4.35197">
        <ele>281</ele>
        <time>2021-11-06T14:38:20Z</time>
      </trkpt>
      <trkpt lat="44.13082" lon="4.3515">
        <ele>281</ele>
        <time>2021-11-06T14:38:26Z</time>
      </trkpt>
      <trkpt lat="44.13085" lon="4.35111">
        <ele>280</ele>
        <time>2021-11-06T14:38:31Z</time>
      </trkpt>
      <trkpt lat="44.13099" lon="4.35034">
        <ele>277</ele>
        <time>2021-11-06T14:38:42Z</time>
      </trkpt>
      <trkpt lat="44.13131" lon="4.34931">
        <ele>277</ele>
        <time>2021-11-06T14:38:56Z</time>
      </trkpt>
      <trkpt lat="44.13207" lon="4.34708">
        <ele>271</ele>
        <time>2021-11-06T14:39:27Z</time>
      </trkpt>
      <trkpt lat="44.13218" lon="4.34669">
        <ele>271</ele>
        <time>2021-11-06T14:39:33Z</time>
      </trkpt>
      <trkpt lat="44.1323" lon="4.34611">
        <ele>269</ele>
        <time>2021-11-06T14:39:41Z</time>
      </trkpt>
      <trkpt lat="44.1324" lon="4.3453">
        <ele>269</ele>
        <time>2021-11-06T14:39:51Z</time>
      </trkpt>
      <trkpt lat="44.13242" lon="4.34495">
        <ele>269</ele>
        <time>2021-11-06T14:39:55Z</time>
      </trkpt>
      <trkpt lat="44.13245" lon="4.34307">
        <ele>267</ele>
        <time>2021-11-06T14:40:19Z</time>
      </trkpt>
      <trkpt lat="44.1325" lon="4.34122">
        <ele>269</ele>
        <time>2021-11-06T14:40:43Z</time>
      </trkpt>
      <trkpt lat="44.13257" lon="4.33959">
        <ele>271</ele>
        <time>2021-11-06T14:41:04Z</time>
      </trkpt>
      <trkpt lat="44.13271" lon="4.33735">
        <ele>273</ele>
        <time>2021-11-06T14:41:33Z</time>
      </trkpt>
      <trkpt lat="44.13271" lon="4.33677">
        <ele>273</ele>
        <time>2021-11-06T14:41:40Z</time>
      </trkpt>
      <trkpt lat="44.13267" lon="4.3359">
        <ele>272</ele>
        <time>2021-11-06T14:41:51Z</time>
      </trkpt>
      <trkpt lat="44.1326" lon="4.33548">
        <ele>272</ele>
        <time>2021-11-06T14:41:57Z</time>
      </trkpt>
      <trkpt lat="44.13249" lon="4.33495">
        <ele>273</ele>
        <time>2021-11-06T14:42:04Z</time>
      </trkpt>
      <trkpt lat="44.13235" lon="4.33446">
        <ele>275</ele>
        <time>2021-11-06T14:42:11Z</time>
      </trkpt>
      <trkpt lat="44.13208" lon="4.33376">
        <ele>277</ele>
        <time>2021-11-06T14:42:21Z</time>
      </trkpt>
      <trkpt lat="44.13174" lon="4.33311">
        <ele>279</ele>
        <time>2021-11-06T14:42:31Z</time>
      </trkpt>
      <trkpt lat="44.13139" lon="4.33263">
        <ele>279</ele>
        <time>2021-11-06T14:42:40Z</time>
      </trkpt>
      <trkpt lat="44.13103" lon="4.3322">
        <ele>280</ele>
        <time>2021-11-06T14:42:48Z</time>
      </trkpt>
      <trkpt lat="44.12951" lon="4.33063">
        <ele>278</ele>
        <time>2021-11-06T14:43:22Z</time>
      </trkpt>
      <trkpt lat="44.12923" lon="4.33025">
        <ele>279</ele>
        <time>2021-11-06T14:43:29Z</time>
      </trkpt>
      <trkpt lat="44.12883" lon="4.32955">
        <ele>280</ele>
        <time>2021-11-06T14:43:40Z</time>
      </trkpt>
      <trkpt lat="44.1286" lon="4.32885">
        <ele>279</ele>
        <time>2021-11-06T14:43:50Z</time>
      </trkpt>
      <trkpt lat="44.12849" lon="4.32816">
        <ele>279</ele>
        <time>2021-11-06T14:43:59Z</time>
      </trkpt>
      <trkpt lat="44.12848" lon="4.32739">
        <ele>278</ele>
        <time>2021-11-06T14:44:09Z</time>
      </trkpt>
      <trkpt lat="44.12869" lon="4.32576">
        <ele>281</ele>
        <time>2021-11-06T14:44:30Z</time>
      </trkpt>
      <trkpt lat="44.12894" lon="4.32401">
        <ele>289</ele>
        <time>2021-11-06T14:44:53Z</time>
      </trkpt>
      <trkpt lat="44.12908" lon="4.32328">
        <ele>294</ele>
        <time>2021-11-06T14:45:02Z</time>
      </trkpt>
      <trkpt lat="44.12934" lon="4.32261">
        <ele>294</ele>
        <time>2021-11-06T14:45:12Z</time>
      </trkpt>
      <trkpt lat="44.13046" lon="4.32025">
        <ele>293</ele>
        <time>2021-11-06T14:45:48Z</time>
      </trkpt>
      <trkpt lat="44.13096" lon="4.31915">
        <ele>295</ele>
        <time>2021-11-06T14:46:05Z</time>
      </trkpt>
      <trkpt lat="44.13106" lon="4.3185">
        <ele>294</ele>
        <time>2021-11-06T14:46:13Z</time>
      </trkpt>
      <trkpt lat="44.13101" lon="4.31775">
        <ele>294</ele>
        <time>2021-11-06T14:46:23Z</time>
      </trkpt>
      <trkpt lat="44.12932" lon="4.31162">
        <ele>307</ele>
        <time>2021-11-06T14:47:47Z</time>
      </trkpt>
      <trkpt lat="44.12908" lon="4.31092">
        <ele>308</ele>
        <time>2021-11-06T14:47:57Z</time>
      </trkpt>
      <trkpt lat="44.1288" lon="4.31028">
        <ele>307</ele>
        <time>2021-11-06T14:48:06Z</time>
      </trkpt>
      <trkpt lat="44.12837" lon="4.3095">
        <ele>304</ele>
        <time>2021-11-06T14:48:19Z</time>
      </trkpt>
      <trkpt lat="44.1278" lon="4.30872">
        <ele>303</ele>
        <time>2021-11-06T14:48:33Z</time>
      </trkpt>
      <trkpt lat="44.12722" lon="4.3081">
        <ele>301</ele>
        <time>2021-11-06T14:48:46Z</time>
      </trkpt>
      <trkpt lat="44.12222" lon="4.30356">
        <ele>292</ele>
        <time>2021-11-06T14:50:32Z</time>
      </trkpt>
      <trkpt lat="44.12147" lon="4.303">
        <ele>291</ele>
        <time>2021-11-06T14:50:48Z</time>
      </trkpt>
      <trkpt lat="44.11987" lon="4.30218">
        <ele>285</ele>
        <time>2021-11-06T14:51:18Z</time>
      </trkpt>
      <trkpt lat="44.11905" lon="4.30155">
        <ele>282</ele>
        <time>2021-11-06T14:51:35Z</time>
      </trkpt>
      <trkpt lat="44.11844" lon="4.30087">
        <ele>281</ele>
        <time>2021-11-06T14:51:48Z</time>
      </trkpt>
      <trkpt lat="44.11807" lon="4.30037">
        <ele>280</ele>
        <time>2021-11-06T14:51:58Z</time>
      </trkpt>
      <trkpt lat="44.11758" lon="4.29948">
        <ele>277</ele>
        <time>2021-11-06T14:52:12Z</time>
      </trkpt>
      <trkpt lat="44.11725" lon="4.29861">
        <ele>275</ele>
        <time>2021-11-06T14:52:24Z</time>
      </trkpt>
      <trkpt lat="44.1169" lon="4.29749">
        <ele>274</ele>
        <time>2021-11-06T14:52:40Z</time>
      </trkpt>
      <trkpt lat="44.11672" lon="4.29656">
        <ele>271</ele>
        <time>2021-11-06T14:52:52Z</time>
      </trkpt>
      <trkpt lat="44.11665" lon="4.29593">
        <ele>269</ele>
        <time>2021-11-06T14:53:01Z</time>
      </trkpt>
      <trkpt lat="44.11654" lon="4.29536">
        <ele>269</ele>
        <time>2021-11-06T14:53:08Z</time>
      </trkpt>
      <trkpt lat="44.1165" lon="4.29525">
        <ele>269</ele>
        <time>2021-11-06T14:53:10Z</time>
      </trkpt>
      <trkpt lat="44.11651" lon="4.295">
        <ele>269</ele>
        <time>2021-11-06T14:53:13Z</time>
      </trkpt>
      <trkpt lat="44.11623" lon="4.29359">
        <ele>267</ele>
        <time>2021-11-06T14:53:32Z</time>
      </trkpt>
      <trkpt lat="44.11503" lon="4.28666">
        <ele>265</ele>
        <time>2021-11-06T14:55:03Z</time>
      </trkpt>
      <trkpt lat="44.11495" lon="4.28606">
        <ele>263</ele>
        <time>2021-11-06T14:55:10Z</time>
      </trkpt>
      <trkpt lat="44.11489" lon="4.2854">
        <ele>264</ele>
        <time>2021-11-06T14:55:19Z</time>
      </trkpt>
      <trkpt lat="44.11489" lon="4.28502">
        <ele>265</ele>
        <time>2021-11-06T14:55:24Z</time>
      </trkpt>
      <trkpt lat="44.11492" lon="4.28454">
        <ele>267</ele>
        <time>2021-11-06T14:55:30Z</time>
      </trkpt>
      <trkpt lat="44.11498" lon="4.28403">
        <ele>267</ele>
        <time>2021-11-06T14:55:37Z</time>
      </trkpt>
      <trkpt lat="44.11507" lon="4.28351">
        <ele>265</ele>
        <time>2021-11-06T14:55:43Z</time>
      </trkpt>
      <trkpt lat="44.11548" lon="4.28184">
        <ele>258</ele>
        <time>2021-11-06T14:56:06Z</time>
      </trkpt>
      <trkpt lat="44.11637" lon="4.27849">
        <ele>255</ele>
        <time>2021-11-06T14:56:52Z</time>
      </trkpt>
      <trkpt lat="44.11681" lon="4.27651">
        <ele>256</ele>
        <time>2021-11-06T14:57:18Z</time>
      </trkpt>
      <trkpt lat="44.11692" lon="4.27586">
        <ele>256</ele>
        <time>2021-11-06T14:57:27Z</time>
      </trkpt>
      <trkpt lat="44.11699" lon="4.27504">
        <ele>256</ele>
        <time>2021-11-06T14:57:37Z</time>
      </trkpt>
      <trkpt lat="44.11697" lon="4.27422">
        <ele>255</ele>
        <time>2021-11-06T14:57:48Z</time>
      </trkpt>
      <trkpt lat="44.11686" lon="4.27339">
        <ele>250</ele>
        <time>2021-11-06T14:57:58Z</time>
      </trkpt>
      <trkpt lat="44.11666" lon="4.27259">
        <ele>242</ele>
        <time>2021-11-06T14:58:09Z</time>
      </trkpt>
      <trkpt lat="44.11635" lon="4.27178">
        <ele>250</ele>
        <time>2021-11-06T14:58:21Z</time>
      </trkpt>
      <trkpt lat="44.11593" lon="4.27102">
        <ele>252</ele>
        <time>2021-11-06T14:58:33Z</time>
      </trkpt>
      <trkpt lat="44.11411" lon="4.26823">
        <ele>237</ele>
        <time>2021-11-06T14:59:21Z</time>
      </trkpt>
      <trkpt lat="44.11361" lon="4.26732">
        <ele>236</ele>
        <time>2021-11-06T14:59:36Z</time>
      </trkpt>
      <trkpt lat="44.11317" lon="4.26602">
        <ele>228</ele>
        <time>2021-11-06T14:59:54Z</time>
      </trkpt>
      <trkpt lat="44.11298" lon="4.26479">
        <ele>227</ele>
        <time>2021-11-06T15:00:10Z</time>
      </trkpt>
      <trkpt lat="44.11295" lon="4.2638">
        <ele>226</ele>
        <time>2021-11-06T15:00:23Z</time>
      </trkpt>
      <trkpt lat="44.11307" lon="4.26272">
        <ele>224</ele>
        <time>2021-11-06T15:00:37Z</time>
      </trkpt>
      <trkpt lat="44.11485" lon="4.25305">
        <ele>209</ele>
        <time>2021-11-06T15:02:44Z</time>
      </trkpt>
      <trkpt lat="44.11493" lon="4.25266">
        <ele>207</ele>
        <time>2021-11-06T15:02:50Z</time>
      </trkpt>
      <trkpt lat="44.11544" lon="4.24989">
        <ele>215</ele>
        <time>2021-11-06T15:03:26Z</time>
      </trkpt>
      <trkpt lat="44.11577" lon="4.24863">
        <ele>210</ele>
        <time>2021-11-06T15:03:43Z</time>
      </trkpt>
      <trkpt lat="44.11637" lon="4.24662">
        <ele>211</ele>
        <time>2021-11-06T15:04:11Z</time>
      </trkpt>
      <trkpt lat="44.11951" lon="4.23865">
        <ele>199</ele>
        <time>2021-11-06T15:06:07Z</time>
      </trkpt>
      <trkpt lat="44.11988" lon="4.23788">
        <ele>195</ele>
        <time>2021-11-06T15:06:19Z</time>
      </trkpt>
      <trkpt lat="44.12041" lon="4.23716">
        <ele>196</ele>
        <time>2021-11-06T15:06:32Z</time>
      </trkpt>
      <trkpt lat="44.12141" lon="4.23645">
        <ele>191</ele>
        <time>2021-11-06T15:06:52Z</time>
      </trkpt>
      <trkpt lat="44.12203" lon="4.23623">
        <ele>193</ele>
        <time>2021-11-06T15:07:04Z</time>
      </trkpt>
      <trkpt lat="44.12239" lon="4.23619">
        <ele>195</ele>
        <time>2021-11-06T15:07:10Z</time>
      </trkpt>
      <trkpt lat="44.12265" lon="4.23617">
        <ele>197</ele>
        <time>2021-11-06T15:07:15Z</time>
      </trkpt>
      <trkpt lat="44.12378" lon="4.23608">
        <ele>199</ele>
        <time>2021-11-06T15:07:35Z</time>
      </trkpt>
      <trkpt lat="44.12397" lon="4.23606">
        <ele>198</ele>
        <time>2021-11-06T15:07:38Z</time>
      </trkpt>
      <trkpt lat="44.12441" lon="4.23602">
        <ele>195</ele>
        <time>2021-11-06T15:07:46Z</time>
      </trkpt>
      <trkpt lat="44.12481" lon="4.23587">
        <ele>193</ele>
        <time>2021-11-06T15:07:53Z</time>
      </trkpt>
      <trkpt lat="44.12525" lon="4.23558">
        <ele>196</ele>
        <time>2021-11-06T15:08:02Z</time>
      </trkpt>
      <trkpt lat="44.12672" lon="4.23418">
        <ele>195</ele>
        <time>2021-11-06T15:08:34Z</time>
      </trkpt>
      <trkpt lat="44.12811" lon="4.23317">
        <ele>187</ele>
        <time>2021-11-06T15:09:02Z</time>
      </trkpt>
      <trkpt lat="44.12849" lon="4.23284">
        <ele>186</ele>
        <time>2021-11-06T15:09:10Z</time>
      </trkpt>
      <trkpt lat="44.12889" lon="4.23237">
        <ele>184</ele>
        <time>2021-11-06T15:09:19Z</time>
      </trkpt>
      <trkpt lat="44.12916" lon="4.23193">
        <ele>184</ele>
        <time>2021-11-06T15:09:26Z</time>
      </trkpt>
      <trkpt lat="44.12925" lon="4.23185">
        <ele>184</ele>
        <time>2021-11-06T15:09:28Z</time>
      </trkpt>
      <trkpt lat="44.12934" lon="4.23184">
        <ele>183</ele>
        <time>2021-11-06T15:09:30Z</time>
      </trkpt>
      <trkpt lat="44.12942" lon="4.23186">
        <ele>182</ele>
        <time>2021-11-06T15:09:31Z</time>
      </trkpt>
      <trkpt lat="44.12941" lon="4.23194">
        <ele>182</ele>
        <time>2021-11-06T15:09:32Z</time>
      </trkpt>
      <trkpt lat="44.12937" lon="4.23232">
        <ele>179</ele>
        <time>2021-11-06T15:09:37Z</time>
      </trkpt>
      <trkpt lat="44.12933" lon="4.23296">
        <ele>179</ele>
        <time>2021-11-06T15:09:45Z</time>
      </trkpt>
      <trkpt lat="44.12933" lon="4.23315">
        <ele>179</ele>
        <time>2021-11-06T15:09:48Z</time>
      </trkpt>
      <trkpt lat="44.12937" lon="4.23346">
        <ele>180</ele>
        <time>2021-11-06T15:09:52Z</time>
      </trkpt>
      <trkpt lat="44.1295" lon="4.23381">
        <ele>181</ele>
        <time>2021-11-06T15:09:57Z</time>
      </trkpt>
      <trkpt lat="44.12979" lon="4.23438">
        <ele>184</ele>
        <time>2021-11-06T15:10:06Z</time>
      </trkpt>
      <trkpt lat="44.12986" lon="4.23456">
        <ele>184</ele>
        <time>2021-11-06T15:10:08Z</time>
      </trkpt>
      <trkpt lat="44.12991" lon="4.23476">
        <ele>185</ele>
        <time>2021-11-06T15:10:11Z</time>
      </trkpt>
      <trkpt lat="44.12994" lon="4.23505">
        <ele>186</ele>
        <time>2021-11-06T15:10:15Z</time>
      </trkpt>
      <trkpt lat="44.12993" lon="4.23568">
        <ele>188</ele>
        <time>2021-11-06T15:10:23Z</time>
      </trkpt>
      <trkpt lat="44.12995" lon="4.23596">
        <ele>189</ele>
        <time>2021-11-06T15:10:27Z</time>
      </trkpt>
      <trkpt lat="44.13003" lon="4.23639">
        <ele>189</ele>
        <time>2021-11-06T15:10:32Z</time>
      </trkpt>
      <trkpt lat="44.13045" lon="4.23727">
        <ele>189</ele>
        <time>2021-11-06T15:10:46Z</time>
      </trkpt>
      <trkpt lat="44.13092" lon="4.23815">
        <ele>189</ele>
        <time>2021-11-06T15:11:00Z</time>
      </trkpt>
      <trkpt lat="44.13107" lon="4.23859">
        <ele>190</ele>
        <time>2021-11-06T15:11:06Z</time>
      </trkpt>
      <trkpt lat="44.13133" lon="4.23929">
        <ele>193</ele>
        <time>2021-11-06T15:11:16Z</time>
      </trkpt>
      <trkpt lat="44.13135" lon="4.23943">
        <ele>194</ele>
        <time>2021-11-06T15:11:18Z</time>
      </trkpt>
      <trkpt lat="44.13138" lon="4.24006">
        <ele>197</ele>
        <time>2021-11-06T15:11:26Z</time>
      </trkpt>
      <trkpt lat="44.13142" lon="4.24024">
        <ele>198</ele>
        <time>2021-11-06T15:11:28Z</time>
      </trkpt>
      <trkpt lat="44.13161" lon="4.2409">
        <ele>200</ele>
        <time>2021-11-06T15:11:37Z</time>
      </trkpt>
      <trkpt lat="44.13213" lon="4.2425">
        <ele>204</ele>
        <time>2021-11-06T15:12:00Z</time>
      </trkpt>
      <trkpt lat="44.13225" lon="4.24299">
        <ele>205</ele>
        <time>2021-11-06T15:12:06Z</time>
      </trkpt>
      <trkpt lat="44.13231" lon="4.24317">
        <ele>205</ele>
        <time>2021-11-06T15:12:09Z</time>
      </trkpt>
      <trkpt lat="44.13239" lon="4.24329">
        <ele>204</ele>
        <time>2021-11-06T15:12:11Z</time>
      </trkpt>
      <trkpt lat="44.13258" lon="4.24347">
        <ele>204</ele>
        <time>2021-11-06T15:12:15Z</time>
      </trkpt>
      <trkpt lat="44.13268" lon="4.24354">
        <ele>204</ele>
        <time>2021-11-06T15:12:17Z</time>
      </trkpt>
      <trkpt lat="44.13283" lon="4.24359">
        <ele>204</ele>
        <time>2021-11-06T15:12:20Z</time>
      </trkpt>
      <trkpt lat="44.13307" lon="4.2436">
        <ele>204</ele>
        <time>2021-11-06T15:12:24Z</time>
      </trkpt>
      <trkpt lat="44.13347" lon="4.24377">
        <ele>204</ele>
        <time>2021-11-06T15:12:32Z</time>
      </trkpt>
      <trkpt lat="44.13369" lon="4.2439">
        <ele>204</ele>
        <time>2021-11-06T15:12:36Z</time>
      </trkpt>
      <trkpt lat="44.13386" lon="4.24402">
        <ele>204</ele>
        <time>2021-11-06T15:12:39Z</time>
      </trkpt>
      <trkpt lat="44.13432" lon="4.24461">
        <ele>206</ele>
        <time>2021-11-06T15:12:50Z</time>
      </trkpt>
      <trkpt lat="44.13466" lon="4.24488">
        <ele>206</ele>
        <time>2021-11-06T15:12:57Z</time>
      </trkpt>
      <trkpt lat="44.13488" lon="4.24496">
        <ele>205</ele>
        <time>2021-11-06T15:13:01Z</time>
      </trkpt>
      <trkpt lat="44.13506" lon="4.24496">
        <ele>205</ele>
        <time>2021-11-06T15:13:05Z</time>
      </trkpt>
      <trkpt lat="44.13534" lon="4.2451">
        <ele>205</ele>
        <time>2021-11-06T15:13:10Z</time>
      </trkpt>
      <trkpt lat="44.13547" lon="4.24519">
        <ele>206</ele>
        <time>2021-11-06T15:13:12Z</time>
      </trkpt>
      <trkpt lat="44.13595" lon="4.24543">
        <ele>206</ele>
        <time>2021-11-06T15:13:22Z</time>
      </trkpt>
      <trkpt lat="44.13612" lon="4.24547">
        <ele>206</ele>
        <time>2021-11-06T15:13:25Z</time>
      </trkpt>
      <trkpt lat="44.13636" lon="4.24533">
        <ele>203</ele>
        <time>2021-11-06T15:13:29Z</time>
      </trkpt>
      <trkpt lat="44.13645" lon="4.24527">
        <ele>203</ele>
        <time>2021-11-06T15:13:31Z</time>
      </trkpt>
      <trkpt lat="44.13675" lon="4.24516">
        <ele>200</ele>
        <time>2021-11-06T15:13:37Z</time>
      </trkpt>
      <trkpt lat="44.13681" lon="4.24522">
        <ele>200</ele>
        <time>2021-11-06T15:13:38Z</time>
      </trkpt>
      <trkpt lat="44.13785" lon="4.24564">
        <ele>197</ele>
        <time>2021-11-06T15:13:57Z</time>
      </trkpt>
      <trkpt lat="44.13863" lon="4.24601">
        <ele>197</ele>
        <time>2021-11-06T15:14:12Z</time>
      </trkpt>
      <trkpt lat="44.13877" lon="4.24603">
        <ele>198</ele>
        <time>2021-11-06T15:14:14Z</time>
      </trkpt>
      <trkpt lat="44.13972" lon="4.24596">
        <ele>197</ele>
        <time>2021-11-06T15:14:31Z</time>
      </trkpt>
      <trkpt lat="44.14011" lon="4.24605">
        <ele>197</ele>
        <time>2021-11-06T15:14:38Z</time>
      </trkpt>
      <trkpt lat="44.14026" lon="4.24606">
        <ele>197</ele>
        <time>2021-11-06T15:14:41Z</time>
      </trkpt>
      <trkpt lat="44.14026" lon="4.24637">
        <ele>200</ele>
        <time>2021-11-06T15:14:45Z</time>
      </trkpt>
      <trkpt lat="44.14035" lon="4.24658">
        <ele>202</ele>
        <time>2021-11-06T15:14:48Z</time>
      </trkpt>
      <trkpt lat="44.14053" lon="4.24689">
        <ele>204</ele>
        <time>2021-11-06T15:14:53Z</time>
      </trkpt>
      <trkpt lat="44.14065" lon="4.24733">
        <ele>209</ele>
        <time>2021-11-06T15:14:59Z</time>
      </trkpt>
      <trkpt lat="44.14074" lon="4.24769">
        <ele>213</ele>
        <time>2021-11-06T15:15:04Z</time>
      </trkpt>
      <trkpt lat="44.14074" lon="4.24803">
        <ele>217</ele>
        <time>2021-11-06T15:15:08Z</time>
      </trkpt>
      <trkpt lat="44.14086" lon="4.24853">
        <ele>222</ele>
        <time>2021-11-06T15:15:15Z</time>
      </trkpt>
      <trkpt lat="44.14129" lon="4.25052">
        <ele>239</ele>
        <time>2021-11-06T15:15:42Z</time>
      </trkpt>
      <trkpt lat="44.1422" lon="4.25142">
        <ele>247</ele>
        <time>2021-11-06T15:16:01Z</time>
      </trkpt>
      <trkpt lat="44.14243" lon="4.25175">
        <ele>249</ele>
        <time>2021-11-06T15:16:07Z</time>
      </trkpt>
      <trkpt lat="44.14335" lon="4.2532">
        <ele>256</ele>
        <time>2021-11-06T15:16:32Z</time>
      </trkpt>
      <trkpt lat="44.14344" lon="4.25345">
        <ele>255</ele>
        <time>2021-11-06T15:16:36Z</time>
      </trkpt>
      <trkpt lat="44.14347" lon="4.2537">
        <ele>255</ele>
        <time>2021-11-06T15:16:39Z</time>
      </trkpt>
      <trkpt lat="44.14368" lon="4.25431">
        <ele>253</ele>
        <time>2021-11-06T15:16:47Z</time>
      </trkpt>
      <trkpt lat="44.14402" lon="4.25499">
        <ele>255</ele>
        <time>2021-11-06T15:16:58Z</time>
      </trkpt>
      <trkpt lat="44.1441" lon="4.25527">
        <ele>256</ele>
        <time>2021-11-06T15:17:02Z</time>
      </trkpt>
      <trkpt lat="44.14411" lon="4.25548">
        <ele>258</ele>
        <time>2021-11-06T15:17:05Z</time>
      </trkpt>
      <trkpt lat="44.14407" lon="4.25578">
        <ele>260</ele>
        <time>2021-11-06T15:17:08Z</time>
      </trkpt>
      <trkpt lat="44.14409" lon="4.25613">
        <ele>263</ele>
        <time>2021-11-06T15:17:13Z</time>
      </trkpt>
      <trkpt lat="44.14423" lon="4.25682">
        <ele>268</ele>
        <time>2021-11-06T15:17:22Z</time>
      </trkpt>
      <trkpt lat="44.14445" lon="4.25736">
        <ele>268</ele>
        <time>2021-11-06T15:17:30Z</time>
      </trkpt>
      <trkpt lat="44.14453" lon="4.25772">
        <ele>270</ele>
        <time>2021-11-06T15:17:35Z</time>
      </trkpt>
      <trkpt lat="44.14454" lon="4.25802">
        <ele>272</ele>
        <time>2021-11-06T15:17:39Z</time>
      </trkpt>
      <trkpt lat="44.14445" lon="4.25824">
        <ele>275</ele>
        <time>2021-11-06T15:17:42Z</time>
      </trkpt>
      <trkpt lat="44.14433" lon="4.25841">
        <ele>279</ele>
        <time>2021-11-06T15:17:45Z</time>
      </trkpt>
      <trkpt lat="44.14374" lon="4.25856">
        <ele>284</ele>
        <time>2021-11-06T15:17:56Z</time>
      </trkpt>
      <trkpt lat="44.14244" lon="4.25988">
        <ele>301</ele>
        <time>2021-11-06T15:18:24Z</time>
      </trkpt>
      <trkpt lat="44.1413" lon="4.26134">
        <ele>320</ele>
        <time>2021-11-06T15:18:52Z</time>
      </trkpt>
      <trkpt lat="44.14115" lon="4.26163">
        <ele>323</ele>
        <time>2021-11-06T15:18:56Z</time>
      </trkpt>
      <trkpt lat="44.1411" lon="4.2619">
        <ele>325</ele>
        <time>2021-11-06T15:19:00Z</time>
      </trkpt>
      <trkpt lat="44.14117" lon="4.26215">
        <ele>328</ele>
        <time>2021-11-06T15:19:03Z</time>
      </trkpt>
      <trkpt lat="44.14156" lon="4.26286">
        <ele>334</ele>
        <time>2021-11-06T15:19:15Z</time>
      </trkpt>
      <trkpt lat="44.14165" lon="4.26308">
        <ele>335</ele>
        <time>2021-11-06T15:19:18Z</time>
      </trkpt>
      <trkpt lat="44.14168" lon="4.26328">
        <ele>336</ele>
        <time>2021-11-06T15:19:21Z</time>
      </trkpt>
      <trkpt lat="44.14168" lon="4.26399">
        <ele>336</ele>
        <time>2021-11-06T15:19:30Z</time>
      </trkpt>
      <trkpt lat="44.14166" lon="4.26425">
        <ele>337</ele>
        <time>2021-11-06T15:19:33Z</time>
      </trkpt>
      <trkpt lat="44.14155" lon="4.26463">
        <ele>338</ele>
        <time>2021-11-06T15:19:38Z</time>
      </trkpt>
      <trkpt lat="44.14133" lon="4.26575">
        <ele>345</ele>
        <time>2021-11-06T15:19:53Z</time>
      </trkpt>
      <trkpt lat="44.14129" lon="4.26622">
        <ele>351</ele>
        <time>2021-11-06T15:19:59Z</time>
      </trkpt>
      <trkpt lat="44.14132" lon="4.26653">
        <ele>355</ele>
        <time>2021-11-06T15:20:03Z</time>
      </trkpt>
      <trkpt lat="44.14164" lon="4.26787">
        <ele>376</ele>
        <time>2021-11-06T15:20:21Z</time>
      </trkpt>
      <trkpt lat="44.14189" lon="4.2684">
        <ele>381</ele>
        <time>2021-11-06T15:20:29Z</time>
      </trkpt>
      <trkpt lat="44.14206" lon="4.26886">
        <ele>384</ele>
        <time>2021-11-06T15:20:36Z</time>
      </trkpt>
      <trkpt lat="44.14212" lon="4.26913">
        <ele>387</ele>
        <time>2021-11-06T15:20:39Z</time>
      </trkpt>
      <trkpt lat="44.14212" lon="4.26932">
        <ele>388</ele>
        <time>2021-11-06T15:20:42Z</time>
      </trkpt>
      <trkpt lat="44.14206" lon="4.26965">
        <ele>392</ele>
        <time>2021-11-06T15:20:46Z</time>
      </trkpt>
      <trkpt lat="44.14202" lon="4.26981">
        <ele>395</ele>
        <time>2021-11-06T15:20:48Z</time>
      </trkpt>
      <trkpt lat="44.14194" lon="4.26997">
        <ele>398</ele>
        <time>2021-11-06T15:20:51Z</time>
      </trkpt>
      <trkpt lat="44.14186" lon="4.27006">
        <ele>400</ele>
        <time>2021-11-06T15:20:53Z</time>
      </trkpt>
      <trkpt lat="44.14178" lon="4.2701">
        <ele>402</ele>
        <time>2021-11-06T15:20:54Z</time>
      </trkpt>
      <trkpt lat="44.14169" lon="4.27009">
        <ele>404</ele>
        <time>2021-11-06T15:20:56Z</time>
      </trkpt>
      <trkpt lat="44.14086" lon="4.27">
        <ele>415</ele>
        <time>2021-11-06T15:21:11Z</time>
      </trkpt>
      <trkpt lat="44.14072" lon="4.27002">
        <ele>415</ele>
        <time>2021-11-06T15:21:13Z</time>
      </trkpt>
      <trkpt lat="44.14061" lon="4.27007">
        <ele>415</ele>
        <time>2021-11-06T15:21:15Z</time>
      </trkpt>
      <trkpt lat="44.14051" lon="4.27017">
        <ele>416</ele>
        <time>2021-11-06T15:21:17Z</time>
      </trkpt>
      <trkpt lat="44.14034" lon="4.27061">
        <ele>420</ele>
        <time>2021-11-06T15:21:24Z</time>
      </trkpt>
      <trkpt lat="44.14009" lon="4.27114">
        <ele>425</ele>
        <time>2021-11-06T15:21:32Z</time>
      </trkpt>
      <trkpt lat="44.13993" lon="4.27151">
        <ele>428</ele>
        <time>2021-11-06T15:21:37Z</time>
      </trkpt>
      <trkpt lat="44.13969" lon="4.27202">
        <ele>434</ele>
        <time>2021-11-06T15:21:45Z</time>
      </trkpt>
      <trkpt lat="44.1396" lon="4.27218">
        <ele>437</ele>
        <time>2021-11-06T15:21:48Z</time>
      </trkpt>
      <trkpt lat="44.1395" lon="4.27227">
        <ele>438</ele>
        <time>2021-11-06T15:21:50Z</time>
      </trkpt>
      <trkpt lat="44.13903" lon="4.27254">
        <ele>445</ele>
        <time>2021-11-06T15:21:59Z</time>
      </trkpt>
      <trkpt lat="44.13852" lon="4.27279">
        <ele>447</ele>
        <time>2021-11-06T15:22:09Z</time>
      </trkpt>
      <trkpt lat="44.13841" lon="4.27287">
        <ele>448</ele>
        <time>2021-11-06T15:22:11Z</time>
      </trkpt>
      <trkpt lat="44.13837" lon="4.27294">
        <ele>448</ele>
        <time>2021-11-06T15:22:12Z</time>
      </trkpt>
      <trkpt lat="44.13834" lon="4.2731">
        <ele>450</ele>
        <time>2021-11-06T15:22:14Z</time>
      </trkpt>
      <trkpt lat="44.1383" lon="4.27343">
        <ele>453</ele>
        <time>2021-11-06T15:22:18Z</time>
      </trkpt>
      <trkpt lat="44.13831" lon="4.27364">
        <ele>456</ele>
        <time>2021-11-06T15:22:21Z</time>
      </trkpt>
      <trkpt lat="44.13835" lon="4.27381">
        <ele>459</ele>
        <time>2021-11-06T15:22:23Z</time>
      </trkpt>
      <trkpt lat="44.13844" lon="4.27395">
        <ele>461</ele>
        <time>2021-11-06T15:22:26Z</time>
      </trkpt>
      <trkpt lat="44.13864" lon="4.27413">
        <ele>464</ele>
        <time>2021-11-06T15:22:30Z</time>
      </trkpt>
      <trkpt lat="44.13876" lon="4.2743">
        <ele>467</ele>
        <time>2021-11-06T15:22:33Z</time>
      </trkpt>
      <trkpt lat="44.13887" lon="4.27449">
        <ele>471</ele>
        <time>2021-11-06T15:22:36Z</time>
      </trkpt>
      <trkpt lat="44.13908" lon="4.27474">
        <ele>476</ele>
        <time>2021-11-06T15:22:41Z</time>
      </trkpt>
      <trkpt lat="44.13926" lon="4.27491">
        <ele>478</ele>
        <time>2021-11-06T15:22:45Z</time>
      </trkpt>
      <trkpt lat="44.13932" lon="4.27505">
        <ele>479</ele>
        <time>2021-11-06T15:22:47Z</time>
      </trkpt>
      <trkpt lat="44.13932" lon="4.27519">
        <ele>480</ele>
        <time>2021-11-06T15:22:49Z</time>
      </trkpt>
      <trkpt lat="44.13928" lon="4.27535">
        <ele>482</ele>
        <time>2021-11-06T15:22:51Z</time>
      </trkpt>
      <trkpt lat="44.13903" lon="4.27588">
        <ele>486</ele>
        <time>2021-11-06T15:22:59Z</time>
      </trkpt>
      <trkpt lat="44.13899" lon="4.27602">
        <ele>487</ele>
        <time>2021-11-06T15:23:01Z</time>
      </trkpt>
      <trkpt lat="44.13897" lon="4.27618">
        <ele>488</ele>
        <time>2021-11-06T15:23:03Z</time>
      </trkpt>
      <trkpt lat="44.13896" lon="4.27674">
        <ele>490</ele>
        <time>2021-11-06T15:23:10Z</time>
      </trkpt>
      <trkpt lat="44.13894" lon="4.27705">
        <ele>492</ele>
        <time>2021-11-06T15:23:14Z</time>
      </trkpt>
      <trkpt lat="44.13886" lon="4.27728">
        <ele>493</ele>
        <time>2021-11-06T15:23:17Z</time>
      </trkpt>
      <trkpt lat="44.13857" lon="4.27778">
        <ele>496</ele>
        <time>2021-11-06T15:23:26Z</time>
      </trkpt>
      <trkpt lat="44.13834" lon="4.27821">
        <ele>501</ele>
        <time>2021-11-06T15:23:32Z</time>
      </trkpt>
      <trkpt lat="44.13822" lon="4.27862">
        <ele>504</ele>
        <time>2021-11-06T15:23:38Z</time>
      </trkpt>
      <trkpt lat="44.13801" lon="4.27914">
        <ele>510</ele>
        <time>2021-11-06T15:23:46Z</time>
      </trkpt>
      <trkpt lat="44.13786" lon="4.27938">
        <ele>512</ele>
        <time>2021-11-06T15:23:50Z</time>
      </trkpt>
      <trkpt lat="44.13775" lon="4.27946">
        <ele>513</ele>
        <time>2021-11-06T15:23:52Z</time>
      </trkpt>
      <trkpt lat="44.13663" lon="4.28001">
        <ele>528</ele>
        <time>2021-11-06T15:24:13Z</time>
      </trkpt>
      <trkpt lat="44.13574" lon="4.28051">
        <ele>541</ele>
        <time>2021-11-06T15:24:30Z</time>
      </trkpt>
      <trkpt lat="44.13449" lon="4.28167">
        <ele>560</ele>
        <time>2021-11-06T15:24:57Z</time>
      </trkpt>
      <trkpt lat="44.13404" lon="4.28201">
        <ele>565</ele>
        <time>2021-11-06T15:25:06Z</time>
      </trkpt>
      <trkpt lat="44.13437" lon="4.28197">
        <ele>565</ele>
        <time>2021-11-06T15:25:12Z</time>
      </trkpt>
      <trkpt lat="44.13454" lon="4.28198">
        <ele>564</ele>
        <time>2021-11-06T15:25:15Z</time>
      </trkpt>
      <trkpt lat="44.13491" lon="4.28221">
        <ele>566</ele>
        <time>2021-11-06T15:25:22Z</time>
      </trkpt>
      <trkpt lat="44.13503" lon="4.28232">
        <ele>567</ele>
        <time>2021-11-06T15:25:25Z</time>
      </trkpt>
      <trkpt lat="44.13509" lon="4.28245">
        <ele>567</ele>
        <time>2021-11-06T15:25:27Z</time>
      </trkpt>
      <trkpt lat="44.13511" lon="4.28263">
        <ele>568</ele>
        <time>2021-11-06T15:25:29Z</time>
      </trkpt>
      <trkpt lat="44.13517" lon="4.28289">
        <ele>568</ele>
        <time>2021-11-06T15:25:32Z</time>
      </trkpt>
      <trkpt lat="44.13528" lon="4.28313">
        <ele>568</ele>
        <time>2021-11-06T15:25:36Z</time>
      </trkpt>
      <trkpt lat="44.13555" lon="4.28346">
        <ele>565</ele>
        <time>2021-11-06T15:25:42Z</time>
      </trkpt>
      <trkpt lat="44.13581" lon="4.28367">
        <ele>563</ele>
        <time>2021-11-06T15:25:48Z</time>
      </trkpt>
      <trkpt lat="44.13611" lon="4.28387">
        <ele>561</ele>
        <time>2021-11-06T15:25:54Z</time>
      </trkpt>
      <trkpt lat="44.13658" lon="4.28409">
        <ele>555</ele>
        <time>2021-11-06T15:26:03Z</time>
      </trkpt>
      <trkpt lat="44.13671" lon="4.28411">
        <ele>553</ele>
        <time>2021-11-06T15:26:05Z</time>
      </trkpt>
      <trkpt lat="44.13679" lon="4.28409">
        <ele>552</ele>
        <time>2021-11-06T15:26:06Z</time>
      </trkpt>
      <trkpt lat="44.13716" lon="4.28392">
        <ele>548</ele>
        <time>2021-11-06T15:26:13Z</time>
      </trkpt>
      <trkpt lat="44.13728" lon="4.28389">
        <ele>548</ele>
        <time>2021-11-06T15:26:15Z</time>
      </trkpt>
      <trkpt lat="44.13737" lon="4.28392">
        <ele>547</ele>
        <time>2021-11-06T15:26:17Z</time>
      </trkpt>
      <trkpt lat="44.13742" lon="4.28401">
        <ele>547</ele>
        <time>2021-11-06T15:26:19Z</time>
      </trkpt>
      <trkpt lat="44.13743" lon="4.28412">
        <ele>547</ele>
        <time>2021-11-06T15:26:20Z</time>
      </trkpt>
      <trkpt lat="44.13731" lon="4.28462">
        <ele>545</ele>
        <time>2021-11-06T15:26:27Z</time>
      </trkpt>
      <trkpt lat="44.13728" lon="4.28483">
        <ele>543</ele>
        <time>2021-11-06T15:26:29Z</time>
      </trkpt>
      <trkpt lat="44.13726" lon="4.28504">
        <ele>542</ele>
        <time>2021-11-06T15:26:32Z</time>
      </trkpt>
      <trkpt lat="44.13728" lon="4.28531">
        <ele>538</ele>
        <time>2021-11-06T15:26:36Z</time>
      </trkpt>
      <trkpt lat="44.13733" lon="4.28555">
        <ele>535</ele>
        <time>2021-11-06T15:26:39Z</time>
      </trkpt>
      <trkpt lat="44.13755" lon="4.28613">
        <ele>521</ele>
        <time>2021-11-06T15:26:47Z</time>
      </trkpt>
      <trkpt lat="44.13765" lon="4.2863">
        <ele>517</ele>
        <time>2021-11-06T15:26:50Z</time>
      </trkpt>
      <trkpt lat="44.13777" lon="4.28641">
        <ele>515</ele>
        <time>2021-11-06T15:26:53Z</time>
      </trkpt>
      <trkpt lat="44.13823" lon="4.28655">
        <ele>515</ele>
        <time>2021-11-06T15:27:01Z</time>
      </trkpt>
      <trkpt lat="44.1385" lon="4.28676">
        <ele>514</ele>
        <time>2021-11-06T15:27:06Z</time>
      </trkpt>
      <trkpt lat="44.13858" lon="4.28678">
        <ele>515</ele>
        <time>2021-11-06T15:27:08Z</time>
      </trkpt>
      <trkpt lat="44.13869" lon="4.28675">
        <ele>518</ele>
        <time>2021-11-06T15:27:10Z</time>
      </trkpt>
      <trkpt lat="44.13878" lon="4.28674">
        <ele>520</ele>
        <time>2021-11-06T15:27:11Z</time>
      </trkpt>
      <trkpt lat="44.13886" lon="4.28678">
        <ele>521</ele>
        <time>2021-11-06T15:27:13Z</time>
      </trkpt>
      <trkpt lat="44.13945" lon="4.28758">
        <ele>515</ele>
        <time>2021-11-06T15:27:28Z</time>
      </trkpt>
      <trkpt lat="44.13955" lon="4.28767">
        <ele>514</ele>
        <time>2021-11-06T15:27:30Z</time>
      </trkpt>
      <trkpt lat="44.14033" lon="4.28823">
        <ele>504</ele>
        <time>2021-11-06T15:27:45Z</time>
      </trkpt>
      <trkpt lat="44.14057" lon="4.28837">
        <ele>501</ele>
        <time>2021-11-06T15:27:50Z</time>
      </trkpt>
      <trkpt lat="44.14074" lon="4.28856">
        <ele>497</ele>
        <time>2021-11-06T15:27:54Z</time>
      </trkpt>
      <trkpt lat="44.14091" lon="4.28866">
        <ele>496</ele>
        <time>2021-11-06T15:27:57Z</time>
      </trkpt>
      <trkpt lat="44.14119" lon="4.28876">
        <ele>497</ele>
        <time>2021-11-06T15:28:02Z</time>
      </trkpt>
      <trkpt lat="44.14166" lon="4.28899">
        <ele>492</ele>
        <time>2021-11-06T15:28:11Z</time>
      </trkpt>
      <trkpt lat="44.14185" lon="4.28916">
        <ele>482</ele>
        <time>2021-11-06T15:28:15Z</time>
      </trkpt>
      <trkpt lat="44.1421" lon="4.28951">
        <ele>472</ele>
        <time>2021-11-06T15:28:21Z</time>
      </trkpt>
      <trkpt lat="44.14218" lon="4.28957">
        <ele>471</ele>
        <time>2021-11-06T15:28:23Z</time>
      </trkpt>
      <trkpt lat="44.14231" lon="4.28958">
        <ele>471</ele>
        <time>2021-11-06T15:28:25Z</time>
      </trkpt>
      <trkpt lat="44.14256" lon="4.28953">
        <ele>471</ele>
        <time>2021-11-06T15:28:30Z</time>
      </trkpt>
      <trkpt lat="44.1426" lon="4.28957">
        <ele>469</ele>
        <time>2021-11-06T15:28:31Z</time>
      </trkpt>
      <trkpt lat="44.14261" lon="4.28963">
        <ele>468</ele>
        <time>2021-11-06T15:28:32Z</time>
      </trkpt>
      <trkpt lat="44.14258" lon="4.28969">
        <ele>467</ele>
        <time>2021-11-06T15:28:32Z</time>
      </trkpt>
      <trkpt lat="44.14237" lon="4.28984">
        <ele>464</ele>
        <time>2021-11-06T15:28:37Z</time>
      </trkpt>
      <trkpt lat="44.14218" lon="4.28994">
        <ele>461</ele>
        <time>2021-11-06T15:28:40Z</time>
      </trkpt>
      <trkpt lat="44.14201" lon="4.28993">
        <ele>461</ele>
        <time>2021-11-06T15:28:43Z</time>
      </trkpt>
      <trkpt lat="44.14146" lon="4.28964">
        <ele>466</ele>
        <time>2021-11-06T15:28:54Z</time>
      </trkpt>
      <trkpt lat="44.14129" lon="4.2896">
        <ele>465</ele>
        <time>2021-11-06T15:28:57Z</time>
      </trkpt>
      <trkpt lat="44.14073" lon="4.28964">
        <ele>457</ele>
        <time>2021-11-06T15:29:07Z</time>
      </trkpt>
      <trkpt lat="44.14057" lon="4.28961">
        <ele>456</ele>
        <time>2021-11-06T15:29:10Z</time>
      </trkpt>
      <trkpt lat="44.14052" lon="4.28964">
        <ele>454</ele>
        <time>2021-11-06T15:29:11Z</time>
      </trkpt>
      <trkpt lat="44.14051" lon="4.28974">
        <ele>451</ele>
        <time>2021-11-06T15:29:12Z</time>
      </trkpt>
      <trkpt lat="44.14056" lon="4.28984">
        <ele>449</ele>
        <time>2021-11-06T15:29:14Z</time>
      </trkpt>
      <trkpt lat="44.14072" lon="4.28992">
        <ele>449</ele>
        <time>2021-11-06T15:29:17Z</time>
      </trkpt>
      <trkpt lat="44.14113" lon="4.28995">
        <ele>453</ele>
        <time>2021-11-06T15:29:24Z</time>
      </trkpt>
      <trkpt lat="44.14137" lon="4.29013">
        <ele>450</ele>
        <time>2021-11-06T15:29:29Z</time>
      </trkpt>
      <trkpt lat="44.14156" lon="4.2904">
        <ele>444</ele>
        <time>2021-11-06T15:29:34Z</time>
      </trkpt>
      <trkpt lat="44.14166" lon="4.29069">
        <ele>437</ele>
        <time>2021-11-06T15:29:38Z</time>
      </trkpt>
      <trkpt lat="44.14175" lon="4.29084">
        <ele>433</ele>
        <time>2021-11-06T15:29:40Z</time>
      </trkpt>
      <trkpt lat="44.14182" lon="4.29095">
        <ele>432</ele>
        <time>2021-11-06T15:29:42Z</time>
      </trkpt>
      <trkpt lat="44.14202" lon="4.2911">
        <ele>430</ele>
        <time>2021-11-06T15:29:46Z</time>
      </trkpt>
      <trkpt lat="44.1421" lon="4.29126">
        <ele>427</ele>
        <time>2021-11-06T15:29:49Z</time>
      </trkpt>
      <trkpt lat="44.14224" lon="4.2913">
        <ele>426</ele>
        <time>2021-11-06T15:29:51Z</time>
      </trkpt>
      <trkpt lat="44.14269" lon="4.29138">
        <ele>424</ele>
        <time>2021-11-06T15:29:59Z</time>
      </trkpt>
      <trkpt lat="44.14286" lon="4.29136">
        <ele>423</ele>
        <time>2021-11-06T15:30:02Z</time>
      </trkpt>
      <trkpt lat="44.14365" lon="4.29111">
        <ele>419</ele>
        <time>2021-11-06T15:30:17Z</time>
      </trkpt>
      <trkpt lat="44.1444" lon="4.29094">
        <ele>413</ele>
        <time>2021-11-06T15:30:30Z</time>
      </trkpt>
      <trkpt lat="44.14477" lon="4.29083">
        <ele>412</ele>
        <time>2021-11-06T15:30:37Z</time>
      </trkpt>
      <trkpt lat="44.14512" lon="4.29076">
        <ele>411</ele>
        <time>2021-11-06T15:30:43Z</time>
      </trkpt>
      <trkpt lat="44.14541" lon="4.29083">
        <ele>410</ele>
        <time>2021-11-06T15:30:48Z</time>
      </trkpt>
      <trkpt lat="44.14576" lon="4.29083">
        <ele>408</ele>
        <time>2021-11-06T15:30:55Z</time>
      </trkpt>
      <trkpt lat="44.14594" lon="4.29087">
        <ele>407</ele>
        <time>2021-11-06T15:30:58Z</time>
      </trkpt>
      <trkpt lat="44.14643" lon="4.29113">
        <ele>403</ele>
        <time>2021-11-06T15:31:07Z</time>
      </trkpt>
      <trkpt lat="44.14651" lon="4.29115">
        <ele>403</ele>
        <time>2021-11-06T15:31:09Z</time>
      </trkpt>
      <trkpt lat="44.1467" lon="4.2911">
        <ele>402</ele>
        <time>2021-11-06T15:31:12Z</time>
      </trkpt>
      <trkpt lat="44.14689" lon="4.29101">
        <ele>400</ele>
        <time>2021-11-06T15:31:16Z</time>
      </trkpt>
      <trkpt lat="44.14713" lon="4.29096">
        <ele>398</ele>
        <time>2021-11-06T15:31:20Z</time>
      </trkpt>
      <trkpt lat="44.14726" lon="4.29097">
        <ele>397</ele>
        <time>2021-11-06T15:31:22Z</time>
      </trkpt>
      <trkpt lat="44.14766" lon="4.2911">
        <ele>391</ele>
        <time>2021-11-06T15:31:30Z</time>
      </trkpt>
      <trkpt lat="44.14865" lon="4.29105">
        <ele>382</ele>
        <time>2021-11-06T15:31:47Z</time>
      </trkpt>
      <trkpt lat="44.14954" lon="4.29094">
        <ele>373</ele>
        <time>2021-11-06T15:32:03Z</time>
      </trkpt>
      <trkpt lat="44.14962" lon="4.29095">
        <ele>372</ele>
        <time>2021-11-06T15:32:05Z</time>
      </trkpt>
      <trkpt lat="44.14987" lon="4.29103">
        <ele>369</ele>
        <time>2021-11-06T15:32:09Z</time>
      </trkpt>
      <trkpt lat="44.1503" lon="4.29114">
        <ele>362</ele>
        <time>2021-11-06T15:32:17Z</time>
      </trkpt>
      <trkpt lat="44.15042" lon="4.29121">
        <ele>360</ele>
        <time>2021-11-06T15:32:19Z</time>
      </trkpt>
      <trkpt lat="44.15074" lon="4.29151">
        <ele>357</ele>
        <time>2021-11-06T15:32:26Z</time>
      </trkpt>
      <trkpt lat="44.1509" lon="4.2916">
        <ele>357</ele>
        <time>2021-11-06T15:32:29Z</time>
      </trkpt>
      <trkpt lat="44.15141" lon="4.29181">
        <ele>350</ele>
        <time>2021-11-06T15:32:39Z</time>
      </trkpt>
      <trkpt lat="44.15154" lon="4.29182">
        <ele>348</ele>
        <time>2021-11-06T15:32:41Z</time>
      </trkpt>
      <trkpt lat="44.15173" lon="4.29176">
        <ele>347</ele>
        <time>2021-11-06T15:32:44Z</time>
      </trkpt>
      <trkpt lat="44.15237" lon="4.2913">
        <ele>339</ele>
        <time>2021-11-06T15:32:57Z</time>
      </trkpt>
      <trkpt lat="44.15299" lon="4.29072">
        <ele>332</ele>
        <time>2021-11-06T15:33:10Z</time>
      </trkpt>
      <trkpt lat="44.15316" lon="4.29058">
        <ele>330</ele>
        <time>2021-11-06T15:33:14Z</time>
      </trkpt>
      <trkpt lat="44.15326" lon="4.29054">
        <ele>330</ele>
        <time>2021-11-06T15:33:16Z</time>
      </trkpt>
      <trkpt lat="44.15348" lon="4.29052">
        <ele>328</ele>
        <time>2021-11-06T15:33:20Z</time>
      </trkpt>
      <trkpt lat="44.15358" lon="4.29048">
        <ele>328</ele>
        <time>2021-11-06T15:33:22Z</time>
      </trkpt>
      <trkpt lat="44.15374" lon="4.29038">
        <ele>326</ele>
        <time>2021-11-06T15:33:25Z</time>
      </trkpt>
      <trkpt lat="44.15386" lon="4.29034">
        <ele>326</ele>
        <time>2021-11-06T15:33:27Z</time>
      </trkpt>
      <trkpt lat="44.15398" lon="4.29035">
        <ele>325</ele>
        <time>2021-11-06T15:33:29Z</time>
      </trkpt>
      <trkpt lat="44.15414" lon="4.29042">
        <ele>325</ele>
        <time>2021-11-06T15:33:32Z</time>
      </trkpt>
      <trkpt lat="44.15435" lon="4.29055">
        <ele>324</ele>
        <time>2021-11-06T15:33:36Z</time>
      </trkpt>
      <trkpt lat="44.15453" lon="4.29063">
        <ele>322</ele>
        <time>2021-11-06T15:33:40Z</time>
      </trkpt>
      <trkpt lat="44.15488" lon="4.29063">
        <ele>319</ele>
        <time>2021-11-06T15:33:46Z</time>
      </trkpt>
      <trkpt lat="44.15539" lon="4.2905">
        <ele>316</ele>
        <time>2021-11-06T15:33:55Z</time>
      </trkpt>
      <trkpt lat="44.15561" lon="4.29048">
        <ele>315</ele>
        <time>2021-11-06T15:33:59Z</time>
      </trkpt>
      <trkpt lat="44.15581" lon="4.29042">
        <ele>315</ele>
        <time>2021-11-06T15:34:03Z</time>
      </trkpt>
      <trkpt lat="44.15608" lon="4.29027">
        <ele>314</ele>
        <time>2021-11-06T15:34:08Z</time>
      </trkpt>
      <trkpt lat="44.1564" lon="4.29014">
        <ele>313</ele>
        <time>2021-11-06T15:34:14Z</time>
      </trkpt>
      <trkpt lat="44.15687" lon="4.29001">
        <ele>313</ele>
        <time>2021-11-06T15:34:22Z</time>
      </trkpt>
      <trkpt lat="44.15748" lon="4.28998">
        <ele>312</ele>
        <time>2021-11-06T15:34:33Z</time>
      </trkpt>
      <trkpt lat="44.15762" lon="4.28999">
        <ele>312</ele>
        <time>2021-11-06T15:34:36Z</time>
      </trkpt>
      <trkpt lat="44.15786" lon="4.29006">
        <ele>310</ele>
        <time>2021-11-06T15:34:40Z</time>
      </trkpt>
      <trkpt lat="44.15823" lon="4.29025">
        <ele>308</ele>
        <time>2021-11-06T15:34:47Z</time>
      </trkpt>
      <trkpt lat="44.15832" lon="4.29027">
        <ele>308</ele>
        <time>2021-11-06T15:34:49Z</time>
      </trkpt>
      <trkpt lat="44.15845" lon="4.29025">
        <ele>308</ele>
        <time>2021-11-06T15:34:51Z</time>
      </trkpt>
      <trkpt lat="44.15894" lon="4.29003">
        <ele>310</ele>
        <time>2021-11-06T15:35:00Z</time>
      </trkpt>
      <trkpt lat="44.15937" lon="4.28969">
        <ele>309</ele>
        <time>2021-11-06T15:35:09Z</time>
      </trkpt>
      <trkpt lat="44.15956" lon="4.28961">
        <ele>308</ele>
        <time>2021-11-06T15:35:12Z</time>
      </trkpt>
      <trkpt lat="44.15956" lon="4.28972">
        <ele>308</ele>
        <time>2021-11-06T15:35:14Z</time>
      </trkpt>
      <trkpt lat="44.15963" lon="4.29006">
        <ele>308</ele>
        <time>2021-11-06T15:35:18Z</time>
      </trkpt>
      <trkpt lat="44.15965" lon="4.29032">
        <ele>306</ele>
        <time>2021-11-06T15:35:22Z</time>
      </trkpt>
      <trkpt lat="44.15976" lon="4.29091">
        <ele>302</ele>
        <time>2021-11-06T15:35:29Z</time>
      </trkpt>
      <trkpt lat="44.1598" lon="4.29136">
        <ele>299</ele>
        <time>2021-11-06T15:35:35Z</time>
      </trkpt>
      <trkpt lat="44.1597" lon="4.29198">
        <ele>295</ele>
        <time>2021-11-06T15:35:43Z</time>
      </trkpt>
      <trkpt lat="44.15962" lon="4.29297">
        <ele>289</ele>
        <time>2021-11-06T15:35:56Z</time>
      </trkpt>
      <trkpt lat="44.15962" lon="4.29316">
        <ele>288</ele>
        <time>2021-11-06T15:35:58Z</time>
      </trkpt>
      <trkpt lat="44.15966" lon="4.29333">
        <ele>286</ele>
        <time>2021-11-06T15:36:01Z</time>
      </trkpt>
      <trkpt lat="44.15964" lon="4.29349">
        <ele>286</ele>
        <time>2021-11-06T15:36:03Z</time>
      </trkpt>
      <trkpt lat="44.15918" lon="4.29416">
        <ele>291</ele>
        <time>2021-11-06T15:36:15Z</time>
      </trkpt>
      <trkpt lat="44.15889" lon="4.29479">
        <ele>292</ele>
        <time>2021-11-06T15:36:24Z</time>
      </trkpt>
      <trkpt lat="44.15857" lon="4.29554">
        <ele>293</ele>
        <time>2021-11-06T15:36:35Z</time>
      </trkpt>
      <trkpt lat="44.15849" lon="4.29577">
        <ele>292</ele>
        <time>2021-11-06T15:36:39Z</time>
      </trkpt>
      <trkpt lat="44.1584" lon="4.2963">
        <ele>291</ele>
        <time>2021-11-06T15:36:46Z</time>
      </trkpt>
      <trkpt lat="44.15832" lon="4.29662">
        <ele>290</ele>
        <time>2021-11-06T15:36:50Z</time>
      </trkpt>
      <trkpt lat="44.15824" lon="4.29678">
        <ele>291</ele>
        <time>2021-11-06T15:36:52Z</time>
      </trkpt>
      <trkpt lat="44.15817" lon="4.29686">
        <ele>291</ele>
        <time>2021-11-06T15:36:54Z</time>
      </trkpt>
      <trkpt lat="44.15774" lon="4.29719">
        <ele>293</ele>
        <time>2021-11-06T15:37:03Z</time>
      </trkpt>
      <trkpt lat="44.15757" lon="4.29741">
        <ele>293</ele>
        <time>2021-11-06T15:37:07Z</time>
      </trkpt>
      <trkpt lat="44.1573" lon="4.298">
        <ele>295</ele>
        <time>2021-11-06T15:37:16Z</time>
      </trkpt>
      <trkpt lat="44.15637" lon="4.29962">
        <ele>303</ele>
        <time>2021-11-06T15:37:42Z</time>
      </trkpt>
      <trkpt lat="44.15564" lon="4.30083">
        <ele>312</ele>
        <time>2021-11-06T15:38:02Z</time>
      </trkpt>
      <trkpt lat="44.15551" lon="4.30136">
        <ele>314</ele>
        <time>2021-11-06T15:38:10Z</time>
      </trkpt>
      <trkpt lat="44.15534" lon="4.30185">
        <ele>315</ele>
        <time>2021-11-06T15:38:16Z</time>
      </trkpt>
      <trkpt lat="44.1551" lon="4.3022">
        <ele>316</ele>
        <time>2021-11-06T15:38:23Z</time>
      </trkpt>
      <trkpt lat="44.15477" lon="4.30278">
        <ele>317</ele>
        <time>2021-11-06T15:38:32Z</time>
      </trkpt>
      <trkpt lat="44.15442" lon="4.30327">
        <ele>320</ele>
        <time>2021-11-06T15:38:41Z</time>
      </trkpt>
      <trkpt lat="44.15388" lon="4.3041">
        <ele>325</ele>
        <time>2021-11-06T15:38:55Z</time>
      </trkpt>
      <trkpt lat="44.15361" lon="4.30463">
        <ele>327</ele>
        <time>2021-11-06T15:39:04Z</time>
      </trkpt>
      <trkpt lat="44.15325" lon="4.30611">
        <ele>332</ele>
        <time>2021-11-06T15:39:23Z</time>
      </trkpt>
      <trkpt lat="44.15312" lon="4.30691">
        <ele>336</ele>
        <time>2021-11-06T15:39:34Z</time>
      </trkpt>
      <trkpt lat="44.15315" lon="4.30719">
        <ele>337</ele>
        <time>2021-11-06T15:39:38Z</time>
      </trkpt>
      <trkpt lat="44.15302" lon="4.30773">
        <ele>339</ele>
        <time>2021-11-06T15:39:45Z</time>
      </trkpt>
      <trkpt lat="44.15277" lon="4.30817">
        <ele>341</ele>
        <time>2021-11-06T15:39:52Z</time>
      </trkpt>
      <trkpt lat="44.15254" lon="4.30849">
        <ele>342</ele>
        <time>2021-11-06T15:39:58Z</time>
      </trkpt>
      <trkpt lat="44.15221" lon="4.30924">
        <ele>343</ele>
        <time>2021-11-06T15:40:09Z</time>
      </trkpt>
      <trkpt lat="44.15197" lon="4.30962">
        <ele>343</ele>
        <time>2021-11-06T15:40:15Z</time>
      </trkpt>
      <trkpt lat="44.15179" lon="4.31003">
        <ele>343</ele>
        <time>2021-11-06T15:40:22Z</time>
      </trkpt>
      <trkpt lat="44.15153" lon="4.31052">
        <ele>341</ele>
        <time>2021-11-06T15:40:29Z</time>
      </trkpt>
      <trkpt lat="44.15248" lon="4.31098">
        <ele>338</ele>
        <time>2021-11-06T15:40:47Z</time>
      </trkpt>
      <trkpt lat="44.15264" lon="4.31102">
        <ele>338</ele>
        <time>2021-11-06T15:40:50Z</time>
      </trkpt>
      <trkpt lat="44.15352" lon="4.31095">
        <ele>339</ele>
        <time>2021-11-06T15:41:06Z</time>
      </trkpt>
      <trkpt lat="44.15371" lon="4.31105">
        <ele>338</ele>
        <time>2021-11-06T15:41:09Z</time>
      </trkpt>
      <trkpt lat="44.15441" lon="4.31153">
        <ele>334</ele>
        <time>2021-11-06T15:41:23Z</time>
      </trkpt>
      <trkpt lat="44.15463" lon="4.31174">
        <ele>333</ele>
        <time>2021-11-06T15:41:28Z</time>
      </trkpt>
      <trkpt lat="44.15478" lon="4.31248">
        <ele>333</ele>
        <time>2021-11-06T15:41:38Z</time>
      </trkpt>
      <trkpt lat="44.15493" lon="4.31271">
        <ele>330</ele>
        <time>2021-11-06T15:41:42Z</time>
      </trkpt>
      <trkpt lat="44.15579" lon="4.3132">
        <ele>330</ele>
        <time>2021-11-06T15:41:58Z</time>
      </trkpt>
      <trkpt lat="44.15621" lon="4.31351">
        <ele>328</ele>
        <time>2021-11-06T15:42:07Z</time>
      </trkpt>
      <trkpt lat="44.15646" lon="4.31385">
        <ele>328</ele>
        <time>2021-11-06T15:42:13Z</time>
      </trkpt>
      <trkpt lat="44.15687" lon="4.31478">
        <ele>328</ele>
        <time>2021-11-06T15:42:27Z</time>
      </trkpt>
      <trkpt lat="44.15703" lon="4.315">
        <ele>329</ele>
        <time>2021-11-06T15:42:31Z</time>
      </trkpt>
      <trkpt lat="44.15721" lon="4.31513">
        <ele>330</ele>
        <time>2021-11-06T15:42:35Z</time>
      </trkpt>
      <trkpt lat="44.1578" lon="4.31526">
        <ele>332</ele>
        <time>2021-11-06T15:42:45Z</time>
      </trkpt>
      <trkpt lat="44.15816" lon="4.31538">
        <ele>332</ele>
        <time>2021-11-06T15:42:52Z</time>
      </trkpt>
      <trkpt lat="44.15888" lon="4.31587">
        <ele>334</ele>
        <time>2021-11-06T15:43:06Z</time>
      </trkpt>
      <trkpt lat="44.15912" lon="4.31587">
        <ele>334</ele>
        <time>2021-11-06T15:43:10Z</time>
      </trkpt>
      <trkpt lat="44.16065" lon="4.31515">
        <ele>339</ele>
        <time>2021-11-06T15:43:39Z</time>
      </trkpt>
      <trkpt lat="44.16077" lon="4.31506">
        <ele>339</ele>
        <time>2021-11-06T15:43:42Z</time>
      </trkpt>
      <trkpt lat="44.16087" lon="4.31486">
        <ele>340</ele>
        <time>2021-11-06T15:43:45Z</time>
      </trkpt>
      <trkpt lat="44.16094" lon="4.31462">
        <ele>340</ele>
        <time>2021-11-06T15:43:48Z</time>
      </trkpt>
      <trkpt lat="44.16121" lon="4.3139">
        <ele>338</ele>
        <time>2021-11-06T15:43:58Z</time>
      </trkpt>
      <trkpt lat="44.16194" lon="4.31347">
        <ele>336</ele>
        <time>2021-11-06T15:44:12Z</time>
      </trkpt>
      <trkpt lat="44.16275" lon="4.31347">
        <ele>335</ele>
        <time>2021-11-06T15:44:27Z</time>
      </trkpt>
      <trkpt lat="44.16322" lon="4.31335">
        <ele>336</ele>
        <time>2021-11-06T15:44:35Z</time>
      </trkpt>
      <trkpt lat="44.16353" lon="4.31249">
        <ele>332</ele>
        <time>2021-11-06T15:44:48Z</time>
      </trkpt>
      <trkpt lat="44.16394" lon="4.31306">
        <ele>335</ele>
        <time>2021-11-06T15:44:58Z</time>
      </trkpt>
      <trkpt lat="44.16401" lon="4.3133">
        <ele>337</ele>
        <time>2021-11-06T15:45:01Z</time>
      </trkpt>
      <trkpt lat="44.16403" lon="4.31344">
        <ele>338</ele>
        <time>2021-11-06T15:45:03Z</time>
      </trkpt>
      <trkpt lat="44.16411" lon="4.3148">
        <ele>344</ele>
        <time>2021-11-06T15:45:20Z</time>
      </trkpt>
      <trkpt lat="44.16413" lon="4.31496">
        <ele>344</ele>
        <time>2021-11-06T15:45:23Z</time>
      </trkpt>
      <trkpt lat="44.16416" lon="4.31506">
        <ele>344</ele>
        <time>2021-11-06T15:45:24Z</time>
      </trkpt>
      <trkpt lat="44.16422" lon="4.31517">
        <ele>345</ele>
        <time>2021-11-06T15:45:26Z</time>
      </trkpt>
      <trkpt lat="44.16442" lon="4.31541">
        <ele>345</ele>
        <time>2021-11-06T15:45:30Z</time>
      </trkpt>
      <trkpt lat="44.165" lon="4.31595">
        <ele>345</ele>
        <time>2021-11-06T15:45:43Z</time>
      </trkpt>
      <trkpt lat="44.16541" lon="4.31618">
        <ele>345</ele>
        <time>2021-11-06T15:45:51Z</time>
      </trkpt>
      <trkpt lat="44.16669" lon="4.31679">
        <ele>345</ele>
        <time>2021-11-06T15:46:15Z</time>
      </trkpt>
      <trkpt lat="44.16691" lon="4.31693">
        <ele>345</ele>
        <time>2021-11-06T15:46:19Z</time>
      </trkpt>
      <trkpt lat="44.16734" lon="4.31726">
        <ele>345</ele>
        <time>2021-11-06T15:46:28Z</time>
      </trkpt>
      <trkpt lat="44.1675" lon="4.31746">
        <ele>345</ele>
        <time>2021-11-06T15:46:32Z</time>
      </trkpt>
      <trkpt lat="44.16759" lon="4.3177">
        <ele>345</ele>
        <time>2021-11-06T15:46:35Z</time>
      </trkpt>
      <trkpt lat="44.16841" lon="4.323">
        <ele>345</ele>
        <time>2021-11-06T15:47:44Z</time>
      </trkpt>
      <trkpt lat="44.16845" lon="4.32305">
        <ele>344</ele>
        <time>2021-11-06T15:47:45Z</time>
      </trkpt>
      <trkpt lat="44.16891" lon="4.32124">
        <ele>344</ele>
        <time>2021-11-06T15:48:10Z</time>
      </trkpt>
      <trkpt lat="44.16943" lon="4.31958">
        <ele>340</ele>
        <time>2021-11-06T15:48:33Z</time>
      </trkpt>
      <trkpt lat="44.17044" lon="4.32044">
        <ele>334</ele>
        <time>2021-11-06T15:48:54Z</time>
      </trkpt>
      <trkpt lat="44.1708" lon="4.32069">
        <ele>333</ele>
        <time>2021-11-06T15:49:01Z</time>
      </trkpt>
      <trkpt lat="44.17233" lon="4.32162">
        <ele>332</ele>
        <time>2021-11-06T15:49:31Z</time>
      </trkpt>
      <trkpt lat="44.1728" lon="4.32194">
        <ele>332</ele>
        <time>2021-11-06T15:49:40Z</time>
      </trkpt>
      <trkpt lat="44.17324" lon="4.32228">
        <ele>331</ele>
        <time>2021-11-06T15:49:49Z</time>
      </trkpt>
      <trkpt lat="44.17405" lon="4.32286">
        <ele>331</ele>
        <time>2021-11-06T15:50:05Z</time>
      </trkpt>
      <trkpt lat="44.17581" lon="4.32396">
        <ele>322</ele>
        <time>2021-11-06T15:50:40Z</time>
      </trkpt>
      <trkpt lat="44.17683" lon="4.32457">
        <ele>317</ele>
        <time>2021-11-06T15:50:59Z</time>
      </trkpt>
      <trkpt lat="44.17734" lon="4.32484">
        <ele>314</ele>
        <time>2021-11-06T15:51:09Z</time>
      </trkpt>
      <trkpt lat="44.17913" lon="4.32609">
        <ele>306</ele>
        <time>2021-11-06T15:51:45Z</time>
      </trkpt>
      <trkpt lat="44.17931" lon="4.32618">
        <ele>306</ele>
        <time>2021-11-06T15:51:48Z</time>
      </trkpt>
      <trkpt lat="44.18094" lon="4.32676">
        <ele>298</ele>
        <time>2021-11-06T15:52:18Z</time>
      </trkpt>
      <trkpt lat="44.18108" lon="4.32682">
        <ele>298</ele>
        <time>2021-11-06T15:52:21Z</time>
      </trkpt>
      <trkpt lat="44.1819" lon="4.3274">
        <ele>298</ele>
        <time>2021-11-06T15:52:37Z</time>
      </trkpt>
      <trkpt lat="44.18204" lon="4.32754">
        <ele>298</ele>
        <time>2021-11-06T15:52:40Z</time>
      </trkpt>
      <trkpt lat="44.18235" lon="4.32805">
        <ele>297</ele>
        <time>2021-11-06T15:52:48Z</time>
      </trkpt>
      <trkpt lat="44.18264" lon="4.32833">
        <ele>296</ele>
        <time>2021-11-06T15:52:55Z</time>
      </trkpt>
      <trkpt lat="44.18331" lon="4.32867">
        <ele>294</ele>
        <time>2021-11-06T15:53:07Z</time>
      </trkpt>
      <trkpt lat="44.18412" lon="4.32914">
        <ele>293</ele>
        <time>2021-11-06T15:53:23Z</time>
      </trkpt>
      <trkpt lat="44.18427" lon="4.32927">
        <ele>293</ele>
        <time>2021-11-06T15:53:26Z</time>
      </trkpt>
      <trkpt lat="44.18444" lon="4.32926">
        <ele>294</ele>
        <time>2021-11-06T15:53:29Z</time>
      </trkpt>
      <trkpt lat="44.18465" lon="4.32907">
        <ele>295</ele>
        <time>2021-11-06T15:53:34Z</time>
      </trkpt>
      <trkpt lat="44.18493" lon="4.32841">
        <ele>295</ele>
        <time>2021-11-06T15:53:43Z</time>
      </trkpt>
      <trkpt lat="44.18533" lon="4.32777">
        <ele>298</ele>
        <time>2021-11-06T15:53:54Z</time>
      </trkpt>
      <trkpt lat="44.18568" lon="4.32705">
        <ele>300</ele>
        <time>2021-11-06T15:54:05Z</time>
      </trkpt>
      <trkpt lat="44.18598" lon="4.32638">
        <ele>302</ele>
        <time>2021-11-06T15:54:15Z</time>
      </trkpt>
      <trkpt lat="44.1861" lon="4.32592">
        <ele>303</ele>
        <time>2021-11-06T15:54:22Z</time>
      </trkpt>
      <trkpt lat="44.18618" lon="4.32588">
        <ele>303</ele>
        <time>2021-11-06T15:54:23Z</time>
      </trkpt>
      <trkpt lat="44.18678" lon="4.32597">
        <ele>305</ele>
        <time>2021-11-06T15:54:34Z</time>
      </trkpt>
      <trkpt lat="44.18693" lon="4.32596">
        <ele>307</ele>
        <time>2021-11-06T15:54:37Z</time>
      </trkpt>
      <trkpt lat="44.18698" lon="4.32591">
        <ele>307</ele>
        <time>2021-11-06T15:54:38Z</time>
      </trkpt>
      <trkpt lat="44.18728" lon="4.32546">
        <ele>308</ele>
        <time>2021-11-06T15:54:46Z</time>
      </trkpt>
      <trkpt lat="44.18785" lon="4.32493">
        <ele>312</ele>
        <time>2021-11-06T15:54:58Z</time>
      </trkpt>
      <trkpt lat="44.18831" lon="4.32441">
        <ele>315</ele>
        <time>2021-11-06T15:55:08Z</time>
      </trkpt>
      <trkpt lat="44.18857" lon="4.32415">
        <ele>316</ele>
        <time>2021-11-06T15:55:14Z</time>
      </trkpt>
      <trkpt lat="44.18916" lon="4.32362">
        <ele>319</ele>
        <time>2021-11-06T15:55:26Z</time>
      </trkpt>
      <trkpt lat="44.18962" lon="4.32308">
        <ele>322</ele>
        <time>2021-11-06T15:55:37Z</time>
      </trkpt>
      <trkpt lat="44.19019" lon="4.32252">
        <ele>325</ele>
        <time>2021-11-06T15:55:50Z</time>
      </trkpt>
      <trkpt lat="44.19049" lon="4.32227">
        <ele>327</ele>
        <time>2021-11-06T15:55:56Z</time>
      </trkpt>
      <trkpt lat="44.19063" lon="4.32219">
        <ele>327</ele>
        <time>2021-11-06T15:55:59Z</time>
      </trkpt>
      <trkpt lat="44.19063" lon="4.32233">
        <ele>327</ele>
        <time>2021-11-06T15:56:00Z</time>
      </trkpt>
      <trkpt lat="44.19052" lon="4.32251">
        <ele>326</ele>
        <time>2021-11-06T15:56:03Z</time>
      </trkpt>
      <trkpt lat="44.19039" lon="4.32321">
        <ele>327</ele>
        <time>2021-11-06T15:56:13Z</time>
      </trkpt>
      <trkpt lat="44.19037" lon="4.32345">
        <ele>327</ele>
        <time>2021-11-06T15:56:16Z</time>
      </trkpt>
      <trkpt lat="44.19038" lon="4.32497">
        <ele>326</ele>
        <time>2021-11-06T15:56:35Z</time>
      </trkpt>
      <trkpt lat="44.19026" lon="4.32598">
        <ele>323</ele>
        <time>2021-11-06T15:56:48Z</time>
      </trkpt>
      <trkpt lat="44.19025" lon="4.3262">
        <ele>323</ele>
        <time>2021-11-06T15:56:51Z</time>
      </trkpt>
      <trkpt lat="44.19026" lon="4.32641">
        <ele>322</ele>
        <time>2021-11-06T15:56:54Z</time>
      </trkpt>
      <trkpt lat="44.19015" lon="4.32672">
        <ele>322</ele>
        <time>2021-11-06T15:56:58Z</time>
      </trkpt>
      <trkpt lat="44.19002" lon="4.32766">
        <ele>320</ele>
        <time>2021-11-06T15:57:10Z</time>
      </trkpt>
      <trkpt lat="44.19004" lon="4.32795">
        <ele>319</ele>
        <time>2021-11-06T15:57:14Z</time>
      </trkpt>
      <trkpt lat="44.19007" lon="4.32814">
        <ele>319</ele>
        <time>2021-11-06T15:57:16Z</time>
      </trkpt>
      <trkpt lat="44.19024" lon="4.32838">
        <ele>317</ele>
        <time>2021-11-06T15:57:21Z</time>
      </trkpt>
      <trkpt lat="44.19037" lon="4.32894">
        <ele>316</ele>
        <time>2021-11-06T15:57:28Z</time>
      </trkpt>
      <trkpt lat="44.19078" lon="4.3303">
        <ele>313</ele>
        <time>2021-11-06T15:57:47Z</time>
      </trkpt>
      <trkpt lat="44.19083" lon="4.3309">
        <ele>312</ele>
        <time>2021-11-06T15:57:55Z</time>
      </trkpt>
      <trkpt lat="44.19096" lon="4.33173">
        <ele>311</ele>
        <time>2021-11-06T15:58:06Z</time>
      </trkpt>
      <trkpt lat="44.19107" lon="4.33184">
        <ele>310</ele>
        <time>2021-11-06T15:58:08Z</time>
      </trkpt>
      <trkpt lat="44.19192" lon="4.33208">
        <ele>309</ele>
        <time>2021-11-06T15:58:23Z</time>
      </trkpt>
      <trkpt lat="44.19229" lon="4.33222">
        <ele>309</ele>
        <time>2021-11-06T15:58:30Z</time>
      </trkpt>
      <trkpt lat="44.19333" lon="4.33246">
        <ele>308</ele>
        <time>2021-11-06T15:58:49Z</time>
      </trkpt>
      <trkpt lat="44.19444" lon="4.33283">
        <ele>306</ele>
        <time>2021-11-06T15:59:09Z</time>
      </trkpt>
      <trkpt lat="44.19493" lon="4.33295">
        <ele>305</ele>
        <time>2021-11-06T15:59:18Z</time>
      </trkpt>
      <trkpt lat="44.19512" lon="4.33302">
        <ele>304</ele>
        <time>2021-11-06T15:59:22Z</time>
      </trkpt>
      <trkpt lat="44.19582" lon="4.33349">
        <ele>303</ele>
        <time>2021-11-06T15:59:35Z</time>
      </trkpt>
      <trkpt lat="44.19614" lon="4.33377">
        <ele>303</ele>
        <time>2021-11-06T15:59:42Z</time>
      </trkpt>
      <trkpt lat="44.19673" lon="4.33418">
        <ele>300</ele>
        <time>2021-11-06T15:59:54Z</time>
      </trkpt>
      <trkpt lat="44.19725" lon="4.33446">
        <ele>301</ele>
        <time>2021-11-06T16:00:04Z</time>
      </trkpt>
      <trkpt lat="44.19763" lon="4.33459">
        <ele>301</ele>
        <time>2021-11-06T16:00:11Z</time>
      </trkpt>
      <trkpt lat="44.19804" lon="4.33477">
        <ele>301</ele>
        <time>2021-11-06T16:00:18Z</time>
      </trkpt>
      <trkpt lat="44.19876" lon="4.33504">
        <ele>300</ele>
        <time>2021-11-06T16:00:32Z</time>
      </trkpt>
      <trkpt lat="44.19991" lon="4.33527">
        <ele>302</ele>
        <time>2021-11-06T16:00:52Z</time>
      </trkpt>
      <trkpt lat="44.20026" lon="4.33527">
        <ele>303</ele>
        <time>2021-11-06T16:00:59Z</time>
      </trkpt>
      <trkpt lat="44.20064" lon="4.33539">
        <ele>303</ele>
        <time>2021-11-06T16:01:06Z</time>
      </trkpt>
      <trkpt lat="44.20163" lon="4.33558">
        <ele>305</ele>
        <time>2021-11-06T16:01:23Z</time>
      </trkpt>
      <trkpt lat="44.20215" lon="4.3356">
        <ele>306</ele>
        <time>2021-11-06T16:01:33Z</time>
      </trkpt>
      <trkpt lat="44.20286" lon="4.33558">
        <ele>307</ele>
        <time>2021-11-06T16:01:45Z</time>
      </trkpt>
      <trkpt lat="44.20321" lon="4.33563">
        <ele>307</ele>
        <time>2021-11-06T16:01:51Z</time>
      </trkpt>
      <trkpt lat="44.20414" lon="4.33581">
        <ele>307</ele>
        <time>2021-11-06T16:02:08Z</time>
      </trkpt>
      <trkpt lat="44.20428" lon="4.33581">
        <ele>307</ele>
        <time>2021-11-06T16:02:11Z</time>
      </trkpt>
      <trkpt lat="44.2045" lon="4.33575">
        <ele>308</ele>
        <time>2021-11-06T16:02:15Z</time>
      </trkpt>
      <trkpt lat="44.20459" lon="4.33575">
        <ele>308</ele>
        <time>2021-11-06T16:02:16Z</time>
      </trkpt>
      <trkpt lat="44.20495" lon="4.33594">
        <ele>308</ele>
        <time>2021-11-06T16:02:23Z</time>
      </trkpt>
      <trkpt lat="44.20508" lon="4.33598">
        <ele>308</ele>
        <time>2021-11-06T16:02:25Z</time>
      </trkpt>
      <trkpt lat="44.20554" lon="4.33602">
        <ele>309</ele>
        <time>2021-11-06T16:02:34Z</time>
      </trkpt>
      <trkpt lat="44.20597" lon="4.33611">
        <ele>310</ele>
        <time>2021-11-06T16:02:41Z</time>
      </trkpt>
      <trkpt lat="44.20621" lon="4.33618">
        <ele>310</ele>
        <time>2021-11-06T16:02:46Z</time>
      </trkpt>
      <trkpt lat="44.20635" lon="4.33625">
        <ele>309</ele>
        <time>2021-11-06T16:02:48Z</time>
      </trkpt>
      <trkpt lat="44.20645" lon="4.33633">
        <ele>309</ele>
        <time>2021-11-06T16:02:50Z</time>
      </trkpt>
      <trkpt lat="44.20666" lon="4.33656">
        <ele>308</ele>
        <time>2021-11-06T16:02:55Z</time>
      </trkpt>
      <trkpt lat="44.20836" lon="4.3381">
        <ele>302</ele>
        <time>2021-11-06T16:03:31Z</time>
      </trkpt>
      <trkpt lat="44.20854" lon="4.33829">
        <ele>303</ele>
        <time>2021-11-06T16:03:35Z</time>
      </trkpt>
      <trkpt lat="44.20885" lon="4.33887">
        <ele>304</ele>
        <time>2021-11-06T16:03:45Z</time>
      </trkpt>
      <trkpt lat="44.2091" lon="4.3392">
        <ele>305</ele>
        <time>2021-11-06T16:03:51Z</time>
      </trkpt>
      <trkpt lat="44.20973" lon="4.33971">
        <ele>309</ele>
        <time>2021-11-06T16:04:04Z</time>
      </trkpt>
      <trkpt lat="44.21" lon="4.33991">
        <ele>310</ele>
        <time>2021-11-06T16:04:09Z</time>
      </trkpt>
      <trkpt lat="44.21019" lon="4.34">
        <ele>311</ele>
        <time>2021-11-06T16:04:13Z</time>
      </trkpt>
      <trkpt lat="44.21064" lon="4.34005">
        <ele>312</ele>
        <time>2021-11-06T16:04:21Z</time>
      </trkpt>
      <trkpt lat="44.21076" lon="4.34008">
        <ele>313</ele>
        <time>2021-11-06T16:04:23Z</time>
      </trkpt>
      <trkpt lat="44.21091" lon="4.34021">
        <ele>314</ele>
        <time>2021-11-06T16:04:26Z</time>
      </trkpt>
      <trkpt lat="44.21109" lon="4.34027">
        <ele>314</ele>
        <time>2021-11-06T16:04:29Z</time>
      </trkpt>
      <trkpt lat="44.21136" lon="4.34027">
        <ele>314</ele>
        <time>2021-11-06T16:04:34Z</time>
      </trkpt>
      <trkpt lat="44.21348" lon="4.33997">
        <ele>310</ele>
        <time>2021-11-06T16:05:12Z</time>
      </trkpt>
      <trkpt lat="44.21465" lon="4.33998">
        <ele>312</ele>
        <time>2021-11-06T16:05:33Z</time>
      </trkpt>
      <trkpt lat="44.21519" lon="4.34006">
        <ele>313</ele>
        <time>2021-11-06T16:05:42Z</time>
      </trkpt>
      <trkpt lat="44.21552" lon="4.34019">
        <ele>314</ele>
        <time>2021-11-06T16:05:49Z</time>
      </trkpt>
      <trkpt lat="44.21576" lon="4.34031">
        <ele>314</ele>
        <time>2021-11-06T16:05:53Z</time>
      </trkpt>
      <trkpt lat="44.21604" lon="4.34049">
        <ele>315</ele>
        <time>2021-11-06T16:05:59Z</time>
      </trkpt>
      <trkpt lat="44.21637" lon="4.34074">
        <ele>316</ele>
        <time>2021-11-06T16:06:05Z</time>
      </trkpt>
      <trkpt lat="44.21678" lon="4.34118">
        <ele>319</ele>
        <time>2021-11-06T16:06:14Z</time>
      </trkpt>
      <trkpt lat="44.21905" lon="4.34453">
        <ele>322</ele>
        <time>2021-11-06T16:07:13Z</time>
      </trkpt>
      <trkpt lat="44.21961" lon="4.34507">
        <ele>319</ele>
        <time>2021-11-06T16:07:25Z</time>
      </trkpt>
      <trkpt lat="44.22225" lon="4.346">
        <ele>313</ele>
        <time>2021-11-06T16:08:14Z</time>
      </trkpt>
      <trkpt lat="44.2227" lon="4.34628">
        <ele>312</ele>
        <time>2021-11-06T16:08:23Z</time>
      </trkpt>
      <trkpt lat="44.22344" lon="4.34677">
        <ele>310</ele>
        <time>2021-11-06T16:08:37Z</time>
      </trkpt>
      <trkpt lat="44.22404" lon="4.34725">
        <ele>308</ele>
        <time>2021-11-06T16:08:49Z</time>
      </trkpt>
      <trkpt lat="44.22431" lon="4.34753">
        <ele>307</ele>
        <time>2021-11-06T16:08:55Z</time>
      </trkpt>
      <trkpt lat="44.22433" lon="4.34764">
        <ele>307</ele>
        <time>2021-11-06T16:08:57Z</time>
      </trkpt>
      <trkpt lat="44.22462" lon="4.34829">
        <ele>305</ele>
        <time>2021-11-06T16:09:07Z</time>
      </trkpt>
      <trkpt lat="44.22507" lon="4.34945">
        <ele>304</ele>
        <time>2021-11-06T16:09:23Z</time>
      </trkpt>
      <trkpt lat="44.22527" lon="4.35015">
        <ele>303</ele>
        <time>2021-11-06T16:09:33Z</time>
      </trkpt>
      <trkpt lat="44.22534" lon="4.35092">
        <ele>303</ele>
        <time>2021-11-06T16:09:43Z</time>
      </trkpt>
      <trkpt lat="44.22521" lon="4.35211">
        <ele>304</ele>
        <time>2021-11-06T16:09:58Z</time>
      </trkpt>
      <trkpt lat="44.22519" lon="4.35254">
        <ele>303</ele>
        <time>2021-11-06T16:10:04Z</time>
      </trkpt>
      <trkpt lat="44.22522" lon="4.35281">
        <ele>302</ele>
        <time>2021-11-06T16:10:07Z</time>
      </trkpt>
      <trkpt lat="44.22529" lon="4.35308">
        <ele>301</ele>
        <time>2021-11-06T16:10:11Z</time>
      </trkpt>
      <trkpt lat="44.22536" lon="4.35328">
        <ele>301</ele>
        <time>2021-11-06T16:10:14Z</time>
      </trkpt>
      <trkpt lat="44.22546" lon="4.35348">
        <ele>301</ele>
        <time>2021-11-06T16:10:17Z</time>
      </trkpt>
      <trkpt lat="44.22627" lon="4.35478">
        <ele>301</ele>
        <time>2021-11-06T16:10:39Z</time>
      </trkpt>
      <trkpt lat="44.22649" lon="4.35524">
        <ele>300</ele>
        <time>2021-11-06T16:10:46Z</time>
      </trkpt>
      <trkpt lat="44.22658" lon="4.35562">
        <ele>299</ele>
        <time>2021-11-06T16:10:51Z</time>
      </trkpt>
      <trkpt lat="44.22663" lon="4.35603">
        <ele>299</ele>
        <time>2021-11-06T16:10:56Z</time>
      </trkpt>
      <trkpt lat="44.22664" lon="4.35644">
        <ele>300</ele>
        <time>2021-11-06T16:11:02Z</time>
      </trkpt>
      <trkpt lat="44.22712" lon="4.36369">
        <ele>297</ele>
        <time>2021-11-06T16:12:34Z</time>
      </trkpt>
      <trkpt lat="44.22719" lon="4.36423">
        <ele>296</ele>
        <time>2021-11-06T16:12:41Z</time>
      </trkpt>
      <trkpt lat="44.22724" lon="4.3645">
        <ele>296</ele>
        <time>2021-11-06T16:12:45Z</time>
      </trkpt>
      <trkpt lat="44.22734" lon="4.36477">
        <ele>295</ele>
        <time>2021-11-06T16:12:49Z</time>
      </trkpt>
      <trkpt lat="44.22753" lon="4.36516">
        <ele>294</ele>
        <time>2021-11-06T16:12:55Z</time>
      </trkpt>
      <trkpt lat="44.22818" lon="4.36626">
        <ele>294</ele>
        <time>2021-11-06T16:13:13Z</time>
      </trkpt>
      <trkpt lat="44.22866" lon="4.367">
        <ele>296</ele>
        <time>2021-11-06T16:13:26Z</time>
      </trkpt>
      <trkpt lat="44.22971" lon="4.36713">
        <ele>296</ele>
        <time>2021-11-06T16:13:45Z</time>
      </trkpt>
      <trkpt lat="44.23005" lon="4.36734">
        <ele>295</ele>
        <time>2021-11-06T16:13:51Z</time>
      </trkpt>
      <trkpt lat="44.23125" lon="4.36855">
        <ele>297</ele>
        <time>2021-11-06T16:14:17Z</time>
      </trkpt>
      <trkpt lat="44.23143" lon="4.36878">
        <ele>297</ele>
        <time>2021-11-06T16:14:22Z</time>
      </trkpt>
      <trkpt lat="44.23289" lon="4.37147">
        <ele>299</ele>
        <time>2021-11-06T16:15:05Z</time>
      </trkpt>
      <trkpt lat="44.23321" lon="4.37199">
        <ele>300</ele>
        <time>2021-11-06T16:15:14Z</time>
      </trkpt>
      <trkpt lat="44.23335" lon="4.37216">
        <ele>300</ele>
        <time>2021-11-06T16:15:17Z</time>
      </trkpt>
      <trkpt lat="44.2336" lon="4.37236">
        <ele>300</ele>
        <time>2021-11-06T16:15:22Z</time>
      </trkpt>
      <trkpt lat="44.23401" lon="4.37256">
        <ele>300</ele>
        <time>2021-11-06T16:15:30Z</time>
      </trkpt>
      <trkpt lat="44.23464" lon="4.37282">
        <ele>300</ele>
        <time>2021-11-06T16:15:41Z</time>
      </trkpt>
      <trkpt lat="44.23484" lon="4.37296">
        <ele>300</ele>
        <time>2021-11-06T16:15:45Z</time>
      </trkpt>
      <trkpt lat="44.235" lon="4.37313">
        <ele>300</ele>
        <time>2021-11-06T16:15:49Z</time>
      </trkpt>
      <trkpt lat="44.23758" lon="4.37734">
        <ele>295</ele>
        <time>2021-11-06T16:17:00Z</time>
      </trkpt>
      <trkpt lat="44.23774" lon="4.37769">
        <ele>295</ele>
        <time>2021-11-06T16:17:05Z</time>
      </trkpt>
      <trkpt lat="44.23786" lon="4.37806">
        <ele>294</ele>
        <time>2021-11-06T16:17:10Z</time>
      </trkpt>
      <trkpt lat="44.23792" lon="4.37862">
        <ele>294</ele>
        <time>2021-11-06T16:17:17Z</time>
      </trkpt>
      <trkpt lat="44.23805" lon="4.38077">
        <ele>296</ele>
        <time>2021-11-06T16:17:45Z</time>
      </trkpt>
      <trkpt lat="44.23802" lon="4.38103">
        <ele>296</ele>
        <time>2021-11-06T16:17:48Z</time>
      </trkpt>
      <trkpt lat="44.23796" lon="4.38131">
        <ele>297</ele>
        <time>2021-11-06T16:17:52Z</time>
      </trkpt>
      <trkpt lat="44.23692" lon="4.38522">
        <ele>302</ele>
        <time>2021-11-06T16:18:45Z</time>
      </trkpt>
      <trkpt lat="44.23677" lon="4.3857">
        <ele>304</ele>
        <time>2021-11-06T16:18:52Z</time>
      </trkpt>
      <trkpt lat="44.23661" lon="4.38602">
        <ele>305</ele>
        <time>2021-11-06T16:18:57Z</time>
      </trkpt>
      <trkpt lat="44.23644" lon="4.38624">
        <ele>305</ele>
        <time>2021-11-06T16:19:01Z</time>
      </trkpt>
      <trkpt lat="44.23623" lon="4.38642">
        <ele>304</ele>
        <time>2021-11-06T16:19:05Z</time>
      </trkpt>
      <trkpt lat="44.23598" lon="4.38655">
        <ele>304</ele>
        <time>2021-11-06T16:19:10Z</time>
      </trkpt>
      <trkpt lat="44.23499" lon="4.38691">
        <ele>306</ele>
        <time>2021-11-06T16:19:28Z</time>
      </trkpt>
      <trkpt lat="44.2346" lon="4.38709">
        <ele>307</ele>
        <time>2021-11-06T16:19:35Z</time>
      </trkpt>
      <trkpt lat="44.23439" lon="4.38727">
        <ele>307</ele>
        <time>2021-11-06T16:19:40Z</time>
      </trkpt>
      <trkpt lat="44.23433" lon="4.38734">
        <ele>307</ele>
        <time>2021-11-06T16:19:41Z</time>
      </trkpt>
      <trkpt lat="44.23424" lon="4.38753">
        <ele>308</ele>
        <time>2021-11-06T16:19:44Z</time>
      </trkpt>
      <trkpt lat="44.23415" lon="4.38784">
        <ele>308</ele>
        <time>2021-11-06T16:19:48Z</time>
      </trkpt>
      <trkpt lat="44.23385" lon="4.38908">
        <ele>312</ele>
        <time>2021-11-06T16:20:05Z</time>
      </trkpt>
      <trkpt lat="44.2337" lon="4.38947">
        <ele>312</ele>
        <time>2021-11-06T16:20:11Z</time>
      </trkpt>
      <trkpt lat="44.23359" lon="4.38963">
        <ele>312</ele>
        <time>2021-11-06T16:20:14Z</time>
      </trkpt>
      <trkpt lat="44.23349" lon="4.3897">
        <ele>311</ele>
        <time>2021-11-06T16:20:16Z</time>
      </trkpt>
      <trkpt lat="44.23335" lon="4.38966">
        <ele>311</ele>
        <time>2021-11-06T16:20:18Z</time>
      </trkpt>
      <trkpt lat="44.23251" lon="4.38894">
        <ele>306</ele>
        <time>2021-11-06T16:20:36Z</time>
      </trkpt>
      <trkpt lat="44.23238" lon="4.38886">
        <ele>305</ele>
        <time>2021-11-06T16:20:38Z</time>
      </trkpt>
      <trkpt lat="44.23178" lon="4.38867">
        <ele>302</ele>
        <time>2021-11-06T16:20:49Z</time>
      </trkpt>
      <trkpt lat="44.23167" lon="4.38871">
        <ele>302</ele>
        <time>2021-11-06T16:20:51Z</time>
      </trkpt>
      <trkpt lat="44.23132" lon="4.38893">
        <ele>301</ele>
        <time>2021-11-06T16:20:58Z</time>
      </trkpt>
      <trkpt lat="44.23011" lon="4.39013">
        <ele>296</ele>
        <time>2021-11-06T16:21:24Z</time>
      </trkpt>
      <trkpt lat="44.23002" lon="4.39026">
        <ele>295</ele>
        <time>2021-11-06T16:21:27Z</time>
      </trkpt>
      <trkpt lat="44.22979" lon="4.39131">
        <ele>290</ele>
        <time>2021-11-06T16:21:41Z</time>
      </trkpt>
      <trkpt lat="44.2295" lon="4.39167">
        <ele>288</ele>
        <time>2021-11-06T16:21:48Z</time>
      </trkpt>
      <trkpt lat="44.22926" lon="4.39253">
        <ele>284</ele>
        <time>2021-11-06T16:21:59Z</time>
      </trkpt>
      <trkpt lat="44.22838" lon="4.39453">
        <ele>279</ele>
        <time>2021-11-06T16:22:29Z</time>
      </trkpt>
      <trkpt lat="44.22872" lon="4.39562">
        <ele>280</ele>
        <time>2021-11-06T16:22:44Z</time>
      </trkpt>
      <trkpt lat="44.22833" lon="4.39616">
        <ele>276</ele>
        <time>2021-11-06T16:22:54Z</time>
      </trkpt>
      <trkpt lat="44.22827" lon="4.3968">
        <ele>276</ele>
        <time>2021-11-06T16:23:02Z</time>
      </trkpt>
      <trkpt lat="44.22878" lon="4.39825">
        <ele>273</ele>
        <time>2021-11-06T16:23:23Z</time>
      </trkpt>
      <trkpt lat="44.22865" lon="4.39908">
        <ele>267</ele>
        <time>2021-11-06T16:23:34Z</time>
      </trkpt>
      <trkpt lat="44.22884" lon="4.39968">
        <ele>266</ele>
        <time>2021-11-06T16:23:42Z</time>
      </trkpt>
      <trkpt lat="44.22931" lon="4.40017">
        <ele>265</ele>
        <time>2021-11-06T16:23:53Z</time>
      </trkpt>
      <trkpt lat="44.2298" lon="4.40098">
        <ele>265</ele>
        <time>2021-11-06T16:24:06Z</time>
      </trkpt>
      <trkpt lat="44.2305" lon="4.40364">
        <ele>264</ele>
        <time>2021-11-06T16:24:42Z</time>
      </trkpt>
      <trkpt lat="44.23101" lon="4.40447">
        <ele>257</ele>
        <time>2021-11-06T16:24:56Z</time>
      </trkpt>
      <trkpt lat="44.23127" lon="4.40504">
        <ele>256</ele>
        <time>2021-11-06T16:25:05Z</time>
      </trkpt>
      <trkpt lat="44.23176" lon="4.4053">
        <ele>252</ele>
        <time>2021-11-06T16:25:14Z</time>
      </trkpt>
      <trkpt lat="44.23246" lon="4.40544">
        <ele>248</ele>
        <time>2021-11-06T16:25:27Z</time>
      </trkpt>
      <trkpt lat="44.23259" lon="4.40561">
        <ele>247</ele>
        <time>2021-11-06T16:25:30Z</time>
      </trkpt>
      <trkpt lat="44.2327" lon="4.40582">
        <ele>246</ele>
        <time>2021-11-06T16:25:33Z</time>
      </trkpt>
      <trkpt lat="44.23278" lon="4.40604">
        <ele>246</ele>
        <time>2021-11-06T16:25:36Z</time>
      </trkpt>
      <trkpt lat="44.23282" lon="4.40634">
        <ele>244</ele>
        <time>2021-11-06T16:25:40Z</time>
      </trkpt>
      <trkpt lat="44.23282" lon="4.40666">
        <ele>243</ele>
        <time>2021-11-06T16:25:44Z</time>
      </trkpt>
      <trkpt lat="44.23285" lon="4.40681">
        <ele>243</ele>
        <time>2021-11-06T16:25:46Z</time>
      </trkpt>
      <trkpt lat="44.23291" lon="4.4069">
        <ele>244</ele>
        <time>2021-11-06T16:25:48Z</time>
      </trkpt>
      <trkpt lat="44.23309" lon="4.40709">
        <ele>243</ele>
        <time>2021-11-06T16:25:52Z</time>
      </trkpt>
      <trkpt lat="44.23327" lon="4.4072">
        <ele>241</ele>
        <time>2021-11-06T16:25:55Z</time>
      </trkpt>
      <trkpt lat="44.23336" lon="4.40729">
        <ele>240</ele>
        <time>2021-11-06T16:25:57Z</time>
      </trkpt>
      <trkpt lat="44.23382" lon="4.40786">
        <ele>245</ele>
        <time>2021-11-06T16:26:08Z</time>
      </trkpt>
      <trkpt lat="44.23401" lon="4.40798">
        <ele>244</ele>
        <time>2021-11-06T16:26:12Z</time>
      </trkpt>
      <trkpt lat="44.2345" lon="4.40813">
        <ele>242</ele>
        <time>2021-11-06T16:26:21Z</time>
      </trkpt>
      <trkpt lat="44.23514" lon="4.40825">
        <ele>239</ele>
        <time>2021-11-06T16:26:32Z</time>
      </trkpt>
      <trkpt lat="44.2358" lon="4.40815">
        <ele>238</ele>
        <time>2021-11-06T16:26:44Z</time>
      </trkpt>
      <trkpt lat="44.23596" lon="4.40815">
        <ele>238</ele>
        <time>2021-11-06T16:26:47Z</time>
      </trkpt>
      <trkpt lat="44.23676" lon="4.40837">
        <ele>232</ele>
        <time>2021-11-06T16:27:02Z</time>
      </trkpt>
      <trkpt lat="44.23703" lon="4.4085">
        <ele>234</ele>
        <time>2021-11-06T16:27:07Z</time>
      </trkpt>
      <trkpt lat="44.23714" lon="4.40862">
        <ele>234</ele>
        <time>2021-11-06T16:27:09Z</time>
      </trkpt>
      <trkpt lat="44.23724" lon="4.40878">
        <ele>235</ele>
        <time>2021-11-06T16:27:12Z</time>
      </trkpt>
      <trkpt lat="44.23742" lon="4.40942">
        <ele>234</ele>
        <time>2021-11-06T16:27:21Z</time>
      </trkpt>
      <trkpt lat="44.23756" lon="4.40978">
        <ele>233</ele>
        <time>2021-11-06T16:27:26Z</time>
      </trkpt>
      <trkpt lat="44.23768" lon="4.40993">
        <ele>233</ele>
        <time>2021-11-06T16:27:29Z</time>
      </trkpt>
      <trkpt lat="44.23784" lon="4.41006">
        <ele>234</ele>
        <time>2021-11-06T16:27:32Z</time>
      </trkpt>
      <trkpt lat="44.23795" lon="4.41012">
        <ele>235</ele>
        <time>2021-11-06T16:27:34Z</time>
      </trkpt>
      <trkpt lat="44.2384" lon="4.41023">
        <ele>237</ele>
        <time>2021-11-06T16:27:42Z</time>
      </trkpt>
      <trkpt lat="44.23853" lon="4.41029">
        <ele>239</ele>
        <time>2021-11-06T16:27:45Z</time>
      </trkpt>
      <trkpt lat="44.23861" lon="4.41039">
        <ele>240</ele>
        <time>2021-11-06T16:27:47Z</time>
      </trkpt>
      <trkpt lat="44.23867" lon="4.41051">
        <ele>239</ele>
        <time>2021-11-06T16:27:48Z</time>
      </trkpt>
      <trkpt lat="44.23871" lon="4.41068">
        <ele>238</ele>
        <time>2021-11-06T16:27:51Z</time>
      </trkpt>
      <trkpt lat="44.23879" lon="4.41115">
        <ele>236</ele>
        <time>2021-11-06T16:27:57Z</time>
      </trkpt>
      <trkpt lat="44.23886" lon="4.41137">
        <ele>234</ele>
        <time>2021-11-06T16:28:00Z</time>
      </trkpt>
      <trkpt lat="44.23894" lon="4.41149">
        <ele>232</ele>
        <time>2021-11-06T16:28:02Z</time>
      </trkpt>
      <trkpt lat="44.23906" lon="4.41159">
        <ele>229</ele>
        <time>2021-11-06T16:28:05Z</time>
      </trkpt>
      <trkpt lat="44.23948" lon="4.41178">
        <ele>231</ele>
        <time>2021-11-06T16:28:12Z</time>
      </trkpt>
      <trkpt lat="44.23958" lon="4.41187">
        <ele>233</ele>
        <time>2021-11-06T16:28:15Z</time>
      </trkpt>
      <trkpt lat="44.23965" lon="4.412">
        <ele>233</ele>
        <time>2021-11-06T16:28:17Z</time>
      </trkpt>
      <trkpt lat="44.23968" lon="4.41215">
        <ele>234</ele>
        <time>2021-11-06T16:28:19Z</time>
      </trkpt>
      <trkpt lat="44.23967" lon="4.41233">
        <ele>233</ele>
        <time>2021-11-06T16:28:21Z</time>
      </trkpt>
      <trkpt lat="44.23953" lon="4.41268">
        <ele>232</ele>
        <time>2021-11-06T16:28:26Z</time>
      </trkpt>
      <trkpt lat="44.23953" lon="4.41285">
        <ele>232</ele>
        <time>2021-11-06T16:28:28Z</time>
      </trkpt>
      <trkpt lat="44.23954" lon="4.41302">
        <ele>233</ele>
        <time>2021-11-06T16:28:30Z</time>
      </trkpt>
      <trkpt lat="44.23984" lon="4.41383">
        <ele>229</ele>
        <time>2021-11-06T16:28:42Z</time>
      </trkpt>
      <trkpt lat="44.23991" lon="4.4141">
        <ele>226</ele>
        <time>2021-11-06T16:28:46Z</time>
      </trkpt>
      <trkpt lat="44.23997" lon="4.41522">
        <ele>221</ele>
        <time>2021-11-06T16:29:00Z</time>
      </trkpt>
      <trkpt lat="44.24004" lon="4.41545">
        <ele>221</ele>
        <time>2021-11-06T16:29:03Z</time>
      </trkpt>
      <trkpt lat="44.24014" lon="4.41565">
        <ele>221</ele>
        <time>2021-11-06T16:29:06Z</time>
      </trkpt>
      <trkpt lat="44.24024" lon="4.41577">
        <ele>219</ele>
        <time>2021-11-06T16:29:09Z</time>
      </trkpt>
      <trkpt lat="44.24036" lon="4.41586">
        <ele>217</ele>
        <time>2021-11-06T16:29:11Z</time>
      </trkpt>
      <trkpt lat="44.24087" lon="4.41601">
        <ele>209</ele>
        <time>2021-11-06T16:29:20Z</time>
      </trkpt>
      <trkpt lat="44.24099" lon="4.41613">
        <ele>211</ele>
        <time>2021-11-06T16:29:23Z</time>
      </trkpt>
      <trkpt lat="44.24108" lon="4.41631">
        <ele>211</ele>
        <time>2021-11-06T16:29:26Z</time>
      </trkpt>
      <trkpt lat="44.24116" lon="4.41658">
        <ele>211</ele>
        <time>2021-11-06T16:29:29Z</time>
      </trkpt>
      <trkpt lat="44.24118" lon="4.41687">
        <ele>211</ele>
        <time>2021-11-06T16:29:33Z</time>
      </trkpt>
      <trkpt lat="44.24126" lon="4.4171">
        <ele>210</ele>
        <time>2021-11-06T16:29:36Z</time>
      </trkpt>
      <trkpt lat="44.2419" lon="4.41801">
        <ele>204</ele>
        <time>2021-11-06T16:29:53Z</time>
      </trkpt>
      <trkpt lat="44.2425" lon="4.41902">
        <ele>194</ele>
        <time>2021-11-06T16:30:09Z</time>
      </trkpt>
      <trkpt lat="44.24265" lon="4.41916">
        <ele>194</ele>
        <time>2021-11-06T16:30:13Z</time>
      </trkpt>
      <trkpt lat="44.24283" lon="4.41922">
        <ele>194</ele>
        <time>2021-11-06T16:30:16Z</time>
      </trkpt>
      <trkpt lat="44.24362" lon="4.41897">
        <ele>195</ele>
        <time>2021-11-06T16:30:30Z</time>
      </trkpt>
      <trkpt lat="44.24377" lon="4.41887">
        <ele>197</ele>
        <time>2021-11-06T16:30:33Z</time>
      </trkpt>
      <trkpt lat="44.24387" lon="4.41865">
        <ele>199</ele>
        <time>2021-11-06T16:30:37Z</time>
      </trkpt>
      <trkpt lat="44.24389" lon="4.41838">
        <ele>198</ele>
        <time>2021-11-06T16:30:40Z</time>
      </trkpt>
      <trkpt lat="44.24383" lon="4.4175">
        <ele>198</ele>
        <time>2021-11-06T16:30:51Z</time>
      </trkpt>
      <trkpt lat="44.24379" lon="4.41659">
        <ele>197</ele>
        <time>2021-11-06T16:31:03Z</time>
      </trkpt>
      <trkpt lat="44.24398" lon="4.41624">
        <ele>197</ele>
        <time>2021-11-06T16:31:09Z</time>
      </trkpt>
      <trkpt lat="44.24483" lon="4.41595">
        <ele>190</ele>
        <time>2021-11-06T16:31:24Z</time>
      </trkpt>
      <trkpt lat="44.24551" lon="4.41602">
        <ele>192</ele>
        <time>2021-11-06T16:31:36Z</time>
      </trkpt>
      <trkpt lat="44.24629" lon="4.41704">
        <ele>186</ele>
        <time>2021-11-06T16:31:55Z</time>
      </trkpt>
      <trkpt lat="44.24781" lon="4.41773">
        <ele>179</ele>
        <time>2021-11-06T16:32:24Z</time>
      </trkpt>
      <trkpt lat="44.24825" lon="4.41851">
        <ele>176</ele>
        <time>2021-11-06T16:32:36Z</time>
      </trkpt>
      <trkpt lat="44.24835" lon="4.41889">
        <ele>175</ele>
        <time>2021-11-06T16:32:42Z</time>
      </trkpt>
      <trkpt lat="44.24833" lon="4.41918">
        <ele>174</ele>
        <time>2021-11-06T16:32:45Z</time>
      </trkpt>
      <trkpt lat="44.24817" lon="4.41943">
        <ele>174</ele>
        <time>2021-11-06T16:32:50Z</time>
      </trkpt>
      <trkpt lat="44.24782" lon="4.4198">
        <ele>170</ele>
        <time>2021-11-06T16:32:57Z</time>
      </trkpt>
      <trkpt lat="44.24764" lon="4.42003">
        <ele>166</ele>
        <time>2021-11-06T16:33:02Z</time>
      </trkpt>
      <trkpt lat="44.24755" lon="4.42022">
        <ele>163</ele>
        <time>2021-11-06T16:33:05Z</time>
      </trkpt>
      <trkpt lat="44.24754" lon="4.42046">
        <ele>163</ele>
        <time>2021-11-06T16:33:08Z</time>
      </trkpt>
      <trkpt lat="44.24764" lon="4.4211">
        <ele>165</ele>
        <time>2021-11-06T16:33:16Z</time>
      </trkpt>
      <trkpt lat="44.24777" lon="4.42188">
        <ele>167</ele>
        <time>2021-11-06T16:33:26Z</time>
      </trkpt>
      <trkpt lat="44.24781" lon="4.42239">
        <ele>164</ele>
        <time>2021-11-06T16:33:33Z</time>
      </trkpt>
      <trkpt lat="44.24777" lon="4.42272">
        <ele>162</ele>
        <time>2021-11-06T16:33:37Z</time>
      </trkpt>
      <trkpt lat="44.24767" lon="4.42316">
        <ele>159</ele>
        <time>2021-11-06T16:33:43Z</time>
      </trkpt>
      <trkpt lat="44.24763" lon="4.42341">
        <ele>157</ele>
        <time>2021-11-06T16:33:46Z</time>
      </trkpt>
      <trkpt lat="44.24766" lon="4.42369">
        <ele>156</ele>
        <time>2021-11-06T16:33:50Z</time>
      </trkpt>
      <trkpt lat="44.24774" lon="4.42385">
        <ele>156</ele>
        <time>2021-11-06T16:33:52Z</time>
      </trkpt>
      <trkpt lat="44.2484" lon="4.42456">
        <ele>154</ele>
        <time>2021-11-06T16:34:07Z</time>
      </trkpt>
      <trkpt lat="44.24853" lon="4.42476">
        <ele>156</ele>
        <time>2021-11-06T16:34:10Z</time>
      </trkpt>
      <trkpt lat="44.2486" lon="4.42504">
        <ele>156</ele>
        <time>2021-11-06T16:34:14Z</time>
      </trkpt>
      <trkpt lat="44.24863" lon="4.42529">
        <ele>157</ele>
        <time>2021-11-06T16:34:18Z</time>
      </trkpt>
      <trkpt lat="44.24861" lon="4.42547">
        <ele>157</ele>
        <time>2021-11-06T16:34:20Z</time>
      </trkpt>
      <trkpt lat="44.24855" lon="4.42568">
        <ele>155</ele>
        <time>2021-11-06T16:34:23Z</time>
      </trkpt>
      <trkpt lat="44.24845" lon="4.42588">
        <ele>153</ele>
        <time>2021-11-06T16:34:26Z</time>
      </trkpt>
      <trkpt lat="44.24832" lon="4.42604">
        <ele>152</ele>
        <time>2021-11-06T16:34:29Z</time>
      </trkpt>
      <trkpt lat="44.24815" lon="4.42616">
        <ele>152</ele>
        <time>2021-11-06T16:34:32Z</time>
      </trkpt>
      <trkpt lat="44.24779" lon="4.42634">
        <ele>151</ele>
        <time>2021-11-06T16:34:39Z</time>
      </trkpt>
      <trkpt lat="44.24771" lon="4.42642">
        <ele>151</ele>
        <time>2021-11-06T16:34:41Z</time>
      </trkpt>
      <trkpt lat="44.24757" lon="4.42668">
        <ele>150</ele>
        <time>2021-11-06T16:34:45Z</time>
      </trkpt>
      <trkpt lat="44.24749" lon="4.427">
        <ele>148</ele>
        <time>2021-11-06T16:34:49Z</time>
      </trkpt>
      <trkpt lat="44.24736" lon="4.42781">
        <ele>146</ele>
        <time>2021-11-06T16:35:00Z</time>
      </trkpt>
      <trkpt lat="44.24737" lon="4.42807">
        <ele>144</ele>
        <time>2021-11-06T16:35:03Z</time>
      </trkpt>
      <trkpt lat="44.2475" lon="4.4284">
        <ele>141</ele>
        <time>2021-11-06T16:35:08Z</time>
      </trkpt>
      <trkpt lat="44.24886" lon="4.43078">
        <ele>146</ele>
        <time>2021-11-06T16:35:47Z</time>
      </trkpt>
      <trkpt lat="44.2489" lon="4.43102">
        <ele>146</ele>
        <time>2021-11-06T16:35:50Z</time>
      </trkpt>
      <trkpt lat="44.24888" lon="4.43128">
        <ele>146</ele>
        <time>2021-11-06T16:35:53Z</time>
      </trkpt>
      <trkpt lat="44.24881" lon="4.43154">
        <ele>145</ele>
        <time>2021-11-06T16:35:57Z</time>
      </trkpt>
      <trkpt lat="44.24871" lon="4.43172">
        <ele>142</ele>
        <time>2021-11-06T16:36:00Z</time>
      </trkpt>
      <trkpt lat="44.24832" lon="4.43228">
        <ele>133</ele>
        <time>2021-11-06T16:36:10Z</time>
      </trkpt>
      <trkpt lat="44.24821" lon="4.43251">
        <ele>134</ele>
        <time>2021-11-06T16:36:13Z</time>
      </trkpt>
      <trkpt lat="44.24818" lon="4.43274">
        <ele>134</ele>
        <time>2021-11-06T16:36:16Z</time>
      </trkpt>
      <trkpt lat="44.2482" lon="4.43353">
        <ele>134</ele>
        <time>2021-11-06T16:36:26Z</time>
      </trkpt>
      <trkpt lat="44.24811" lon="4.43398">
        <ele>133</ele>
        <time>2021-11-06T16:36:32Z</time>
      </trkpt>
      <trkpt lat="44.24798" lon="4.43422">
        <ele>132</ele>
        <time>2021-11-06T16:36:36Z</time>
      </trkpt>
      <trkpt lat="44.24784" lon="4.4344">
        <ele>131</ele>
        <time>2021-11-06T16:36:39Z</time>
      </trkpt>
      <trkpt lat="44.24698" lon="4.43506">
        <ele>126</ele>
        <time>2021-11-06T16:36:57Z</time>
      </trkpt>
      <trkpt lat="44.24686" lon="4.43519">
        <ele>126</ele>
        <time>2021-11-06T16:37:00Z</time>
      </trkpt>
      <trkpt lat="44.24677" lon="4.43534">
        <ele>125</ele>
        <time>2021-11-06T16:37:02Z</time>
      </trkpt>
      <trkpt lat="44.24671" lon="4.4355">
        <ele>124</ele>
        <time>2021-11-06T16:37:04Z</time>
      </trkpt>
      <trkpt lat="44.24653" lon="4.4362">
        <ele>126</ele>
        <time>2021-11-06T16:37:14Z</time>
      </trkpt>
      <trkpt lat="44.24632" lon="4.4369">
        <ele>126</ele>
        <time>2021-11-06T16:37:24Z</time>
      </trkpt>
      <trkpt lat="44.24618" lon="4.43718">
        <ele>124</ele>
        <time>2021-11-06T16:37:28Z</time>
      </trkpt>
      <trkpt lat="44.24606" lon="4.43735">
        <ele>121</ele>
        <time>2021-11-06T16:37:31Z</time>
      </trkpt>
      <trkpt lat="44.24553" lon="4.43796">
        <ele>121</ele>
        <time>2021-11-06T16:37:43Z</time>
      </trkpt>
      <trkpt lat="44.24541" lon="4.43821">
        <ele>121</ele>
        <time>2021-11-06T16:37:47Z</time>
      </trkpt>
      <trkpt lat="44.24536" lon="4.43845">
        <ele>120</ele>
        <time>2021-11-06T16:37:50Z</time>
      </trkpt>
      <trkpt lat="44.24524" lon="4.43957">
        <ele>115</ele>
        <time>2021-11-06T16:38:05Z</time>
      </trkpt>
      <trkpt lat="44.2451" lon="4.44048">
        <ele>111</ele>
        <time>2021-11-06T16:38:16Z</time>
      </trkpt>
      <trkpt lat="44.24505" lon="4.44072">
        <ele>110</ele>
        <time>2021-11-06T16:38:20Z</time>
      </trkpt>
      <trkpt lat="44.24494" lon="4.44104">
        <ele>110</ele>
        <time>2021-11-06T16:38:24Z</time>
      </trkpt>
      <trkpt lat="44.24481" lon="4.44127">
        <ele>109</ele>
        <time>2021-11-06T16:38:28Z</time>
      </trkpt>
      <trkpt lat="44.24413" lon="4.44204">
        <ele>100</ele>
        <time>2021-11-06T16:38:44Z</time>
      </trkpt>
      <trkpt lat="44.24405" lon="4.4422">
        <ele>100</ele>
        <time>2021-11-06T16:38:46Z</time>
      </trkpt>
      <trkpt lat="44.244" lon="4.44239">
        <ele>99</ele>
        <time>2021-11-06T16:38:49Z</time>
      </trkpt>
      <trkpt lat="44.24399" lon="4.44258">
        <ele>98</ele>
        <time>2021-11-06T16:38:51Z</time>
      </trkpt>
      <trkpt lat="44.24402" lon="4.44279">
        <ele>98</ele>
        <time>2021-11-06T16:38:54Z</time>
      </trkpt>
      <trkpt lat="44.24413" lon="4.44317">
        <ele>98</ele>
        <time>2021-11-06T16:38:59Z</time>
      </trkpt>
      <trkpt lat="44.24442" lon="4.44394">
        <ele>98</ele>
        <time>2021-11-06T16:39:10Z</time>
      </trkpt>
      <trkpt lat="44.24458" lon="4.44433">
        <ele>98</ele>
        <time>2021-11-06T16:39:16Z</time>
      </trkpt>
      <trkpt lat="44.24509" lon="4.44521">
        <ele>96</ele>
        <time>2021-11-06T16:39:30Z</time>
      </trkpt>
      <trkpt lat="44.24678" lon="4.44798">
        <ele>91</ele>
        <time>2021-11-06T16:40:17Z</time>
      </trkpt>
      <trkpt lat="44.24693" lon="4.4482">
        <ele>90</ele>
        <time>2021-11-06T16:40:20Z</time>
      </trkpt>
      <trkpt lat="44.24705" lon="4.44828">
        <ele>91</ele>
        <time>2021-11-06T16:40:23Z</time>
      </trkpt>
      <trkpt lat="44.24722" lon="4.44833">
        <ele>92</ele>
        <time>2021-11-06T16:40:26Z</time>
      </trkpt>
      <trkpt lat="44.24733" lon="4.44833">
        <ele>93</ele>
        <time>2021-11-06T16:40:28Z</time>
      </trkpt>
      <trkpt lat="44.24785" lon="4.44829">
        <ele>95</ele>
        <time>2021-11-06T16:40:37Z</time>
      </trkpt>
      <trkpt lat="44.24792" lon="4.44832">
        <ele>94</ele>
        <time>2021-11-06T16:40:38Z</time>
      </trkpt>
      <trkpt lat="44.24795" lon="4.44838">
        <ele>94</ele>
        <time>2021-11-06T16:40:39Z</time>
      </trkpt>
      <trkpt lat="44.248" lon="4.44852">
        <ele>92</ele>
        <time>2021-11-06T16:40:41Z</time>
      </trkpt>
      <trkpt lat="44.24824" lon="4.4497">
        <ele>96</ele>
        <time>2021-11-06T16:40:57Z</time>
      </trkpt>
      <trkpt lat="44.24825" lon="4.44979">
        <ele>97</ele>
        <time>2021-11-06T16:40:58Z</time>
      </trkpt>
      <trkpt lat="44.24788" lon="4.44997">
        <ele>95</ele>
        <time>2021-11-06T16:41:05Z</time>
      </trkpt>
      <trkpt lat="44.24732" lon="4.4502">
        <ele>93</ele>
        <time>2021-11-06T16:41:16Z</time>
      </trkpt>
      <trkpt lat="44.24548" lon="4.45092">
        <ele>94</ele>
        <time>2021-11-06T16:41:50Z</time>
      </trkpt>
      <trkpt lat="44.24397" lon="4.45106">
        <ele>92</ele>
        <time>2021-11-06T16:42:16Z</time>
      </trkpt>
      <trkpt lat="44.24322" lon="4.4508">
        <ele>90</ele>
        <time>2021-11-06T16:42:30Z</time>
      </trkpt>
      <trkpt lat="44.24202" lon="4.45017">
        <ele>86</ele>
        <time>2021-11-06T16:42:53Z</time>
      </trkpt>
      <trkpt lat="44.24066" lon="4.44938">
        <ele>82</ele>
        <time>2021-11-06T16:43:19Z</time>
      </trkpt>
      <trkpt lat="44.23934" lon="4.44871">
        <ele>81</ele>
        <time>2021-11-06T16:43:44Z</time>
      </trkpt>
      <trkpt lat="44.23886" lon="4.44852">
        <ele>81</ele>
        <time>2021-11-06T16:43:53Z</time>
      </trkpt>
      <trkpt lat="44.23853" lon="4.44846">
        <ele>82</ele>
        <time>2021-11-06T16:43:59Z</time>
      </trkpt>
      <trkpt lat="44.23825" lon="4.44843">
        <ele>82</ele>
        <time>2021-11-06T16:44:04Z</time>
      </trkpt>
      <trkpt lat="44.23785" lon="4.44849">
        <ele>82</ele>
        <time>2021-11-06T16:44:11Z</time>
      </trkpt>
      <trkpt lat="44.23755" lon="4.44858">
        <ele>81</ele>
        <time>2021-11-06T16:44:17Z</time>
      </trkpt>
      <trkpt lat="44.23703" lon="4.44882">
        <ele>81</ele>
        <time>2021-11-06T16:44:26Z</time>
      </trkpt>
      <trkpt lat="44.23645" lon="4.44913">
        <ele>81</ele>
        <time>2021-11-06T16:44:37Z</time>
      </trkpt>
      <trkpt lat="44.23602" lon="4.44939">
        <ele>81</ele>
        <time>2021-11-06T16:44:46Z</time>
      </trkpt>
      <trkpt lat="44.2357" lon="4.44967">
        <ele>81</ele>
        <time>2021-11-06T16:44:52Z</time>
      </trkpt>
      <trkpt lat="44.23526" lon="4.45018">
        <ele>82</ele>
        <time>2021-11-06T16:45:03Z</time>
      </trkpt>
      <trkpt lat="44.23293" lon="4.45301">
        <ele>80</ele>
        <time>2021-11-06T16:45:58Z</time>
      </trkpt>
      <trkpt lat="44.23211" lon="4.45374">
        <ele>80</ele>
        <time>2021-11-06T16:46:15Z</time>
      </trkpt>
      <trkpt lat="44.23161" lon="4.45428">
        <ele>80</ele>
        <time>2021-11-06T16:46:26Z</time>
      </trkpt>
      <trkpt lat="44.2313" lon="4.45476">
        <ele>80</ele>
        <time>2021-11-06T16:46:34Z</time>
      </trkpt>
      <trkpt lat="44.23114" lon="4.45511">
        <ele>80</ele>
        <time>2021-11-06T16:46:40Z</time>
      </trkpt>
      <trkpt lat="44.23092" lon="4.45578">
        <ele>80</ele>
        <time>2021-11-06T16:46:49Z</time>
      </trkpt>
      <trkpt lat="44.23058" lon="4.45704">
        <ele>80</ele>
        <time>2021-11-06T16:47:06Z</time>
      </trkpt>
      <trkpt lat="44.22984" lon="4.45937">
        <ele>85</ele>
        <time>2021-11-06T16:47:39Z</time>
      </trkpt>
      <trkpt lat="44.22934" lon="4.46082">
        <ele>87</ele>
        <time>2021-11-06T16:47:59Z</time>
      </trkpt>
      <trkpt lat="44.22912" lon="4.46146">
        <ele>83</ele>
        <time>2021-11-06T16:48:08Z</time>
      </trkpt>
      <trkpt lat="44.22905" lon="4.46173">
        <ele>84</ele>
        <time>2021-11-06T16:48:12Z</time>
      </trkpt>
      <trkpt lat="44.229" lon="4.46198">
        <ele>84</ele>
        <time>2021-11-06T16:48:15Z</time>
      </trkpt>
      <trkpt lat="44.22898" lon="4.46239">
        <ele>85</ele>
        <time>2021-11-06T16:48:21Z</time>
      </trkpt>
      <trkpt lat="44.22896" lon="4.46342">
        <ele>85</ele>
        <time>2021-11-06T16:48:34Z</time>
      </trkpt>
      <trkpt lat="44.22891" lon="4.46393">
        <ele>85</ele>
        <time>2021-11-06T16:48:40Z</time>
      </trkpt>
      <trkpt lat="44.22878" lon="4.46474">
        <ele>83</ele>
        <time>2021-11-06T16:48:51Z</time>
      </trkpt>
      <trkpt lat="44.22819" lon="4.46773">
        <ele>83</ele>
        <time>2021-11-06T16:49:30Z</time>
      </trkpt>
      <trkpt lat="44.22803" lon="4.46873">
        <ele>86</ele>
        <time>2021-11-06T16:49:43Z</time>
      </trkpt>
      <trkpt lat="44.2278" lon="4.46971">
        <ele>88</ele>
        <time>2021-11-06T16:49:57Z</time>
      </trkpt>
      <trkpt lat="44.22756" lon="4.47059">
        <ele>87</ele>
        <time>2021-11-06T16:50:09Z</time>
      </trkpt>
      <trkpt lat="44.22735" lon="4.47106">
        <ele>85</ele>
        <time>2021-11-06T16:50:16Z</time>
      </trkpt>
      <trkpt lat="44.22653" lon="4.47263">
        <ele>80</ele>
        <time>2021-11-06T16:50:40Z</time>
      </trkpt>
      <trkpt lat="44.22433" lon="4.47644">
        <ele>79</ele>
        <time>2021-11-06T16:51:43Z</time>
      </trkpt>
      <trkpt lat="44.22287" lon="4.47888">
        <ele>81</ele>
        <time>2021-11-06T16:52:23Z</time>
      </trkpt>
      <trkpt lat="44.22256" lon="4.47936">
        <ele>82</ele>
        <time>2021-11-06T16:52:32Z</time>
      </trkpt>
      <trkpt lat="44.22165" lon="4.48055">
        <ele>85</ele>
        <time>2021-11-06T16:52:54Z</time>
      </trkpt>
      <trkpt lat="44.2197" lon="4.48346">
        <ele>81</ele>
        <time>2021-11-06T16:53:45Z</time>
      </trkpt>
      <trkpt lat="44.21886" lon="4.48458">
        <ele>82</ele>
        <time>2021-11-06T16:54:05Z</time>
      </trkpt>
      <trkpt lat="44.21853" lon="4.485">
        <ele>83</ele>
        <time>2021-11-06T16:54:13Z</time>
      </trkpt>
      <trkpt lat="44.21832" lon="4.4852">
        <ele>84</ele>
        <time>2021-11-06T16:54:18Z</time>
      </trkpt>
      <trkpt lat="44.21847" lon="4.48546">
        <ele>86</ele>
        <time>2021-11-06T16:54:22Z</time>
      </trkpt>
      <trkpt lat="44.21872" lon="4.48581">
        <ele>87</ele>
        <time>2021-11-06T16:54:28Z</time>
      </trkpt>
      <trkpt lat="44.21885" lon="4.48603">
        <ele>87</ele>
        <time>2021-11-06T16:54:32Z</time>
      </trkpt>
      <trkpt lat="44.2188" lon="4.4865">
        <ele>90</ele>
        <time>2021-11-06T16:54:38Z</time>
      </trkpt>
      <trkpt lat="44.21864" lon="4.48735">
        <ele>92</ele>
        <time>2021-11-06T16:54:49Z</time>
      </trkpt>
      <trkpt lat="44.21864" lon="4.4875">
        <ele>92</ele>
        <time>2021-11-06T16:54:51Z</time>
      </trkpt>
      <trkpt lat="44.2187" lon="4.48775">
        <ele>93</ele>
        <time>2021-11-06T16:54:54Z</time>
      </trkpt>
      <trkpt lat="44.21883" lon="4.48802">
        <ele>96</ele>
        <time>2021-11-06T16:54:59Z</time>
      </trkpt>
      <trkpt lat="44.21889" lon="4.48809">
        <ele>97</ele>
        <time>2021-11-06T16:55:00Z</time>
      </trkpt>
      <trkpt lat="44.219" lon="4.48814">
        <ele>99</ele>
        <time>2021-11-06T16:55:02Z</time>
      </trkpt>
      <trkpt lat="44.21917" lon="4.4881">
        <ele>100</ele>
        <time>2021-11-06T16:55:05Z</time>
      </trkpt>
      <trkpt lat="44.21973" lon="4.48769">
        <ele>104</ele>
        <time>2021-11-06T16:55:16Z</time>
      </trkpt>
      <trkpt lat="44.2203" lon="4.48741">
        <ele>107</ele>
        <time>2021-11-06T16:55:27Z</time>
      </trkpt>
      <trkpt lat="44.2206" lon="4.48731">
        <ele>109</ele>
        <time>2021-11-06T16:55:33Z</time>
      </trkpt>
      <trkpt lat="44.22174" lon="4.48706">
        <ele>114</ele>
        <time>2021-11-06T16:55:53Z</time>
      </trkpt>
      <trkpt lat="44.22196" lon="4.48706">
        <ele>115</ele>
        <time>2021-11-06T16:55:57Z</time>
      </trkpt>
      <trkpt lat="44.22208" lon="4.48708">
        <ele>116</ele>
        <time>2021-11-06T16:55:59Z</time>
      </trkpt>
      <trkpt lat="44.22224" lon="4.48717">
        <ele>119</ele>
        <time>2021-11-06T16:56:02Z</time>
      </trkpt>
      <trkpt lat="44.22238" lon="4.48738">
        <ele>124</ele>
        <time>2021-11-06T16:56:06Z</time>
      </trkpt>
      <trkpt lat="44.22242" lon="4.48748">
        <ele>126</ele>
        <time>2021-11-06T16:56:07Z</time>
      </trkpt>
      <trkpt lat="44.22251" lon="4.4876">
        <ele>128</ele>
        <time>2021-11-06T16:56:10Z</time>
      </trkpt>
      <trkpt lat="44.22266" lon="4.48767">
        <ele>131</ele>
        <time>2021-11-06T16:56:12Z</time>
      </trkpt>
      <trkpt lat="44.22289" lon="4.48772">
        <ele>133</ele>
        <time>2021-11-06T16:56:17Z</time>
      </trkpt>
      <trkpt lat="44.22299" lon="4.48772">
        <ele>134</ele>
        <time>2021-11-06T16:56:18Z</time>
      </trkpt>
      <trkpt lat="44.22309" lon="4.48768">
        <ele>135</ele>
        <time>2021-11-06T16:56:20Z</time>
      </trkpt>
      <trkpt lat="44.22325" lon="4.48757">
        <ele>135</ele>
        <time>2021-11-06T16:56:23Z</time>
      </trkpt>
      <trkpt lat="44.22331" lon="4.48747">
        <ele>134</ele>
        <time>2021-11-06T16:56:25Z</time>
      </trkpt>
      <trkpt lat="44.22345" lon="4.48714">
        <ele>135</ele>
        <time>2021-11-06T16:56:30Z</time>
      </trkpt>
      <trkpt lat="44.22389" lon="4.48626">
        <ele>141</ele>
        <time>2021-11-06T16:56:44Z</time>
      </trkpt>
      <trkpt lat="44.22413" lon="4.48558">
        <ele>141</ele>
        <time>2021-11-06T16:56:53Z</time>
      </trkpt>
      <trkpt lat="44.22429" lon="4.48527">
        <ele>139</ele>
        <time>2021-11-06T16:56:58Z</time>
      </trkpt>
      <trkpt lat="44.2245" lon="4.48497">
        <ele>137</ele>
        <time>2021-11-06T16:57:03Z</time>
      </trkpt>
      <trkpt lat="44.2246" lon="4.48488">
        <ele>137</ele>
        <time>2021-11-06T16:57:06Z</time>
      </trkpt>
      <trkpt lat="44.22484" lon="4.4848">
        <ele>138</ele>
        <time>2021-11-06T16:57:10Z</time>
      </trkpt>
      <trkpt lat="44.22496" lon="4.4848">
        <ele>140</ele>
        <time>2021-11-06T16:57:12Z</time>
      </trkpt>
      <trkpt lat="44.22517" lon="4.48486">
        <ele>139</ele>
        <time>2021-11-06T16:57:16Z</time>
      </trkpt>
      <trkpt lat="44.22526" lon="4.48494">
        <ele>140</ele>
        <time>2021-11-06T16:57:18Z</time>
      </trkpt>
      <trkpt lat="44.22537" lon="4.48514">
        <ele>141</ele>
        <time>2021-11-06T16:57:21Z</time>
      </trkpt>
      <trkpt lat="44.22543" lon="4.48531">
        <ele>142</ele>
        <time>2021-11-06T16:57:23Z</time>
      </trkpt>
      <trkpt lat="44.22554" lon="4.48573">
        <ele>146</ele>
        <time>2021-11-06T16:57:29Z</time>
      </trkpt>
      <trkpt lat="44.22557" lon="4.48598">
        <ele>148</ele>
        <time>2021-11-06T16:57:32Z</time>
      </trkpt>
      <trkpt lat="44.22559" lon="4.48623">
        <ele>149</ele>
        <time>2021-11-06T16:57:36Z</time>
      </trkpt>
      <trkpt lat="44.22559" lon="4.48679">
        <ele>153</ele>
        <time>2021-11-06T16:57:43Z</time>
      </trkpt>
      <trkpt lat="44.22557" lon="4.48689">
        <ele>154</ele>
        <time>2021-11-06T16:57:44Z</time>
      </trkpt>
    </trkseg>
  </trk>
</gpx>